<?xml version="1.0" encoding="UTF-8" standalone="no" ?><gpx xmlns="http://www.topografix.com/GPX/1/1" xmlns:gpxx="http://www.garmin.com/xmlschemas/GpxExtensions/v3" xmlns:wptx1="http://www.garmin.com/xmlschemas/WaypointExtension/v1" xmlns:gpxtpx="http://www.garmin.com/xmlschemas/TrackPointExtension/v1" creator="GuideVTT.com" version="1.1" xmlns:xsi="http://www.w3.org/2001/XMLSchema-instance" xsi:schemaLocation="http://www.topografix.com/GPX/1/1 http://www.topografix.com/GPX/1/1/gpx.xsd http://www.garmin.com/xmlschemas/GpxExtensions/v3 http://www8.garmin.com/xmlschemas/GpxExtensionsv3.xsd http://www.garmin.com/xmlschemas/WaypointExtension/v1 http://www8.garmin.com/xmlschemas/WaypointExtensionv1.xsd http://www.garmin.com/xmlschemas/TrackPointExtension/v1 http://www.garmin.com/xmlschemas/TrackPointExtensionv1.xsd">
<metadata><link href="http://www.garmin.com"><text>Garmin International</text></link><time>2013-06-22T15:13:50Z</time></metadata>
<trk><name>arbaz.gpx</name><extensions><gpxx:TrackExtension><gpxx:DisplayColor>Cyan</gpxx:DisplayColor></gpxx:TrackExtension></extensions><trkseg>
<trkpt lat="46.23011780" lon="7.35162354"><ele>489</ele><time>2007-05-30T10:50:38Z</time></trkpt>
<trkpt lat="46.23011780" lon="7.35162306"><ele>489</ele><time>2007-05-30T10:50:39Z</time></trkpt>
<trkpt lat="46.23011780" lon="7.35162258"><ele>489</ele><time>2007-05-30T10:50:40Z</time></trkpt>
<trkpt lat="46.23011398" lon="7.35161972"><ele>490</ele><time>2007-05-30T10:50:41Z</time></trkpt>
<trkpt lat="46.23012543" lon="7.35150623"><ele>489</ele><time>2007-05-30T10:50:44Z</time></trkpt>
<trkpt lat="46.23016357" lon="7.35120773"><ele>489</ele><time>2007-05-30T10:50:49Z</time></trkpt>
<trkpt lat="46.23024368" lon="7.35072517"><ele>489</ele><time>2007-05-30T10:50:55Z</time></trkpt>
<trkpt lat="46.23025894" lon="7.35063648"><ele>490</ele><time>2007-05-30T10:50:56Z</time></trkpt>
<trkpt lat="46.23026657" lon="7.35033369"><ele>489</ele><time>2007-05-30T10:50:59Z</time></trkpt>
<trkpt lat="46.23025894" lon="7.35023260"><ele>488</ele><time>2007-05-30T10:51:00Z</time></trkpt>
<trkpt lat="46.23024750" lon="7.35013199"><ele>489</ele><time>2007-05-30T10:51:01Z</time></trkpt>
<trkpt lat="46.23019409" lon="7.34983778"><ele>489</ele><time>2007-05-30T10:51:04Z</time></trkpt>
<trkpt lat="46.23014069" lon="7.34952784"><ele>489</ele><time>2007-05-30T10:51:07Z</time></trkpt>
<trkpt lat="46.23006821" lon="7.34911394"><ele>489</ele><time>2007-05-30T10:51:11Z</time></trkpt>
<trkpt lat="46.23005676" lon="7.34901667"><ele>489</ele><time>2007-05-30T10:51:12Z</time></trkpt>
<trkpt lat="46.23011398" lon="7.34883928"><ele>489</ele><time>2007-05-30T10:51:15Z</time></trkpt>
<trkpt lat="46.23026657" lon="7.34876299"><ele>490</ele><time>2007-05-30T10:51:19Z</time></trkpt>
<trkpt lat="46.23026657" lon="7.34864521"><ele>489</ele><time>2007-05-30T10:51:21Z</time></trkpt>
<trkpt lat="46.23023987" lon="7.34858704"><ele>489</ele><time>2007-05-30T10:51:22Z</time></trkpt>
<trkpt lat="46.22994614" lon="7.34794855"><ele>488</ele><time>2007-05-30T10:51:30Z</time></trkpt>
<trkpt lat="46.22960663" lon="7.34717178"><ele>487</ele><time>2007-05-30T10:51:38Z</time></trkpt>
<trkpt lat="46.22934723" lon="7.34658098"><ele>486</ele><time>2007-05-30T10:51:44Z</time></trkpt>
<trkpt lat="46.22921753" lon="7.34616566"><ele>486</ele><time>2007-05-30T10:51:48Z</time></trkpt>
<trkpt lat="46.22908020" lon="7.34607840"><ele>485</ele><time>2007-05-30T10:51:50Z</time></trkpt>
<trkpt lat="46.22900391" lon="7.34607506"><ele>486</ele><time>2007-05-30T10:51:51Z</time></trkpt>
<trkpt lat="46.22877884" lon="7.34609365"><ele>484</ele><time>2007-05-30T10:51:55Z</time></trkpt>
<trkpt lat="46.22870636" lon="7.34610510"><ele>483</ele><time>2007-05-30T10:51:58Z</time></trkpt>
<trkpt lat="46.22865677" lon="7.34611702"><ele>483</ele><time>2007-05-30T10:52:05Z</time></trkpt>
<trkpt lat="46.22862625" lon="7.34612370"><ele>483</ele><time>2007-05-30T10:52:11Z</time></trkpt>
<trkpt lat="46.22862625" lon="7.34612799"><ele>483</ele><time>2007-05-30T10:52:16Z</time></trkpt>
<trkpt lat="46.22862625" lon="7.34613132"><ele>483</ele><time>2007-05-30T10:52:21Z</time></trkpt>
<trkpt lat="46.22862625" lon="7.34613705"><ele>482</ele><time>2007-05-30T10:52:27Z</time></trkpt>
<trkpt lat="46.22863007" lon="7.34614038"><ele>483</ele><time>2007-05-30T10:52:33Z</time></trkpt>
<trkpt lat="46.22863007" lon="7.34614563"><ele>483</ele><time>2007-05-30T10:52:48Z</time></trkpt>
<trkpt lat="46.22855377" lon="7.34615374"><ele>483</ele><time>2007-05-30T10:52:56Z</time></trkpt>
<trkpt lat="46.22837448" lon="7.34617615"><ele>483</ele><time>2007-05-30T10:53:00Z</time></trkpt>
<trkpt lat="46.22820663" lon="7.34619617"><ele>483</ele><time>2007-05-30T10:53:03Z</time></trkpt>
<trkpt lat="46.22803116" lon="7.34622002"><ele>484</ele><time>2007-05-30T10:53:06Z</time></trkpt>
<trkpt lat="46.22769547" lon="7.34629393"><ele>485</ele><time>2007-05-30T10:53:12Z</time></trkpt>
<trkpt lat="46.22749710" lon="7.34620190"><ele>484</ele><time>2007-05-30T10:53:16Z</time></trkpt>
<trkpt lat="46.22743225" lon="7.34599829"><ele>483</ele><time>2007-05-30T10:53:19Z</time></trkpt>
<trkpt lat="46.22731400" lon="7.34539843"><ele>483</ele><time>2007-05-30T10:53:26Z</time></trkpt>
<trkpt lat="46.22718048" lon="7.34475088"><ele>483</ele><time>2007-05-30T10:53:33Z</time></trkpt>
<trkpt lat="46.22705460" lon="7.34416819"><ele>483</ele><time>2007-05-30T10:53:39Z</time></trkpt>
<trkpt lat="46.22682953" lon="7.34308577"><ele>483</ele><time>2007-05-30T10:53:50Z</time></trkpt>
<trkpt lat="46.22666550" lon="7.34232903"><ele>484</ele><time>2007-05-30T10:53:58Z</time></trkpt>
<trkpt lat="46.22663116" lon="7.34214735"><ele>483</ele><time>2007-05-30T10:54:00Z</time></trkpt>
<trkpt lat="46.22666550" lon="7.34180546"><ele>483</ele><time>2007-05-30T10:54:04Z</time></trkpt>
<trkpt lat="46.22671890" lon="7.34175968"><ele>482</ele><time>2007-05-30T10:54:05Z</time></trkpt>
<trkpt lat="46.22684097" lon="7.34168768"><ele>483</ele><time>2007-05-30T10:54:07Z</time></trkpt>
<trkpt lat="46.22697067" lon="7.34151840"><ele>483</ele><time>2007-05-30T10:54:10Z</time></trkpt>
<trkpt lat="46.22695160" lon="7.34135342"><ele>483</ele><time>2007-05-30T10:54:12Z</time></trkpt>
<trkpt lat="46.22678375" lon="7.34083700"><ele>484</ele><time>2007-05-30T10:54:18Z</time></trkpt>
<trkpt lat="46.22649384" lon="7.34030008"><ele>484</ele><time>2007-05-30T10:54:25Z</time></trkpt>
<trkpt lat="46.22637939" lon="7.34012032"><ele>484</ele><time>2007-05-30T10:54:28Z</time></trkpt>
<trkpt lat="46.22618103" lon="7.33995628"><ele>484</ele><time>2007-05-30T10:54:32Z</time></trkpt>
<trkpt lat="46.22583389" lon="7.33978653"><ele>484</ele><time>2007-05-30T10:54:38Z</time></trkpt>
<trkpt lat="46.22565842" lon="7.33955336"><ele>485</ele><time>2007-05-30T10:54:42Z</time></trkpt>
<trkpt lat="46.22548676" lon="7.33915901"><ele>484</ele><time>2007-05-30T10:54:47Z</time></trkpt>
<trkpt lat="46.22545624" lon="7.33906984"><ele>484</ele><time>2007-05-30T10:54:48Z</time></trkpt>
<trkpt lat="46.22546005" lon="7.33868217"><ele>484</ele><time>2007-05-30T10:54:52Z</time></trkpt>
<trkpt lat="46.22547150" lon="7.33858681"><ele>484</ele><time>2007-05-30T10:54:53Z</time></trkpt>
<trkpt lat="46.22544861" lon="7.33811426"><ele>484</ele><time>2007-05-30T10:54:58Z</time></trkpt>
<trkpt lat="46.22540665" lon="7.33750248"><ele>484</ele><time>2007-05-30T10:55:04Z</time></trkpt>
<trkpt lat="46.22539902" lon="7.33740759"><ele>483</ele><time>2007-05-30T10:55:05Z</time></trkpt>
<trkpt lat="46.22527313" lon="7.33695126"><ele>484</ele><time>2007-05-30T10:55:10Z</time></trkpt>
<trkpt lat="46.22521591" lon="7.33668089"><ele>484</ele><time>2007-05-30T10:55:14Z</time></trkpt>
<trkpt lat="46.22525024" lon="7.33665133"><ele>484</ele><time>2007-05-30T10:55:15Z</time></trkpt>
<trkpt lat="46.22557068" lon="7.33648634"><ele>485</ele><time>2007-05-30T10:55:21Z</time></trkpt>
<trkpt lat="46.22589111" lon="7.33628559"><ele>483</ele><time>2007-05-30T10:55:27Z</time></trkpt>
<trkpt lat="46.22591019" lon="7.33612633"><ele>483</ele><time>2007-05-30T10:55:31Z</time></trkpt>
<trkpt lat="46.22584152" lon="7.33587360"><ele>483</ele><time>2007-05-30T10:55:35Z</time></trkpt>
<trkpt lat="46.22555923" lon="7.33530760"><ele>483</ele><time>2007-05-30T10:55:44Z</time></trkpt>
<trkpt lat="46.22531891" lon="7.33485413"><ele>484</ele><time>2007-05-30T10:55:51Z</time></trkpt>
<trkpt lat="46.22530365" lon="7.33458424"><ele>483</ele><time>2007-05-30T10:55:55Z</time></trkpt>
<trkpt lat="46.22542572" lon="7.33440971"><ele>483</ele><time>2007-05-30T10:55:58Z</time></trkpt>
<trkpt lat="46.22552490" lon="7.33430338"><ele>483</ele><time>2007-05-30T10:56:00Z</time></trkpt>
<trkpt lat="46.22562408" lon="7.33402872"><ele>482</ele><time>2007-05-30T10:56:04Z</time></trkpt>
<trkpt lat="46.22552872" lon="7.33385038"><ele>483</ele><time>2007-05-30T10:56:07Z</time></trkpt>
<trkpt lat="46.22524643" lon="7.33352518"><ele>484</ele><time>2007-05-30T10:56:13Z</time></trkpt>
<trkpt lat="46.22501755" lon="7.33344984"><ele>484</ele><time>2007-05-30T10:56:17Z</time></trkpt>
<trkpt lat="46.22476196" lon="7.33327532"><ele>484</ele><time>2007-05-30T10:56:22Z</time></trkpt>
<trkpt lat="46.22472763" lon="7.33319759"><ele>484</ele><time>2007-05-30T10:56:23Z</time></trkpt>
<trkpt lat="46.22443390" lon="7.33246326"><ele>484</ele><time>2007-05-30T10:56:32Z</time></trkpt>
<trkpt lat="46.22435379" lon="7.33221292"><ele>484</ele><time>2007-05-30T10:56:35Z</time></trkpt>
<trkpt lat="46.22427750" lon="7.33184052"><ele>484</ele><time>2007-05-30T10:56:39Z</time></trkpt>
<trkpt lat="46.22414017" lon="7.33141756"><ele>484</ele><time>2007-05-30T10:56:44Z</time></trkpt>
<trkpt lat="46.22387695" lon="7.33075953"><ele>483</ele><time>2007-05-30T10:56:52Z</time></trkpt>
<trkpt lat="46.22360992" lon="7.32993984"><ele>483</ele><time>2007-05-30T10:57:01Z</time></trkpt>
<trkpt lat="46.22352982" lon="7.32935619"><ele>482</ele><time>2007-05-30T10:57:07Z</time></trkpt>
<trkpt lat="46.22344971" lon="7.32866621"><ele>484</ele><time>2007-05-30T10:57:14Z</time></trkpt>
<trkpt lat="46.22331238" lon="7.32788897"><ele>484</ele><time>2007-05-30T10:57:22Z</time></trkpt>
<trkpt lat="46.22331238" lon="7.32779026"><ele>484</ele><time>2007-05-30T10:57:23Z</time></trkpt>
<trkpt lat="46.22334671" lon="7.32738590"><ele>483</ele><time>2007-05-30T10:57:27Z</time></trkpt>
<trkpt lat="46.22328186" lon="7.32687235"><ele>483</ele><time>2007-05-30T10:57:32Z</time></trkpt>
<trkpt lat="46.22308731" lon="7.32593298"><ele>483</ele><time>2007-05-30T10:57:41Z</time></trkpt>
<trkpt lat="46.22290421" lon="7.32522535"><ele>483</ele><time>2007-05-30T10:57:48Z</time></trkpt>
<trkpt lat="46.22287750" lon="7.32512474"><ele>483</ele><time>2007-05-30T10:57:49Z</time></trkpt>
<trkpt lat="46.22271347" lon="7.32494926"><ele>483</ele><time>2007-05-30T10:57:52Z</time></trkpt>
<trkpt lat="46.22256470" lon="7.32498074"><ele>483</ele><time>2007-05-30T10:57:54Z</time></trkpt>
<trkpt lat="46.22228622" lon="7.32499361"><ele>483</ele><time>2007-05-30T10:57:58Z</time></trkpt>
<trkpt lat="46.22219086" lon="7.32474470"><ele>483</ele><time>2007-05-30T10:58:01Z</time></trkpt>
<trkpt lat="46.22203827" lon="7.32396650"><ele>483</ele><time>2007-05-30T10:58:09Z</time></trkpt>
<trkpt lat="46.22182846" lon="7.32294512"><ele>483</ele><time>2007-05-30T10:58:19Z</time></trkpt>
<trkpt lat="46.22164536" lon="7.32200575"><ele>482</ele><time>2007-05-30T10:58:28Z</time></trkpt>
<trkpt lat="46.22146988" lon="7.32118511"><ele>483</ele><time>2007-05-30T10:58:36Z</time></trkpt>
<trkpt lat="46.22135925" lon="7.32069111"><ele>483</ele><time>2007-05-30T10:58:41Z</time></trkpt>
<trkpt lat="46.22131729" lon="7.32040024"><ele>483</ele><time>2007-05-30T10:58:44Z</time></trkpt>
<trkpt lat="46.22128296" lon="7.32009506"><ele>483</ele><time>2007-05-30T10:58:47Z</time></trkpt>
<trkpt lat="46.22135162" lon="7.31993771"><ele>483</ele><time>2007-05-30T10:58:49Z</time></trkpt>
<trkpt lat="46.22149658" lon="7.31965113"><ele>483</ele><time>2007-05-30T10:58:53Z</time></trkpt>
<trkpt lat="46.22145462" lon="7.31946945"><ele>483</ele><time>2007-05-30T10:58:55Z</time></trkpt>
<trkpt lat="46.22103119" lon="7.31830406"><ele>483</ele><time>2007-05-30T10:59:08Z</time></trkpt>
<trkpt lat="46.22069550" lon="7.31741810"><ele>483</ele><time>2007-05-30T10:59:18Z</time></trkpt>
<trkpt lat="46.22041321" lon="7.31666660"><ele>483</ele><time>2007-05-30T10:59:27Z</time></trkpt>
<trkpt lat="46.22003937" lon="7.31566477"><ele>482</ele><time>2007-05-30T10:59:39Z</time></trkpt>
<trkpt lat="46.21979141" lon="7.31498671"><ele>482</ele><time>2007-05-30T10:59:47Z</time></trkpt>
<trkpt lat="46.21945572" lon="7.31408405"><ele>482</ele><time>2007-05-30T10:59:58Z</time></trkpt>
<trkpt lat="46.21912384" lon="7.31315708"><ele>482</ele><time>2007-05-30T11:00:09Z</time></trkpt>
<trkpt lat="46.21893692" lon="7.31244278"><ele>483</ele><time>2007-05-30T11:00:17Z</time></trkpt>
<trkpt lat="46.21868515" lon="7.31143856"><ele>484</ele><time>2007-05-30T11:00:28Z</time></trkpt>
<trkpt lat="46.21842575" lon="7.31075954"><ele>484</ele><time>2007-05-30T11:00:36Z</time></trkpt>
<trkpt lat="46.21821213" lon="7.31026936"><ele>485</ele><time>2007-05-30T11:00:42Z</time></trkpt>
<trkpt lat="46.21805954" lon="7.30984306"><ele>485</ele><time>2007-05-30T11:00:47Z</time></trkpt>
<trkpt lat="46.21787262" lon="7.30925560"><ele>485</ele><time>2007-05-30T11:00:54Z</time></trkpt>
<trkpt lat="46.21770096" lon="7.30876589"><ele>487</ele><time>2007-05-30T11:01:00Z</time></trkpt>
<trkpt lat="46.21744537" lon="7.30800581"><ele>488</ele><time>2007-05-30T11:01:10Z</time></trkpt>
<trkpt lat="46.21730804" lon="7.30756140"><ele>487</ele><time>2007-05-30T11:01:16Z</time></trkpt>
<trkpt lat="46.21712875" lon="7.30745888"><ele>487</ele><time>2007-05-30T11:01:20Z</time></trkpt>
<trkpt lat="46.21707153" lon="7.30739784"><ele>487</ele><time>2007-05-30T11:01:22Z</time></trkpt>
<trkpt lat="46.21695328" lon="7.30695295"><ele>488</ele><time>2007-05-30T11:01:30Z</time></trkpt>
<trkpt lat="46.21687317" lon="7.30662394"><ele>488</ele><time>2007-05-30T11:01:35Z</time></trkpt>
<trkpt lat="46.21678543" lon="7.30648994"><ele>489</ele><time>2007-05-30T11:01:38Z</time></trkpt>
<trkpt lat="46.21660995" lon="7.30656052"><ele>489</ele><time>2007-05-30T11:01:42Z</time></trkpt>
<trkpt lat="46.21654510" lon="7.30652094"><ele>490</ele><time>2007-05-30T11:01:44Z</time></trkpt>
<trkpt lat="46.21646500" lon="7.30621433"><ele>491</ele><time>2007-05-30T11:01:50Z</time></trkpt>
<trkpt lat="46.21635818" lon="7.30575752"><ele>492</ele><time>2007-05-30T11:01:58Z</time></trkpt>
<trkpt lat="46.21634293" lon="7.30565453"><ele>492</ele><time>2007-05-30T11:02:00Z</time></trkpt>
<trkpt lat="46.21647263" lon="7.30555058"><ele>491</ele><time>2007-05-30T11:02:04Z</time></trkpt>
<trkpt lat="46.21677017" lon="7.30546379"><ele>493</ele><time>2007-05-30T11:02:10Z</time></trkpt>
<trkpt lat="46.21686554" lon="7.30541611"><ele>492</ele><time>2007-05-30T11:02:12Z</time></trkpt>
<trkpt lat="46.21739578" lon="7.30528498"><ele>492</ele><time>2007-05-30T11:02:22Z</time></trkpt>
<trkpt lat="46.21782684" lon="7.30527163"><ele>494</ele><time>2007-05-30T11:02:30Z</time></trkpt>
<trkpt lat="46.21830750" lon="7.30533123"><ele>494</ele><time>2007-05-30T11:02:39Z</time></trkpt>
<trkpt lat="46.21879196" lon="7.30546045"><ele>495</ele><time>2007-05-30T11:02:48Z</time></trkpt>
<trkpt lat="46.21905518" lon="7.30558395"><ele>495</ele><time>2007-05-30T11:02:53Z</time></trkpt>
<trkpt lat="46.21958160" lon="7.30589151"><ele>495</ele><time>2007-05-30T11:03:03Z</time></trkpt>
<trkpt lat="46.21998215" lon="7.30622625"><ele>496</ele><time>2007-05-30T11:03:11Z</time></trkpt>
<trkpt lat="46.22039795" lon="7.30667973"><ele>497</ele><time>2007-05-30T11:03:20Z</time></trkpt>
<trkpt lat="46.22072601" lon="7.30711079"><ele>498</ele><time>2007-05-30T11:03:28Z</time></trkpt>
<trkpt lat="46.22100830" lon="7.30751133"><ele>499</ele><time>2007-05-30T11:03:36Z</time></trkpt>
<trkpt lat="46.22112656" lon="7.30767775"><ele>498</ele><time>2007-05-30T11:03:41Z</time></trkpt>
<trkpt lat="46.22132492" lon="7.30798912"><ele>499</ele><time>2007-05-30T11:03:48Z</time></trkpt>
<trkpt lat="46.22135925" lon="7.30802727"><ele>499</ele><time>2007-05-30T11:03:49Z</time></trkpt>
<trkpt lat="46.22173309" lon="7.30855560"><ele>499</ele><time>2007-05-30T11:04:00Z</time></trkpt>
<trkpt lat="46.22209930" lon="7.30907488"><ele>499</ele><time>2007-05-30T11:04:10Z</time></trkpt>
<trkpt lat="46.22232056" lon="7.30938816"><ele>500</ele><time>2007-05-30T11:04:16Z</time></trkpt>
<trkpt lat="46.22264481" lon="7.30985737"><ele>501</ele><time>2007-05-30T11:04:25Z</time></trkpt>
<trkpt lat="46.22305298" lon="7.31044912"><ele>501</ele><time>2007-05-30T11:04:36Z</time></trkpt>
<trkpt lat="46.22340012" lon="7.31094837"><ele>502</ele><time>2007-05-30T11:04:45Z</time></trkpt>
<trkpt lat="46.22370911" lon="7.31137228"><ele>503</ele><time>2007-05-30T11:04:53Z</time></trkpt>
<trkpt lat="46.22408676" lon="7.31191635"><ele>504</ele><time>2007-05-30T11:05:03Z</time></trkpt>
<trkpt lat="46.22442245" lon="7.31238461"><ele>504</ele><time>2007-05-30T11:05:12Z</time></trkpt>
<trkpt lat="46.22459793" lon="7.31259489"><ele>506</ele><time>2007-05-30T11:05:17Z</time></trkpt>
<trkpt lat="46.22478867" lon="7.31261253"><ele>505</ele><time>2007-05-30T11:05:23Z</time></trkpt>
<trkpt lat="46.22484970" lon="7.31263733"><ele>506</ele><time>2007-05-30T11:05:25Z</time></trkpt>
<trkpt lat="46.22496414" lon="7.31278658"><ele>506</ele><time>2007-05-30T11:05:29Z</time></trkpt>
<trkpt lat="46.22511292" lon="7.31280422"><ele>506</ele><time>2007-05-30T11:05:32Z</time></trkpt>
<trkpt lat="46.22558212" lon="7.31273794"><ele>507</ele><time>2007-05-30T11:05:41Z</time></trkpt>
<trkpt lat="46.22612381" lon="7.31269741"><ele>508</ele><time>2007-05-30T11:05:51Z</time></trkpt>
<trkpt lat="46.22626114" lon="7.31278324"><ele>508</ele><time>2007-05-30T11:05:54Z</time></trkpt>
<trkpt lat="46.22628784" lon="7.31299782"><ele>508</ele><time>2007-05-30T11:05:57Z</time></trkpt>
<trkpt lat="46.22628784" lon="7.31306744"><ele>508</ele><time>2007-05-30T11:05:58Z</time></trkpt>
<trkpt lat="46.22629166" lon="7.31321478"><ele>508</ele><time>2007-05-30T11:06:00Z</time></trkpt>
<trkpt lat="46.22638702" lon="7.31346464"><ele>507</ele><time>2007-05-30T11:06:04Z</time></trkpt>
<trkpt lat="46.22649384" lon="7.31348658"><ele>508</ele><time>2007-05-30T11:06:06Z</time></trkpt>
<trkpt lat="46.22698593" lon="7.31342459"><ele>509</ele><time>2007-05-30T11:06:15Z</time></trkpt>
<trkpt lat="46.22759247" lon="7.31334496"><ele>509</ele><time>2007-05-30T11:06:26Z</time></trkpt>
<trkpt lat="46.22815704" lon="7.31327724"><ele>511</ele><time>2007-05-30T11:06:36Z</time></trkpt>
<trkpt lat="46.22890472" lon="7.31318569"><ele>512</ele><time>2007-05-30T11:06:49Z</time></trkpt>
<trkpt lat="46.22972488" lon="7.31308222"><ele>513</ele><time>2007-05-30T11:07:03Z</time></trkpt>
<trkpt lat="46.23036194" lon="7.31296778"><ele>513</ele><time>2007-05-30T11:07:14Z</time></trkpt>
<trkpt lat="46.23082733" lon="7.31281853"><ele>515</ele><time>2007-05-30T11:07:22Z</time></trkpt>
<trkpt lat="46.23134995" lon="7.31273174"><ele>516</ele><time>2007-05-30T11:07:31Z</time></trkpt>
<trkpt lat="46.23185730" lon="7.31267452"><ele>516</ele><time>2007-05-30T11:07:40Z</time></trkpt>
<trkpt lat="46.23201752" lon="7.31262159"><ele>517</ele><time>2007-05-30T11:07:43Z</time></trkpt>
<trkpt lat="46.23233795" lon="7.31250954"><ele>517</ele><time>2007-05-30T11:07:49Z</time></trkpt>
<trkpt lat="46.23286057" lon="7.31234503"><ele>519</ele><time>2007-05-30T11:07:59Z</time></trkpt>
<trkpt lat="46.23329926" lon="7.31216478"><ele>519</ele><time>2007-05-30T11:08:08Z</time></trkpt>
<trkpt lat="46.23382950" lon="7.31192446"><ele>521</ele><time>2007-05-30T11:08:19Z</time></trkpt>
<trkpt lat="46.23429489" lon="7.31171846"><ele>523</ele><time>2007-05-30T11:08:29Z</time></trkpt>
<trkpt lat="46.23453903" lon="7.31167364"><ele>524</ele><time>2007-05-30T11:08:36Z</time></trkpt>
<trkpt lat="46.23471069" lon="7.31180334"><ele>526</ele><time>2007-05-30T11:08:42Z</time></trkpt>
<trkpt lat="46.23490143" lon="7.31206942"><ele>528</ele><time>2007-05-30T11:08:51Z</time></trkpt>
<trkpt lat="46.23506546" lon="7.31227350"><ele>532</ele><time>2007-05-30T11:08:59Z</time></trkpt>
<trkpt lat="46.23508453" lon="7.31229591"><ele>532</ele><time>2007-05-30T11:09:00Z</time></trkpt>
<trkpt lat="46.23532867" lon="7.31251764"><ele>534</ele><time>2007-05-30T11:09:11Z</time></trkpt>
<trkpt lat="46.23547363" lon="7.31262159"><ele>536</ele><time>2007-05-30T11:09:17Z</time></trkpt>
<trkpt lat="46.23571396" lon="7.31282759"><ele>539</ele><time>2007-05-30T11:09:28Z</time></trkpt>
<trkpt lat="46.23585510" lon="7.31294107"><ele>539</ele><time>2007-05-30T11:09:35Z</time></trkpt>
<trkpt lat="46.23606873" lon="7.31312227"><ele>542</ele><time>2007-05-30T11:09:46Z</time></trkpt>
<trkpt lat="46.23629761" lon="7.31333160"><ele>545</ele><time>2007-05-30T11:09:58Z</time></trkpt>
<trkpt lat="46.23640060" lon="7.31342888"><ele>546</ele><time>2007-05-30T11:10:03Z</time></trkpt>
<trkpt lat="46.23661423" lon="7.31364393"><ele>548</ele><time>2007-05-30T11:10:14Z</time></trkpt>
<trkpt lat="46.23679733" lon="7.31381989"><ele>549</ele><time>2007-05-30T11:10:23Z</time></trkpt>
<trkpt lat="46.23700714" lon="7.31397438"><ele>551</ele><time>2007-05-30T11:10:33Z</time></trkpt>
<trkpt lat="46.23718262" lon="7.31400919"><ele>553</ele><time>2007-05-30T11:10:41Z</time></trkpt>
<trkpt lat="46.23733902" lon="7.31400108"><ele>555</ele><time>2007-05-30T11:10:48Z</time></trkpt>
<trkpt lat="46.23757935" lon="7.31398010"><ele>558</ele><time>2007-05-30T11:10:58Z</time></trkpt>
<trkpt lat="46.23780441" lon="7.31402111"><ele>558</ele><time>2007-05-30T11:11:07Z</time></trkpt>
<trkpt lat="46.23802185" lon="7.31405354"><ele>560</ele><time>2007-05-30T11:11:16Z</time></trkpt>
<trkpt lat="46.23828506" lon="7.31410742"><ele>563</ele><time>2007-05-30T11:11:27Z</time></trkpt>
<trkpt lat="46.23830795" lon="7.31411457"><ele>563</ele><time>2007-05-30T11:11:28Z</time></trkpt>
<trkpt lat="46.23855591" lon="7.31411648"><ele>565</ele><time>2007-05-30T11:11:38Z</time></trkpt>
<trkpt lat="46.23882675" lon="7.31405163"><ele>567</ele><time>2007-05-30T11:11:48Z</time></trkpt>
<trkpt lat="46.23910522" lon="7.31404305"><ele>568</ele><time>2007-05-30T11:11:58Z</time></trkpt>
<trkpt lat="46.23927689" lon="7.31414223"><ele>570</ele><time>2007-05-30T11:12:05Z</time></trkpt>
<trkpt lat="46.23949814" lon="7.31429482"><ele>572</ele><time>2007-05-30T11:12:14Z</time></trkpt>
<trkpt lat="46.23966217" lon="7.31441450"><ele>574</ele><time>2007-05-30T11:12:21Z</time></trkpt>
<trkpt lat="46.23989487" lon="7.31454659"><ele>575</ele><time>2007-05-30T11:12:30Z</time></trkpt>
<trkpt lat="46.24010849" lon="7.31461716"><ele>577</ele><time>2007-05-30T11:12:38Z</time></trkpt>
<trkpt lat="46.24030685" lon="7.31471586"><ele>579</ele><time>2007-05-30T11:12:46Z</time></trkpt>
<trkpt lat="46.24036026" lon="7.31488180"><ele>580</ele><time>2007-05-30T11:12:51Z</time></trkpt>
<trkpt lat="46.24031830" lon="7.31501198"><ele>581</ele><time>2007-05-30T11:12:55Z</time></trkpt>
<trkpt lat="46.24013138" lon="7.31520319"><ele>584</ele><time>2007-05-30T11:13:04Z</time></trkpt>
<trkpt lat="46.23999405" lon="7.31532288"><ele>587</ele><time>2007-05-30T11:13:11Z</time></trkpt>
<trkpt lat="46.23983002" lon="7.31549311"><ele>589</ele><time>2007-05-30T11:13:20Z</time></trkpt>
<trkpt lat="46.23970032" lon="7.31568098"><ele>590</ele><time>2007-05-30T11:13:28Z</time></trkpt>
<trkpt lat="46.23954391" lon="7.31596184"><ele>592</ele><time>2007-05-30T11:13:39Z</time></trkpt>
<trkpt lat="46.23953629" lon="7.31611824"><ele>593</ele><time>2007-05-30T11:13:44Z</time></trkpt>
<trkpt lat="46.23963165" lon="7.31618261"><ele>594</ele><time>2007-05-30T11:13:49Z</time></trkpt>
<trkpt lat="46.23981476" lon="7.31619215"><ele>596</ele><time>2007-05-30T11:13:57Z</time></trkpt>
<trkpt lat="46.23999405" lon="7.31634712"><ele>598</ele><time>2007-05-30T11:14:06Z</time></trkpt>
<trkpt lat="46.24016953" lon="7.31641245"><ele>600</ele><time>2007-05-30T11:14:14Z</time></trkpt>
<trkpt lat="46.24031067" lon="7.31643534"><ele>601</ele><time>2007-05-30T11:14:20Z</time></trkpt>
<trkpt lat="46.24046707" lon="7.31647635"><ele>603</ele><time>2007-05-30T11:14:27Z</time></trkpt>
<trkpt lat="46.24067307" lon="7.31658649"><ele>606</ele><time>2007-05-30T11:14:35Z</time></trkpt>
<trkpt lat="46.24069977" lon="7.31659460"><ele>606</ele><time>2007-05-30T11:14:36Z</time></trkpt>
<trkpt lat="46.24083328" lon="7.31657267"><ele>607</ele><time>2007-05-30T11:14:41Z</time></trkpt>
<trkpt lat="46.24096680" lon="7.31646013"><ele>608</ele><time>2007-05-30T11:14:47Z</time></trkpt>
<trkpt lat="46.24112701" lon="7.31637621"><ele>609</ele><time>2007-05-30T11:14:54Z</time></trkpt>
<trkpt lat="46.24128723" lon="7.31646013"><ele>612</ele><time>2007-05-30T11:15:01Z</time></trkpt>
<trkpt lat="46.24147797" lon="7.31657219"><ele>613</ele><time>2007-05-30T11:15:10Z</time></trkpt>
<trkpt lat="46.24162292" lon="7.31670856"><ele>616</ele><time>2007-05-30T11:15:18Z</time></trkpt>
<trkpt lat="46.24162292" lon="7.31686211"><ele>618</ele><time>2007-05-30T11:15:23Z</time></trkpt>
<trkpt lat="46.24151611" lon="7.31698370"><ele>619</ele><time>2007-05-30T11:15:29Z</time></trkpt>
<trkpt lat="46.24138641" lon="7.31717730"><ele>619</ele><time>2007-05-30T11:15:37Z</time></trkpt>
<trkpt lat="46.24139786" lon="7.31733322"><ele>619</ele><time>2007-05-30T11:15:42Z</time></trkpt>
<trkpt lat="46.24150467" lon="7.31765842"><ele>620</ele><time>2007-05-30T11:15:51Z</time></trkpt>
<trkpt lat="46.24156189" lon="7.31773472"><ele>621</ele><time>2007-05-30T11:15:54Z</time></trkpt>
<trkpt lat="46.24171829" lon="7.31781101"><ele>623</ele><time>2007-05-30T11:16:01Z</time></trkpt>
<trkpt lat="46.24193192" lon="7.31782007"><ele>626</ele><time>2007-05-30T11:16:10Z</time></trkpt>
<trkpt lat="46.24213409" lon="7.31786633"><ele>627</ele><time>2007-05-30T11:16:19Z</time></trkpt>
<trkpt lat="46.24236298" lon="7.31796217"><ele>629</ele><time>2007-05-30T11:16:29Z</time></trkpt>
<trkpt lat="46.24247360" lon="7.31800604"><ele>631</ele><time>2007-05-30T11:16:34Z</time></trkpt>
<trkpt lat="46.24274445" lon="7.31810951"><ele>633</ele><time>2007-05-30T11:16:46Z</time></trkpt>
<trkpt lat="46.24296188" lon="7.31822157"><ele>636</ele><time>2007-05-30T11:16:56Z</time></trkpt>
<trkpt lat="46.24313354" lon="7.31837606"><ele>638</ele><time>2007-05-30T11:17:05Z</time></trkpt>
<trkpt lat="46.24330521" lon="7.31852007"><ele>640</ele><time>2007-05-30T11:17:14Z</time></trkpt>
<trkpt lat="46.24346161" lon="7.31850290"><ele>642</ele><time>2007-05-30T11:17:21Z</time></trkpt>
<trkpt lat="46.24369049" lon="7.31834841"><ele>644</ele><time>2007-05-30T11:17:32Z</time></trkpt>
<trkpt lat="46.24390030" lon="7.31815910"><ele>646</ele><time>2007-05-30T11:17:43Z</time></trkpt>
<trkpt lat="46.24412918" lon="7.31794214"><ele>649</ele><time>2007-05-30T11:17:55Z</time></trkpt>
<trkpt lat="46.24424744" lon="7.31778908"><ele>651</ele><time>2007-05-30T11:18:02Z</time></trkpt>
<trkpt lat="46.24429321" lon="7.31760836"><ele>652</ele><time>2007-05-30T11:18:08Z</time></trkpt>
<trkpt lat="46.24426651" lon="7.31730413"><ele>653</ele><time>2007-05-30T11:18:17Z</time></trkpt>
<trkpt lat="46.24421310" lon="7.31700706"><ele>655</ele><time>2007-05-30T11:18:26Z</time></trkpt>
<trkpt lat="46.24412537" lon="7.31665134"><ele>658</ele><time>2007-05-30T11:18:37Z</time></trkpt>
<trkpt lat="46.24405670" lon="7.31628084"><ele>661</ele><time>2007-05-30T11:18:49Z</time></trkpt>
<trkpt lat="46.24401855" lon="7.31601572"><ele>662</ele><time>2007-05-30T11:18:58Z</time></trkpt>
<trkpt lat="46.24398041" lon="7.31577682"><ele>664</ele><time>2007-05-30T11:19:06Z</time></trkpt>
<trkpt lat="46.24393463" lon="7.31548405"><ele>665</ele><time>2007-05-30T11:19:16Z</time></trkpt>
<trkpt lat="46.24391174" lon="7.31533051"><ele>666</ele><time>2007-05-30T11:19:22Z</time></trkpt>
<trkpt lat="46.24390793" lon="7.31510067"><ele>668</ele><time>2007-05-30T11:19:29Z</time></trkpt>
<trkpt lat="46.24397659" lon="7.31486130"><ele>671</ele><time>2007-05-30T11:19:36Z</time></trkpt>
<trkpt lat="46.24409103" lon="7.31458187"><ele>673</ele><time>2007-05-30T11:19:45Z</time></trkpt>
<trkpt lat="46.24410629" lon="7.31433439"><ele>674</ele><time>2007-05-30T11:19:52Z</time></trkpt>
<trkpt lat="46.24406815" lon="7.31414318"><ele>676</ele><time>2007-05-30T11:19:58Z</time></trkpt>
<trkpt lat="46.24403763" lon="7.31389236"><ele>678</ele><time>2007-05-30T11:20:06Z</time></trkpt>
<trkpt lat="46.24404907" lon="7.31363869"><ele>678</ele><time>2007-05-30T11:20:14Z</time></trkpt>
<trkpt lat="46.24410629" lon="7.31327343"><ele>682</ele><time>2007-05-30T11:20:26Z</time></trkpt>
<trkpt lat="46.24415588" lon="7.31287241"><ele>685</ele><time>2007-05-30T11:20:39Z</time></trkpt>
<trkpt lat="46.24422455" lon="7.31268883"><ele>686</ele><time>2007-05-30T11:20:46Z</time></trkpt>
<trkpt lat="46.24433517" lon="7.31261873"><ele>687</ele><time>2007-05-30T11:20:52Z</time></trkpt>
<trkpt lat="46.24454498" lon="7.31256866"><ele>688</ele><time>2007-05-30T11:21:02Z</time></trkpt>
<trkpt lat="46.24474335" lon="7.31254911"><ele>691</ele><time>2007-05-30T11:21:11Z</time></trkpt>
<trkpt lat="46.24477386" lon="7.31267309"><ele>692</ele><time>2007-05-30T11:21:16Z</time></trkpt>
<trkpt lat="46.24475861" lon="7.31269550"><ele>693</ele><time>2007-05-30T11:21:17Z</time></trkpt>
<trkpt lat="46.24463272" lon="7.31281567"><ele>695</ele><time>2007-05-30T11:21:24Z</time></trkpt>
<trkpt lat="46.24455261" lon="7.31301641"><ele>696</ele><time>2007-05-30T11:21:31Z</time></trkpt>
<trkpt lat="46.24459076" lon="7.31326294"><ele>697</ele><time>2007-05-30T11:21:39Z</time></trkpt>
<trkpt lat="46.24467850" lon="7.31354380"><ele>700</ele><time>2007-05-30T11:21:49Z</time></trkpt>
<trkpt lat="46.24476624" lon="7.31386328"><ele>701</ele><time>2007-05-30T11:22:01Z</time></trkpt>
<trkpt lat="46.24484634" lon="7.31413698"><ele>703</ele><time>2007-05-30T11:22:11Z</time></trkpt>
<trkpt lat="46.24493790" lon="7.31447792"><ele>706</ele><time>2007-05-30T11:22:23Z</time></trkpt>
<trkpt lat="46.24499893" lon="7.31467581"><ele>708</ele><time>2007-05-30T11:22:30Z</time></trkpt>
<trkpt lat="46.24505615" lon="7.31490660"><ele>709</ele><time>2007-05-30T11:22:38Z</time></trkpt>
<trkpt lat="46.24512100" lon="7.31520176"><ele>712</ele><time>2007-05-30T11:22:48Z</time></trkpt>
<trkpt lat="46.24519348" lon="7.31552410"><ele>713</ele><time>2007-05-30T11:22:59Z</time></trkpt>
<trkpt lat="46.24526596" lon="7.31584167"><ele>716</ele><time>2007-05-30T11:23:10Z</time></trkpt>
<trkpt lat="46.24530411" lon="7.31604385"><ele>718</ele><time>2007-05-30T11:23:17Z</time></trkpt>
<trkpt lat="46.24535751" lon="7.31630135"><ele>719</ele><time>2007-05-30T11:23:26Z</time></trkpt>
<trkpt lat="46.24540329" lon="7.31658697"><ele>721</ele><time>2007-05-30T11:23:36Z</time></trkpt>
<trkpt lat="46.24542999" lon="7.31676197"><ele>724</ele><time>2007-05-30T11:23:42Z</time></trkpt>
<trkpt lat="46.24544144" lon="7.31687975"><ele>725</ele><time>2007-05-30T11:23:46Z</time></trkpt>
<trkpt lat="46.24546814" lon="7.31717920"><ele>726</ele><time>2007-05-30T11:23:56Z</time></trkpt>
<trkpt lat="46.24547577" lon="7.31738615"><ele>727</ele><time>2007-05-30T11:24:03Z</time></trkpt>
<trkpt lat="46.24553299" lon="7.31763363"><ele>728</ele><time>2007-05-30T11:24:12Z</time></trkpt>
<trkpt lat="46.24564362" lon="7.31758165"><ele>730</ele><time>2007-05-30T11:24:18Z</time></trkpt>
<trkpt lat="46.24564362" lon="7.31743431"><ele>732</ele><time>2007-05-30T11:24:23Z</time></trkpt>
<trkpt lat="46.24564362" lon="7.31737614"><ele>731</ele><time>2007-05-30T11:24:25Z</time></trkpt>
<trkpt lat="46.24567032" lon="7.31711626"><ele>734</ele><time>2007-05-30T11:24:34Z</time></trkpt>
<trkpt lat="46.24568558" lon="7.31700134"><ele>735</ele><time>2007-05-30T11:24:38Z</time></trkpt>
<trkpt lat="46.24574661" lon="7.31665850"><ele>737</ele><time>2007-05-30T11:24:50Z</time></trkpt>
<trkpt lat="46.24583054" lon="7.31631899"><ele>738</ele><time>2007-05-30T11:25:02Z</time></trkpt>
<trkpt lat="46.24591446" lon="7.31601429"><ele>740</ele><time>2007-05-30T11:25:13Z</time></trkpt>
<trkpt lat="46.24592209" lon="7.31595182"><ele>741</ele><time>2007-05-30T11:25:15Z</time></trkpt>
<trkpt lat="46.24594116" lon="7.31578493"><ele>743</ele><time>2007-05-30T11:25:21Z</time></trkpt>
<trkpt lat="46.24597549" lon="7.31555223"><ele>744</ele><time>2007-05-30T11:25:28Z</time></trkpt>
<trkpt lat="46.24601364" lon="7.31526709"><ele>745</ele><time>2007-05-30T11:25:36Z</time></trkpt>
<trkpt lat="46.24605942" lon="7.31493521"><ele>748</ele><time>2007-05-30T11:25:45Z</time></trkpt>
<trkpt lat="46.24608994" lon="7.31474209"><ele>749</ele><time>2007-05-30T11:25:50Z</time></trkpt>
<trkpt lat="46.24613953" lon="7.31448460"><ele>751</ele><time>2007-05-30T11:25:58Z</time></trkpt>
<trkpt lat="46.24625015" lon="7.31419945"><ele>753</ele><time>2007-05-30T11:26:08Z</time></trkpt>
<trkpt lat="46.24638748" lon="7.31395531"><ele>756</ele><time>2007-05-30T11:26:18Z</time></trkpt>
<trkpt lat="46.24651718" lon="7.31375551"><ele>757</ele><time>2007-05-30T11:26:27Z</time></trkpt>
<trkpt lat="46.24668121" lon="7.31350994"><ele>760</ele><time>2007-05-30T11:26:38Z</time></trkpt>
<trkpt lat="46.24679565" lon="7.31344938"><ele>761</ele><time>2007-05-30T11:26:44Z</time></trkpt>
<trkpt lat="46.24693680" lon="7.31349945"><ele>762</ele><time>2007-05-30T11:26:51Z</time></trkpt>
<trkpt lat="46.24714279" lon="7.31365108"><ele>764</ele><time>2007-05-30T11:27:02Z</time></trkpt>
<trkpt lat="46.24731445" lon="7.31383896"><ele>767</ele><time>2007-05-30T11:27:12Z</time></trkpt>
<trkpt lat="46.24732208" lon="7.31399012"><ele>768</ele><time>2007-05-30T11:27:17Z</time></trkpt>
<trkpt lat="46.24721146" lon="7.31408405"><ele>770</ele><time>2007-05-30T11:27:23Z</time></trkpt>
<trkpt lat="46.24705505" lon="7.31413937"><ele>772</ele><time>2007-05-30T11:27:31Z</time></trkpt>
<trkpt lat="46.24697495" lon="7.31427908"><ele>773</ele><time>2007-05-30T11:27:37Z</time></trkpt>
<trkpt lat="46.24691010" lon="7.31453753"><ele>774</ele><time>2007-05-30T11:27:46Z</time></trkpt>
<trkpt lat="46.24680328" lon="7.31494761"><ele>777</ele><time>2007-05-30T11:28:00Z</time></trkpt>
<trkpt lat="46.24676514" lon="7.31525517"><ele>778</ele><time>2007-05-30T11:28:10Z</time></trkpt>
<trkpt lat="46.24682999" lon="7.31553745"><ele>780</ele><time>2007-05-30T11:28:20Z</time></trkpt>
<trkpt lat="46.24690247" lon="7.31578588"><ele>782</ele><time>2007-05-30T11:28:29Z</time></trkpt>
<trkpt lat="46.24696732" lon="7.31606388"><ele>783</ele><time>2007-05-30T11:28:39Z</time></trkpt>
<trkpt lat="46.24703979" lon="7.31634140"><ele>786</ele><time>2007-05-30T11:28:49Z</time></trkpt>
<trkpt lat="46.24714279" lon="7.31667662"><ele>789</ele><time>2007-05-30T11:29:01Z</time></trkpt>
<trkpt lat="46.24722290" lon="7.31700611"><ele>790</ele><time>2007-05-30T11:29:12Z</time></trkpt>
<trkpt lat="46.24724579" lon="7.31732988"><ele>793</ele><time>2007-05-30T11:29:21Z</time></trkpt>
<trkpt lat="46.24724960" lon="7.31761980"><ele>795</ele><time>2007-05-30T11:29:29Z</time></trkpt>
<trkpt lat="46.24729156" lon="7.31794262"><ele>797</ele><time>2007-05-30T11:29:39Z</time></trkpt>
<trkpt lat="46.24736786" lon="7.31819916"><ele>799</ele><time>2007-05-30T11:29:48Z</time></trkpt>
<trkpt lat="46.24751282" lon="7.31847429"><ele>801</ele><time>2007-05-30T11:29:59Z</time></trkpt>
<trkpt lat="46.24759674" lon="7.31862020"><ele>804</ele><time>2007-05-30T11:30:06Z</time></trkpt>
<trkpt lat="46.24766922" lon="7.31880617"><ele>805</ele><time>2007-05-30T11:30:13Z</time></trkpt>
<trkpt lat="46.24766541" lon="7.31887817"><ele>806</ele><time>2007-05-30T11:30:15Z</time></trkpt>
<trkpt lat="46.24760437" lon="7.31903124"><ele>807</ele><time>2007-05-30T11:30:20Z</time></trkpt>
<trkpt lat="46.24752045" lon="7.31919336"><ele>808</ele><time>2007-05-30T11:30:26Z</time></trkpt>
<trkpt lat="46.24744034" lon="7.31947708"><ele>810</ele><time>2007-05-30T11:30:36Z</time></trkpt>
<trkpt lat="46.24748230" lon="7.31970263"><ele>811</ele><time>2007-05-30T11:30:44Z</time></trkpt>
<trkpt lat="46.24756241" lon="7.31994200"><ele>813</ele><time>2007-05-30T11:30:53Z</time></trkpt>
<trkpt lat="46.24765778" lon="7.32019663"><ele>815</ele><time>2007-05-30T11:31:03Z</time></trkpt>
<trkpt lat="46.24775314" lon="7.32041311"><ele>817</ele><time>2007-05-30T11:31:12Z</time></trkpt>
<trkpt lat="46.24784851" lon="7.32062912"><ele>818</ele><time>2007-05-30T11:31:21Z</time></trkpt>
<trkpt lat="46.24792862" lon="7.32087660"><ele>822</ele><time>2007-05-30T11:31:30Z</time></trkpt>
<trkpt lat="46.24797821" lon="7.32119131"><ele>822</ele><time>2007-05-30T11:31:40Z</time></trkpt>
<trkpt lat="46.24789810" lon="7.32137251"><ele>822</ele><time>2007-05-30T11:31:45Z</time></trkpt>
<trkpt lat="46.24771500" lon="7.32177067"><ele>823</ele><time>2007-05-30T11:31:55Z</time></trkpt>
<trkpt lat="46.24758148" lon="7.32215023"><ele>823</ele><time>2007-05-30T11:32:03Z</time></trkpt>
<trkpt lat="46.24746704" lon="7.32260942"><ele>822</ele><time>2007-05-30T11:32:11Z</time></trkpt>
<trkpt lat="46.24740982" lon="7.32297754"><ele>823</ele><time>2007-05-30T11:32:17Z</time></trkpt>
<trkpt lat="46.24722290" lon="7.32342005"><ele>824</ele><time>2007-05-30T11:32:25Z</time></trkpt>
<trkpt lat="46.24696732" lon="7.32396889"><ele>826</ele><time>2007-05-30T11:32:36Z</time></trkpt>
<trkpt lat="46.24689484" lon="7.32436705"><ele>826</ele><time>2007-05-30T11:32:43Z</time></trkpt>
<trkpt lat="46.24689865" lon="7.32488966"><ele>827</ele><time>2007-05-30T11:32:52Z</time></trkpt>
<trkpt lat="46.24690247" lon="7.32506227"><ele>829</ele><time>2007-05-30T11:32:55Z</time></trkpt>
<trkpt lat="46.24692154" lon="7.32568550"><ele>831</ele><time>2007-05-30T11:33:06Z</time></trkpt>
<trkpt lat="46.24694443" lon="7.32637835"><ele>834</ele><time>2007-05-30T11:33:19Z</time></trkpt>
<trkpt lat="46.24701309" lon="7.32684565"><ele>836</ele><time>2007-05-30T11:33:28Z</time></trkpt>
<trkpt lat="46.24707794" lon="7.32718801"><ele>837</ele><time>2007-05-30T11:33:34Z</time></trkpt>
<trkpt lat="46.24710464" lon="7.32731628"><ele>838</ele><time>2007-05-30T11:33:36Z</time></trkpt>
<trkpt lat="46.24714661" lon="7.32751179"><ele>840</ele><time>2007-05-30T11:33:39Z</time></trkpt>
<trkpt lat="46.24720001" lon="7.32778120"><ele>841</ele><time>2007-05-30T11:33:44Z</time></trkpt>
<trkpt lat="46.24730301" lon="7.32812881"><ele>843</ele><time>2007-05-30T11:33:51Z</time></trkpt>
<trkpt lat="46.24744034" lon="7.32859612"><ele>844</ele><time>2007-05-30T11:34:01Z</time></trkpt>
<trkpt lat="46.24757004" lon="7.32898998"><ele>845</ele><time>2007-05-30T11:34:10Z</time></trkpt>
<trkpt lat="46.24771118" lon="7.32936239"><ele>846</ele><time>2007-05-30T11:34:18Z</time></trkpt>
<trkpt lat="46.24793625" lon="7.32985783"><ele>847</ele><time>2007-05-30T11:34:28Z</time></trkpt>
<trkpt lat="46.24811935" lon="7.33033657"><ele>848</ele><time>2007-05-30T11:34:37Z</time></trkpt>
<trkpt lat="46.24822235" lon="7.33086300"><ele>849</ele><time>2007-05-30T11:34:46Z</time></trkpt>
<trkpt lat="46.24830246" lon="7.33145618"><ele>849</ele><time>2007-05-30T11:34:55Z</time></trkpt>
<trkpt lat="46.24837112" lon="7.33234739"><ele>851</ele><time>2007-05-30T11:35:08Z</time></trkpt>
<trkpt lat="46.24839401" lon="7.33254957"><ele>852</ele><time>2007-05-30T11:35:11Z</time></trkpt>
<trkpt lat="46.24855042" lon="7.33298922"><ele>852</ele><time>2007-05-30T11:35:18Z</time></trkpt>
<trkpt lat="46.24882126" lon="7.33358526"><ele>855</ele><time>2007-05-30T11:35:29Z</time></trkpt>
<trkpt lat="46.24906921" lon="7.33414030"><ele>858</ele><time>2007-05-30T11:35:40Z</time></trkpt>
<trkpt lat="46.24914551" lon="7.33435249"><ele>859</ele><time>2007-05-30T11:35:44Z</time></trkpt>
<trkpt lat="46.24917984" lon="7.33459139"><ele>860</ele><time>2007-05-30T11:35:48Z</time></trkpt>
<trkpt lat="46.24924469" lon="7.33513165"><ele>860</ele><time>2007-05-30T11:35:57Z</time></trkpt>
<trkpt lat="46.24937439" lon="7.33567142"><ele>861</ele><time>2007-05-30T11:36:06Z</time></trkpt>
<trkpt lat="46.24951172" lon="7.33602524"><ele>861</ele><time>2007-05-30T11:36:12Z</time></trkpt>
<trkpt lat="46.24957275" lon="7.33628321"><ele>861</ele><time>2007-05-30T11:36:16Z</time></trkpt>
<trkpt lat="46.24960709" lon="7.33678627"><ele>861</ele><time>2007-05-30T11:36:23Z</time></trkpt>
<trkpt lat="46.24953079" lon="7.33714771"><ele>860</ele><time>2007-05-30T11:36:28Z</time></trkpt>
<trkpt lat="46.24944687" lon="7.33729839"><ele>859</ele><time>2007-05-30T11:36:30Z</time></trkpt>
<trkpt lat="46.24937439" lon="7.33769178"><ele>859</ele><time>2007-05-30T11:36:34Z</time></trkpt>
<trkpt lat="46.24930191" lon="7.33852911"><ele>856</ele><time>2007-05-30T11:36:42Z</time></trkpt>
<trkpt lat="46.24918365" lon="7.33939648"><ele>857</ele><time>2007-05-30T11:36:50Z</time></trkpt>
<trkpt lat="46.24913788" lon="7.33970451"><ele>858</ele><time>2007-05-30T11:36:53Z</time></trkpt>
<trkpt lat="46.24912643" lon="7.34041214"><ele>857</ele><time>2007-05-30T11:37:00Z</time></trkpt>
<trkpt lat="46.24916840" lon="7.34117556"><ele>858</ele><time>2007-05-30T11:37:08Z</time></trkpt>
<trkpt lat="46.24921799" lon="7.34164524"><ele>856</ele><time>2007-05-30T11:37:12Z</time></trkpt>
<trkpt lat="46.24928665" lon="7.34220505"><ele>853</ele><time>2007-05-30T11:37:16Z</time></trkpt>
<trkpt lat="46.24930573" lon="7.34235954"><ele>853</ele><time>2007-05-30T11:37:17Z</time></trkpt>
<trkpt lat="46.24936676" lon="7.34285164"><ele>849</ele><time>2007-05-30T11:37:20Z</time></trkpt>
<trkpt lat="46.24943924" lon="7.34338856"><ele>847</ele><time>2007-05-30T11:37:23Z</time></trkpt>
<trkpt lat="46.24950027" lon="7.34376478"><ele>844</ele><time>2007-05-30T11:37:25Z</time></trkpt>
<trkpt lat="46.24956512" lon="7.34415483"><ele>844</ele><time>2007-05-30T11:37:27Z</time></trkpt>
<trkpt lat="46.24959183" lon="7.34476089"><ele>838</ele><time>2007-05-30T11:37:30Z</time></trkpt>
<trkpt lat="46.24959183" lon="7.34496307"><ele>838</ele><time>2007-05-30T11:37:31Z</time></trkpt>
<trkpt lat="46.24964905" lon="7.34556246"><ele>837</ele><time>2007-05-30T11:37:34Z</time></trkpt>
<trkpt lat="46.24973297" lon="7.34590578"><ele>833</ele><time>2007-05-30T11:37:36Z</time></trkpt>
<trkpt lat="46.24983597" lon="7.34621525"><ele>832</ele><time>2007-05-30T11:37:38Z</time></trkpt>
<trkpt lat="46.25006485" lon="7.34675694"><ele>830</ele><time>2007-05-30T11:37:42Z</time></trkpt>
<trkpt lat="46.25031281" lon="7.34732342"><ele>831</ele><time>2007-05-30T11:37:47Z</time></trkpt>
<trkpt lat="46.25057983" lon="7.34789991"><ele>830</ele><time>2007-05-30T11:37:53Z</time></trkpt>
<trkpt lat="46.25083542" lon="7.34841585"><ele>829</ele><time>2007-05-30T11:37:59Z</time></trkpt>
<trkpt lat="46.25092697" lon="7.34859943"><ele>829</ele><time>2007-05-30T11:38:01Z</time></trkpt>
<trkpt lat="46.25110245" lon="7.34892082"><ele>829</ele><time>2007-05-30T11:38:05Z</time></trkpt>
<trkpt lat="46.25122833" lon="7.34921312"><ele>829</ele><time>2007-05-30T11:38:08Z</time></trkpt>
<trkpt lat="46.25138474" lon="7.34976578"><ele>829</ele><time>2007-05-30T11:38:13Z</time></trkpt>
<trkpt lat="46.25142288" lon="7.35027361"><ele>828</ele><time>2007-05-30T11:38:17Z</time></trkpt>
<trkpt lat="46.25146866" lon="7.35091782"><ele>825</ele><time>2007-05-30T11:38:22Z</time></trkpt>
<trkpt lat="46.25150681" lon="7.35103607"><ele>824</ele><time>2007-05-30T11:38:23Z</time></trkpt>
<trkpt lat="46.25186539" lon="7.35203362"><ele>823</ele><time>2007-05-30T11:38:32Z</time></trkpt>
<trkpt lat="46.25202942" lon="7.35253668"><ele>823</ele><time>2007-05-30T11:38:37Z</time></trkpt>
<trkpt lat="46.25217056" lon="7.35293007"><ele>823</ele><time>2007-05-30T11:38:41Z</time></trkpt>
<trkpt lat="46.25245285" lon="7.35362816"><ele>823</ele><time>2007-05-30T11:38:48Z</time></trkpt>
<trkpt lat="46.25280380" lon="7.35450554"><ele>821</ele><time>2007-05-30T11:38:57Z</time></trkpt>
<trkpt lat="46.25290298" lon="7.35503578"><ele>822</ele><time>2007-05-30T11:39:02Z</time></trkpt>
<trkpt lat="46.25290298" lon="7.35558081"><ele>822</ele><time>2007-05-30T11:39:07Z</time></trkpt>
<trkpt lat="46.25289536" lon="7.35634756"><ele>821</ele><time>2007-05-30T11:39:14Z</time></trkpt>
<trkpt lat="46.25300980" lon="7.35698605"><ele>822</ele><time>2007-05-30T11:39:20Z</time></trkpt>
<trkpt lat="46.25324249" lon="7.35787678"><ele>821</ele><time>2007-05-30T11:39:29Z</time></trkpt>
<trkpt lat="46.25344086" lon="7.35850286"><ele>821</ele><time>2007-05-30T11:39:36Z</time></trkpt>
<trkpt lat="46.25368881" lon="7.35896301"><ele>822</ele><time>2007-05-30T11:39:43Z</time></trkpt>
<trkpt lat="46.25398636" lon="7.35941505"><ele>825</ele><time>2007-05-30T11:39:52Z</time></trkpt>
<trkpt lat="46.25423431" lon="7.35974550"><ele>827</ele><time>2007-05-30T11:40:00Z</time></trkpt>
<trkpt lat="46.25426865" lon="7.35977650"><ele>827</ele><time>2007-05-30T11:40:01Z</time></trkpt>
<trkpt lat="46.25458908" lon="7.35993385"><ele>828</ele><time>2007-05-30T11:40:09Z</time></trkpt>
<trkpt lat="46.25462723" lon="7.35995579"><ele>829</ele><time>2007-05-30T11:40:10Z</time></trkpt>
<trkpt lat="46.25475693" lon="7.36010551"><ele>831</ele><time>2007-05-30T11:40:14Z</time></trkpt>
<trkpt lat="46.25505066" lon="7.36069107"><ele>833</ele><time>2007-05-30T11:40:26Z</time></trkpt>
<trkpt lat="46.25539398" lon="7.36126041"><ele>833</ele><time>2007-05-30T11:40:38Z</time></trkpt>
<trkpt lat="46.25578690" lon="7.36176062"><ele>834</ele><time>2007-05-30T11:40:49Z</time></trkpt>
<trkpt lat="46.25607681" lon="7.36202192"><ele>834</ele><time>2007-05-30T11:40:56Z</time></trkpt>
<trkpt lat="46.25645828" lon="7.36223555"><ele>834</ele><time>2007-05-30T11:41:05Z</time></trkpt>
<trkpt lat="46.25666809" lon="7.36241102"><ele>836</ele><time>2007-05-30T11:41:12Z</time></trkpt>
<trkpt lat="46.25690460" lon="7.36265421"><ele>839</ele><time>2007-05-30T11:41:21Z</time></trkpt>
<trkpt lat="46.25709534" lon="7.36285925"><ele>841</ele><time>2007-05-30T11:41:29Z</time></trkpt>
<trkpt lat="46.25720596" lon="7.36298084"><ele>843</ele><time>2007-05-30T11:41:34Z</time></trkpt>
<trkpt lat="46.25736237" lon="7.36314440"><ele>845</ele><time>2007-05-30T11:41:40Z</time></trkpt>
<trkpt lat="46.25755310" lon="7.36337519"><ele>846</ele><time>2007-05-30T11:41:47Z</time></trkpt>
<trkpt lat="46.25762939" lon="7.36350250"><ele>846</ele><time>2007-05-30T11:41:50Z</time></trkpt>
<trkpt lat="46.25781631" lon="7.36388731"><ele>848</ele><time>2007-05-30T11:41:58Z</time></trkpt>
<trkpt lat="46.25802994" lon="7.36433935"><ele>848</ele><time>2007-05-30T11:42:07Z</time></trkpt>
<trkpt lat="46.25828171" lon="7.36483622"><ele>849</ele><time>2007-05-30T11:42:17Z</time></trkpt>
<trkpt lat="46.25852203" lon="7.36525440"><ele>851</ele><time>2007-05-30T11:42:25Z</time></trkpt>
<trkpt lat="46.25858307" lon="7.36536932"><ele>851</ele><time>2007-05-30T11:42:27Z</time></trkpt>
<trkpt lat="46.25874710" lon="7.36563778"><ele>853</ele><time>2007-05-30T11:42:32Z</time></trkpt>
<trkpt lat="46.25897598" lon="7.36591291"><ele>853</ele><time>2007-05-30T11:42:38Z</time></trkpt>
<trkpt lat="46.25926590" lon="7.36627436"><ele>853</ele><time>2007-05-30T11:42:45Z</time></trkpt>
<trkpt lat="46.25930405" lon="7.36633253"><ele>853</ele><time>2007-05-30T11:42:46Z</time></trkpt>
<trkpt lat="46.25949478" lon="7.36665678"><ele>853</ele><time>2007-05-30T11:42:51Z</time></trkpt>
<trkpt lat="46.25959396" lon="7.36684799"><ele>854</ele><time>2007-05-30T11:42:54Z</time></trkpt>
<trkpt lat="46.25978088" lon="7.36704445"><ele>855</ele><time>2007-05-30T11:42:58Z</time></trkpt>
<trkpt lat="46.25993347" lon="7.36713600"><ele>857</ele><time>2007-05-30T11:43:01Z</time></trkpt>
<trkpt lat="46.26016235" lon="7.36732674"><ele>857</ele><time>2007-05-30T11:43:07Z</time></trkpt>
<trkpt lat="46.26034164" lon="7.36759329"><ele>856</ele><time>2007-05-30T11:43:12Z</time></trkpt>
<trkpt lat="46.26067734" lon="7.36817122"><ele>857</ele><time>2007-05-30T11:43:21Z</time></trkpt>
<trkpt lat="46.26091003" lon="7.36870623"><ele>858</ele><time>2007-05-30T11:43:29Z</time></trkpt>
<trkpt lat="46.26117706" lon="7.36911821"><ele>858</ele><time>2007-05-30T11:43:36Z</time></trkpt>
<trkpt lat="46.26155853" lon="7.36948824"><ele>859</ele><time>2007-05-30T11:43:44Z</time></trkpt>
<trkpt lat="46.26160812" lon="7.36952448"><ele>859</ele><time>2007-05-30T11:43:45Z</time></trkpt>
<trkpt lat="46.26181412" lon="7.36962223"><ele>859</ele><time>2007-05-30T11:43:49Z</time></trkpt>
<trkpt lat="46.26215363" lon="7.36959743"><ele>858</ele><time>2007-05-30T11:43:55Z</time></trkpt>
<trkpt lat="46.26240158" lon="7.36951447"><ele>858</ele><time>2007-05-30T11:43:59Z</time></trkpt>
<trkpt lat="46.26268768" lon="7.36958981"><ele>857</ele><time>2007-05-30T11:44:03Z</time></trkpt>
<trkpt lat="46.26282501" lon="7.36988115"><ele>856</ele><time>2007-05-30T11:44:06Z</time></trkpt>
<trkpt lat="46.26284409" lon="7.37000370"><ele>855</ele><time>2007-05-30T11:44:07Z</time></trkpt>
<trkpt lat="46.26287460" lon="7.37025166"><ele>855</ele><time>2007-05-30T11:44:09Z</time></trkpt>
<trkpt lat="46.26310730" lon="7.37061882"><ele>852</ele><time>2007-05-30T11:44:13Z</time></trkpt>
<trkpt lat="46.26337814" lon="7.37069559"><ele>852</ele><time>2007-05-30T11:44:16Z</time></trkpt>
<trkpt lat="46.26394653" lon="7.37058735"><ele>848</ele><time>2007-05-30T11:44:22Z</time></trkpt>
<trkpt lat="46.26419067" lon="7.37056875"><ele>847</ele><time>2007-05-30T11:44:25Z</time></trkpt>
<trkpt lat="46.26427841" lon="7.37070847"><ele>847</ele><time>2007-05-30T11:44:27Z</time></trkpt>
<trkpt lat="46.26424026" lon="7.37087774"><ele>847</ele><time>2007-05-30T11:44:29Z</time></trkpt>
<trkpt lat="46.26414871" lon="7.37097502"><ele>847</ele><time>2007-05-30T11:44:31Z</time></trkpt>
<trkpt lat="46.26373672" lon="7.37129116"><ele>849</ele><time>2007-05-30T11:44:41Z</time></trkpt>
<trkpt lat="46.26366806" lon="7.37134981"><ele>850</ele><time>2007-05-30T11:44:43Z</time></trkpt>
<trkpt lat="46.26350021" lon="7.37149382"><ele>852</ele><time>2007-05-30T11:44:48Z</time></trkpt>
<trkpt lat="46.26320267" lon="7.37170267"><ele>854</ele><time>2007-05-30T11:44:57Z</time></trkpt>
<trkpt lat="46.26294708" lon="7.37171268"><ele>855</ele><time>2007-05-30T11:45:04Z</time></trkpt>
<trkpt lat="46.26277924" lon="7.37162256"><ele>857</ele><time>2007-05-30T11:45:09Z</time></trkpt>
<trkpt lat="46.26249695" lon="7.37152719"><ele>858</ele><time>2007-05-30T11:45:17Z</time></trkpt>
<trkpt lat="46.26228714" lon="7.37160063"><ele>859</ele><time>2007-05-30T11:45:23Z</time></trkpt>
<trkpt lat="46.26211166" lon="7.37178898"><ele>860</ele><time>2007-05-30T11:45:29Z</time></trkpt>
<trkpt lat="46.26200485" lon="7.37211466"><ele>860</ele><time>2007-05-30T11:45:36Z</time></trkpt>
<trkpt lat="46.26196671" lon="7.37256241"><ele>860</ele><time>2007-05-30T11:45:43Z</time></trkpt>
<trkpt lat="46.26192474" lon="7.37317133"><ele>860</ele><time>2007-05-30T11:45:51Z</time></trkpt>
<trkpt lat="46.26182938" lon="7.37391376"><ele>860</ele><time>2007-05-30T11:46:00Z</time></trkpt>
<trkpt lat="46.26163864" lon="7.37458992"><ele>860</ele><time>2007-05-30T11:46:08Z</time></trkpt>
<trkpt lat="46.26142120" lon="7.37538052"><ele>860</ele><time>2007-05-30T11:46:17Z</time></trkpt>
<trkpt lat="46.26139832" lon="7.37599373"><ele>860</ele><time>2007-05-30T11:46:24Z</time></trkpt>
<trkpt lat="46.26139450" lon="7.37663746"><ele>860</ele><time>2007-05-30T11:46:32Z</time></trkpt>
<trkpt lat="46.26131439" lon="7.37713432"><ele>863</ele><time>2007-05-30T11:46:39Z</time></trkpt>
<trkpt lat="46.26130295" lon="7.37719917"><ele>863</ele><time>2007-05-30T11:46:40Z</time></trkpt>
<trkpt lat="46.26123810" lon="7.37779760"><ele>866</ele><time>2007-05-30T11:46:49Z</time></trkpt>
<trkpt lat="46.26124191" lon="7.37802887"><ele>866</ele><time>2007-05-30T11:46:53Z</time></trkpt>
<trkpt lat="46.26131821" lon="7.37838840"><ele>868</ele><time>2007-05-30T11:46:59Z</time></trkpt>
<trkpt lat="46.26140976" lon="7.37873936"><ele>870</ele><time>2007-05-30T11:47:05Z</time></trkpt>
<trkpt lat="46.26145172" lon="7.37889194"><ele>871</ele><time>2007-05-30T11:47:08Z</time></trkpt>
<trkpt lat="46.26153564" lon="7.37935925"><ele>873</ele><time>2007-05-30T11:47:17Z</time></trkpt>
<trkpt lat="46.26155853" lon="7.37980032"><ele>876</ele><time>2007-05-30T11:47:25Z</time></trkpt>
<trkpt lat="46.26155472" lon="7.37990379"><ele>877</ele><time>2007-05-30T11:47:27Z</time></trkpt>
<trkpt lat="46.26155853" lon="7.38025284"><ele>877</ele><time>2007-05-30T11:47:34Z</time></trkpt>
<trkpt lat="46.26161194" lon="7.38075638"><ele>879</ele><time>2007-05-30T11:47:44Z</time></trkpt>
<trkpt lat="46.26171112" lon="7.38113689"><ele>881</ele><time>2007-05-30T11:47:52Z</time></trkpt>
<trkpt lat="46.26186371" lon="7.38159847"><ele>883</ele><time>2007-05-30T11:48:02Z</time></trkpt>
<trkpt lat="46.26201630" lon="7.38206720"><ele>884</ele><time>2007-05-30T11:48:12Z</time></trkpt>
<trkpt lat="46.26216888" lon="7.38253164"><ele>885</ele><time>2007-05-30T11:48:22Z</time></trkpt>
<trkpt lat="46.26231003" lon="7.38296032"><ele>885</ele><time>2007-05-30T11:48:31Z</time></trkpt>
<trkpt lat="46.26249313" lon="7.38352489"><ele>886</ele><time>2007-05-30T11:48:42Z</time></trkpt>
<trkpt lat="46.26265717" lon="7.38406754"><ele>889</ele><time>2007-05-30T11:48:52Z</time></trkpt>
<trkpt lat="46.26272202" lon="7.38457727"><ele>891</ele><time>2007-05-30T11:49:01Z</time></trkpt>
<trkpt lat="46.26268005" lon="7.38500214"><ele>891</ele><time>2007-05-30T11:49:09Z</time></trkpt>
<trkpt lat="46.26255417" lon="7.38547325"><ele>894</ele><time>2007-05-30T11:49:19Z</time></trkpt>
<trkpt lat="46.26240158" lon="7.38574696"><ele>894</ele><time>2007-05-30T11:49:26Z</time></trkpt>
<trkpt lat="46.26237869" lon="7.38578892"><ele>894</ele><time>2007-05-30T11:49:27Z</time></trkpt>
<trkpt lat="46.26240540" lon="7.38595963"><ele>895</ele><time>2007-05-30T11:49:31Z</time></trkpt>
<trkpt lat="46.26253510" lon="7.38600779"><ele>895</ele><time>2007-05-30T11:49:35Z</time></trkpt>
<trkpt lat="46.26287842" lon="7.38605547"><ele>896</ele><time>2007-05-30T11:49:45Z</time></trkpt>
<trkpt lat="46.26296616" lon="7.38614511"><ele>896</ele><time>2007-05-30T11:49:49Z</time></trkpt>
<trkpt lat="46.26312637" lon="7.38648844"><ele>897</ele><time>2007-05-30T11:49:57Z</time></trkpt>
<trkpt lat="46.26330948" lon="7.38701487"><ele>898</ele><time>2007-05-30T11:50:08Z</time></trkpt>
<trkpt lat="46.26342010" lon="7.38740110"><ele>899</ele><time>2007-05-30T11:50:17Z</time></trkpt>
<trkpt lat="46.26352310" lon="7.38755798"><ele>901</ele><time>2007-05-30T11:50:22Z</time></trkpt>
<trkpt lat="46.26372910" lon="7.38766718"><ele>904</ele><time>2007-05-30T11:50:29Z</time></trkpt>
<trkpt lat="46.26375580" lon="7.38768530"><ele>904</ele><time>2007-05-30T11:50:30Z</time></trkpt>
<trkpt lat="46.26388168" lon="7.38781548"><ele>905</ele><time>2007-05-30T11:50:36Z</time></trkpt>
<trkpt lat="46.26400757" lon="7.38800049"><ele>905</ele><time>2007-05-30T11:50:43Z</time></trkpt>
<trkpt lat="46.26420975" lon="7.38834190"><ele>907</ele><time>2007-05-30T11:50:54Z</time></trkpt>
<trkpt lat="46.26443100" lon="7.38871193"><ele>909</ele><time>2007-05-30T11:51:06Z</time></trkpt>
<trkpt lat="46.26448441" lon="7.38893318"><ele>909</ele><time>2007-05-30T11:51:12Z</time></trkpt>
<trkpt lat="46.26440048" lon="7.38915777"><ele>909</ele><time>2007-05-30T11:51:17Z</time></trkpt>
<trkpt lat="46.26422882" lon="7.38938332"><ele>909</ele><time>2007-05-30T11:51:24Z</time></trkpt>
<trkpt lat="46.26412201" lon="7.38952637"><ele>909</ele><time>2007-05-30T11:51:30Z</time></trkpt>
<trkpt lat="46.26408386" lon="7.38958216"><ele>910</ele><time>2007-05-30T11:51:33Z</time></trkpt>
<trkpt lat="46.26404190" lon="7.38959122"><ele>910</ele><time>2007-05-30T11:51:36Z</time></trkpt>
<trkpt lat="46.26395035" lon="7.38952112"><ele>911</ele><time>2007-05-30T11:51:42Z</time></trkpt>
<trkpt lat="46.26381302" lon="7.38942766"><ele>911</ele><time>2007-05-30T11:51:49Z</time></trkpt>
<trkpt lat="46.26376724" lon="7.38949108"><ele>912</ele><time>2007-05-30T11:51:53Z</time></trkpt>
<trkpt lat="46.26380539" lon="7.38955927"><ele>912</ele><time>2007-05-30T11:51:56Z</time></trkpt>
<trkpt lat="46.26388931" lon="7.38976669"><ele>914</ele><time>2007-05-30T11:52:04Z</time></trkpt>
<trkpt lat="46.26391220" lon="7.38981867"><ele>915</ele><time>2007-05-30T11:52:06Z</time></trkpt>
<trkpt lat="46.26395798" lon="7.38990927"><ele>917</ele><time>2007-05-30T11:52:10Z</time></trkpt>
<trkpt lat="46.26409531" lon="7.39008284"><ele>920</ele><time>2007-05-30T11:52:19Z</time></trkpt>
<trkpt lat="46.26424789" lon="7.39029694"><ele>921</ele><time>2007-05-30T11:52:29Z</time></trkpt>
<trkpt lat="46.26435852" lon="7.39049149"><ele>922</ele><time>2007-05-30T11:52:37Z</time></trkpt>
<trkpt lat="46.26446915" lon="7.39072561"><ele>924</ele><time>2007-05-30T11:52:46Z</time></trkpt>
<trkpt lat="46.26457214" lon="7.39096212"><ele>924</ele><time>2007-05-30T11:52:54Z</time></trkpt>
<trkpt lat="46.26467514" lon="7.39121199"><ele>925</ele><time>2007-05-30T11:53:01Z</time></trkpt>
<trkpt lat="46.26472473" lon="7.39135742"><ele>924</ele><time>2007-05-30T11:53:06Z</time></trkpt>
<trkpt lat="46.26475525" lon="7.39152479"><ele>923</ele><time>2007-05-30T11:53:10Z</time></trkpt>
<trkpt lat="46.26479721" lon="7.39181471"><ele>923</ele><time>2007-05-30T11:53:14Z</time></trkpt>
<trkpt lat="46.26486969" lon="7.39203835"><ele>923</ele><time>2007-05-30T11:53:17Z</time></trkpt>
<trkpt lat="46.26499939" lon="7.39228106"><ele>922</ele><time>2007-05-30T11:53:22Z</time></trkpt>
<trkpt lat="46.26510620" lon="7.39262486"><ele>920</ele><time>2007-05-30T11:53:28Z</time></trkpt>
<trkpt lat="46.26512527" lon="7.39268351"><ele>919</ele><time>2007-05-30T11:53:29Z</time></trkpt>
<trkpt lat="46.26516342" lon="7.39299536"><ele>919</ele><time>2007-05-30T11:53:34Z</time></trkpt>
<trkpt lat="46.26519775" lon="7.39327097"><ele>919</ele><time>2007-05-30T11:53:40Z</time></trkpt>
<trkpt lat="46.26521301" lon="7.39331484"><ele>919</ele><time>2007-05-30T11:53:41Z</time></trkpt>
<trkpt lat="46.26524353" lon="7.39359283"><ele>919</ele><time>2007-05-30T11:53:47Z</time></trkpt>
<trkpt lat="46.26531601" lon="7.39390278"><ele>920</ele><time>2007-05-30T11:53:53Z</time></trkpt>
<trkpt lat="46.26535797" lon="7.39407492"><ele>920</ele><time>2007-05-30T11:53:57Z</time></trkpt>
<trkpt lat="46.26541519" lon="7.39429188"><ele>921</ele><time>2007-05-30T11:54:02Z</time></trkpt>
<trkpt lat="46.26549911" lon="7.39452839"><ele>922</ele><time>2007-05-30T11:54:07Z</time></trkpt>
<trkpt lat="46.26557159" lon="7.39475250"><ele>922</ele><time>2007-05-30T11:54:12Z</time></trkpt>
<trkpt lat="46.26565933" lon="7.39496565"><ele>922</ele><time>2007-05-30T11:54:17Z</time></trkpt>
<trkpt lat="46.26570511" lon="7.39506960"><ele>922</ele><time>2007-05-30T11:54:20Z</time></trkpt>
<trkpt lat="46.26579285" lon="7.39505196"><ele>923</ele><time>2007-05-30T11:54:25Z</time></trkpt>
<trkpt lat="46.26596069" lon="7.39493942"><ele>923</ele><time>2007-05-30T11:54:34Z</time></trkpt>
<trkpt lat="46.26606369" lon="7.39484930"><ele>925</ele><time>2007-05-30T11:54:41Z</time></trkpt>
<trkpt lat="46.26618576" lon="7.39473724"><ele>926</ele><time>2007-05-30T11:54:50Z</time></trkpt>
<trkpt lat="46.26627731" lon="7.39467144"><ele>929</ele><time>2007-05-30T11:54:56Z</time></trkpt>
<trkpt lat="46.26629257" lon="7.39466143"><ele>929</ele><time>2007-05-30T11:54:57Z</time></trkpt>
<trkpt lat="46.26641464" lon="7.39459896"><ele>932</ele><time>2007-05-30T11:55:05Z</time></trkpt>
<trkpt lat="46.26644135" lon="7.39460135"><ele>932</ele><time>2007-05-30T11:55:07Z</time></trkpt>
<trkpt lat="46.26649475" lon="7.39476442"><ele>933</ele><time>2007-05-30T11:55:14Z</time></trkpt>
<trkpt lat="46.26655579" lon="7.39497471"><ele>932</ele><time>2007-05-30T11:55:19Z</time></trkpt>
<trkpt lat="46.26662827" lon="7.39521885"><ele>932</ele><time>2007-05-30T11:55:24Z</time></trkpt>
<trkpt lat="46.26670837" lon="7.39558792"><ele>929</ele><time>2007-05-30T11:55:30Z</time></trkpt>
<trkpt lat="46.26682663" lon="7.39605618"><ele>927</ele><time>2007-05-30T11:55:36Z</time></trkpt>
<trkpt lat="46.26696014" lon="7.39659691"><ele>925</ele><time>2007-05-30T11:55:42Z</time></trkpt>
<trkpt lat="46.26699448" lon="7.39679337"><ele>924</ele><time>2007-05-30T11:55:44Z</time></trkpt>
<trkpt lat="46.26716232" lon="7.39756966"><ele>923</ele><time>2007-05-30T11:55:52Z</time></trkpt>
<trkpt lat="46.26728821" lon="7.39818573"><ele>921</ele><time>2007-05-30T11:55:58Z</time></trkpt>
<trkpt lat="46.26747513" lon="7.39865017"><ele>919</ele><time>2007-05-30T11:56:03Z</time></trkpt>
<trkpt lat="46.26769257" lon="7.39906645"><ele>917</ele><time>2007-05-30T11:56:08Z</time></trkpt>
<trkpt lat="46.26773834" lon="7.39913368"><ele>916</ele><time>2007-05-30T11:56:09Z</time></trkpt>
<trkpt lat="46.26780319" lon="7.39931726"><ele>915</ele><time>2007-05-30T11:56:12Z</time></trkpt>
<trkpt lat="46.26791763" lon="7.39959812"><ele>916</ele><time>2007-05-30T11:56:18Z</time></trkpt>
<trkpt lat="46.26802444" lon="7.39975452"><ele>917</ele><time>2007-05-30T11:56:22Z</time></trkpt>
<trkpt lat="46.26813126" lon="7.39991665"><ele>919</ele><time>2007-05-30T11:56:26Z</time></trkpt>
<trkpt lat="46.26823425" lon="7.40009212"><ele>919</ele><time>2007-05-30T11:56:30Z</time></trkpt>
<trkpt lat="46.26838684" lon="7.40039921"><ele>922</ele><time>2007-05-30T11:56:36Z</time></trkpt>
<trkpt lat="46.26840973" lon="7.40044737"><ele>922</ele><time>2007-05-30T11:56:37Z</time></trkpt>
<trkpt lat="46.26850128" lon="7.40063000"><ele>923</ele><time>2007-05-30T11:56:42Z</time></trkpt>
<trkpt lat="46.26860428" lon="7.40088892"><ele>921</ele><time>2007-05-30T11:56:47Z</time></trkpt>
<trkpt lat="46.26866531" lon="7.40105724"><ele>919</ele><time>2007-05-30T11:56:49Z</time></trkpt>
<trkpt lat="46.26881027" lon="7.40148449"><ele>917</ele><time>2007-05-30T11:56:53Z</time></trkpt>
<trkpt lat="46.26903534" lon="7.40194511"><ele>914</ele><time>2007-05-30T11:56:57Z</time></trkpt>
<trkpt lat="46.26910782" lon="7.40223694"><ele>912</ele><time>2007-05-30T11:56:59Z</time></trkpt>
<trkpt lat="46.26915741" lon="7.40253448"><ele>912</ele><time>2007-05-30T11:57:01Z</time></trkpt>
<trkpt lat="46.26937103" lon="7.40294075"><ele>911</ele><time>2007-05-30T11:57:05Z</time></trkpt>
<trkpt lat="46.26955795" lon="7.40320826"><ele>912</ele><time>2007-05-30T11:57:09Z</time></trkpt>
<trkpt lat="46.26972198" lon="7.40341806"><ele>913</ele><time>2007-05-30T11:57:13Z</time></trkpt>
<trkpt lat="46.26990891" lon="7.40352392"><ele>913</ele><time>2007-05-30T11:57:17Z</time></trkpt>
<trkpt lat="46.27025986" lon="7.40358067"><ele>915</ele><time>2007-05-30T11:57:24Z</time></trkpt>
<trkpt lat="46.27036285" lon="7.40358686"><ele>916</ele><time>2007-05-30T11:57:26Z</time></trkpt>
<trkpt lat="46.27052307" lon="7.40353489"><ele>914</ele><time>2007-05-30T11:57:29Z</time></trkpt>
<trkpt lat="46.27096176" lon="7.40323973"><ele>914</ele><time>2007-05-30T11:57:37Z</time></trkpt>
<trkpt lat="46.27122879" lon="7.40326643"><ele>913</ele><time>2007-05-30T11:57:41Z</time></trkpt>
<trkpt lat="46.27172852" lon="7.40358210"><ele>911</ele><time>2007-05-30T11:57:48Z</time></trkpt>
<trkpt lat="46.27224350" lon="7.40397263"><ele>909</ele><time>2007-05-30T11:57:54Z</time></trkpt>
<trkpt lat="46.27234268" lon="7.40404510"><ele>909</ele><time>2007-05-30T11:57:55Z</time></trkpt>
<trkpt lat="46.27254105" lon="7.40416765"><ele>906</ele><time>2007-05-30T11:57:57Z</time></trkpt>
<trkpt lat="46.27274704" lon="7.40441513"><ele>904</ele><time>2007-05-30T11:58:00Z</time></trkpt>
<trkpt lat="46.27272034" lon="7.40464497"><ele>903</ele><time>2007-05-30T11:58:02Z</time></trkpt>
<trkpt lat="46.27264404" lon="7.40485525"><ele>903</ele><time>2007-05-30T11:58:04Z</time></trkpt>
<trkpt lat="46.27256775" lon="7.40527153"><ele>905</ele><time>2007-05-30T11:58:08Z</time></trkpt>
<trkpt lat="46.27255630" lon="7.40546227"><ele>906</ele><time>2007-05-30T11:58:10Z</time></trkpt>
<trkpt lat="46.27253342" lon="7.40575075"><ele>907</ele><time>2007-05-30T11:58:14Z</time></trkpt>
<trkpt lat="46.27252197" lon="7.40608311"><ele>910</ele><time>2007-05-30T11:58:19Z</time></trkpt>
<trkpt lat="46.27252579" lon="7.40621042"><ele>910</ele><time>2007-05-30T11:58:21Z</time></trkpt>
<trkpt lat="46.27253342" lon="7.40638828"><ele>912</ele><time>2007-05-30T11:58:24Z</time></trkpt>
<trkpt lat="46.27253723" lon="7.40660095"><ele>913</ele><time>2007-05-30T11:58:28Z</time></trkpt>
<trkpt lat="46.27254105" lon="7.40696383"><ele>914</ele><time>2007-05-30T11:58:34Z</time></trkpt>
<trkpt lat="46.27254486" lon="7.40726614"><ele>914</ele><time>2007-05-30T11:58:38Z</time></trkpt>
<trkpt lat="46.27261353" lon="7.40766239"><ele>913</ele><time>2007-05-30T11:58:43Z</time></trkpt>
<trkpt lat="46.27279282" lon="7.40818214"><ele>911</ele><time>2007-05-30T11:58:49Z</time></trkpt>
<trkpt lat="46.27294540" lon="7.40874481"><ele>909</ele><time>2007-05-30T11:58:54Z</time></trkpt>
<trkpt lat="46.27297974" lon="7.40887928"><ele>908</ele><time>2007-05-30T11:58:55Z</time></trkpt>
<trkpt lat="46.27309036" lon="7.40914869"><ele>907</ele><time>2007-05-30T11:58:57Z</time></trkpt>
<trkpt lat="46.27325439" lon="7.40939426"><ele>904</ele><time>2007-05-30T11:58:59Z</time></trkpt>
<trkpt lat="46.27370071" lon="7.41000414"><ele>900</ele><time>2007-05-30T11:59:04Z</time></trkpt>
<trkpt lat="46.27392578" lon="7.41037130"><ele>899</ele><time>2007-05-30T11:59:07Z</time></trkpt>
<trkpt lat="46.27404022" lon="7.41073704"><ele>899</ele><time>2007-05-30T11:59:10Z</time></trkpt>
<trkpt lat="46.27405167" lon="7.41084719"><ele>900</ele><time>2007-05-30T11:59:11Z</time></trkpt>
<trkpt lat="46.27413177" lon="7.41099310"><ele>901</ele><time>2007-05-30T11:59:14Z</time></trkpt>
<trkpt lat="46.27418900" lon="7.41096401"><ele>900</ele><time>2007-05-30T11:59:16Z</time></trkpt>
<trkpt lat="46.27426910" lon="7.41089249"><ele>902</ele><time>2007-05-30T11:59:19Z</time></trkpt>
<trkpt lat="46.27444458" lon="7.41073179"><ele>901</ele><time>2007-05-30T11:59:25Z</time></trkpt>
<trkpt lat="46.27455139" lon="7.41063881"><ele>902</ele><time>2007-05-30T11:59:29Z</time></trkpt>
<trkpt lat="46.27455902" lon="7.41060352"><ele>902</ele><time>2007-05-30T11:59:34Z</time></trkpt>
<trkpt lat="46.27454758" lon="7.41059065"><ele>902</ele><time>2007-05-30T11:59:54Z</time></trkpt>
<trkpt lat="46.27454376" lon="7.41058397"><ele>902</ele><time>2007-05-30T12:00:16Z</time></trkpt>
<trkpt lat="46.27464294" lon="7.41058540"><ele>903</ele><time>2007-05-30T12:00:23Z</time></trkpt>
<trkpt lat="46.27475357" lon="7.41053295"><ele>904</ele><time>2007-05-30T12:00:28Z</time></trkpt>
<trkpt lat="46.27488327" lon="7.41043091"><ele>904</ele><time>2007-05-30T12:00:35Z</time></trkpt>
<trkpt lat="46.27499390" lon="7.41042948"><ele>904</ele><time>2007-05-30T12:00:40Z</time></trkpt>
<trkpt lat="46.27507401" lon="7.41048622"><ele>906</ele><time>2007-05-30T12:00:44Z</time></trkpt>
<trkpt lat="46.27524948" lon="7.41063690"><ele>908</ele><time>2007-05-30T12:00:53Z</time></trkpt>
<trkpt lat="46.27545929" lon="7.41080379"><ele>910</ele><time>2007-05-30T12:01:03Z</time></trkpt>
<trkpt lat="46.27564240" lon="7.41087532"><ele>911</ele><time>2007-05-30T12:01:11Z</time></trkpt>
<trkpt lat="46.27578354" lon="7.41090393"><ele>914</ele><time>2007-05-30T12:01:17Z</time></trkpt>
<trkpt lat="46.27601624" lon="7.41102076"><ele>917</ele><time>2007-05-30T12:01:28Z</time></trkpt>
<trkpt lat="46.27619934" lon="7.41110468"><ele>918</ele><time>2007-05-30T12:01:37Z</time></trkpt>
<trkpt lat="46.27636337" lon="7.41122293"><ele>919</ele><time>2007-05-30T12:01:45Z</time></trkpt>
<trkpt lat="46.27650833" lon="7.41138792"><ele>921</ele><time>2007-05-30T12:01:53Z</time></trkpt>
<trkpt lat="46.27674103" lon="7.41162395"><ele>923</ele><time>2007-05-30T12:02:05Z</time></trkpt>
<trkpt lat="46.27696609" lon="7.41179514"><ele>924</ele><time>2007-05-30T12:02:16Z</time></trkpt>
<trkpt lat="46.27720261" lon="7.41195297"><ele>926</ele><time>2007-05-30T12:02:27Z</time></trkpt>
<trkpt lat="46.27742386" lon="7.41208839"><ele>929</ele><time>2007-05-30T12:02:37Z</time></trkpt>
<trkpt lat="46.27759552" lon="7.41217756"><ele>931</ele><time>2007-05-30T12:02:45Z</time></trkpt>
<trkpt lat="46.27777100" lon="7.41224289"><ele>932</ele><time>2007-05-30T12:02:53Z</time></trkpt>
<trkpt lat="46.27796936" lon="7.41227865"><ele>935</ele><time>2007-05-30T12:03:02Z</time></trkpt>
<trkpt lat="46.27798843" lon="7.41227627"><ele>935</ele><time>2007-05-30T12:03:03Z</time></trkpt>
<trkpt lat="46.27819443" lon="7.41230106"><ele>936</ele><time>2007-05-30T12:03:12Z</time></trkpt>
<trkpt lat="46.27836227" lon="7.41238213"><ele>937</ele><time>2007-05-30T12:03:20Z</time></trkpt>
<trkpt lat="46.27854156" lon="7.41259575"><ele>939</ele><time>2007-05-30T12:03:30Z</time></trkpt>
<trkpt lat="46.27874374" lon="7.41290426"><ele>942</ele><time>2007-05-30T12:03:42Z</time></trkpt>
<trkpt lat="46.27893066" lon="7.41315365"><ele>944</ele><time>2007-05-30T12:03:52Z</time></trkpt>
<trkpt lat="46.27915573" lon="7.41340303"><ele>947</ele><time>2007-05-30T12:04:03Z</time></trkpt>
<trkpt lat="46.27946091" lon="7.41370726"><ele>949</ele><time>2007-05-30T12:04:17Z</time></trkpt>
<trkpt lat="46.27963257" lon="7.41383648"><ele>951</ele><time>2007-05-30T12:04:25Z</time></trkpt>
<trkpt lat="46.27969742" lon="7.41376686"><ele>951</ele><time>2007-05-30T12:04:29Z</time></trkpt>
<trkpt lat="46.27975845" lon="7.41364050"><ele>953</ele><time>2007-05-30T12:04:35Z</time></trkpt>
<trkpt lat="46.27977753" lon="7.41360474"><ele>953</ele><time>2007-05-30T12:04:37Z</time></trkpt>
<trkpt lat="46.27982712" lon="7.41347885"><ele>956</ele><time>2007-05-30T12:04:44Z</time></trkpt>
<trkpt lat="46.27992630" lon="7.41333961"><ele>958</ele><time>2007-05-30T12:04:52Z</time></trkpt>
<trkpt lat="46.28002167" lon="7.41326380"><ele>959</ele><time>2007-05-30T12:04:57Z</time></trkpt>
<trkpt lat="46.28020096" lon="7.41315889"><ele>960</ele><time>2007-05-30T12:05:05Z</time></trkpt>
<trkpt lat="46.28034210" lon="7.41308689"><ele>962</ele><time>2007-05-30T12:05:12Z</time></trkpt>
<trkpt lat="46.28050232" lon="7.41308451"><ele>966</ele><time>2007-05-30T12:05:20Z</time></trkpt>
<trkpt lat="46.28064346" lon="7.41314268"><ele>966</ele><time>2007-05-30T12:05:28Z</time></trkpt>
<trkpt lat="46.28073120" lon="7.41331577"><ele>967</ele><time>2007-05-30T12:05:33Z</time></trkpt>
<trkpt lat="46.28075409" lon="7.41362381"><ele>966</ele><time>2007-05-30T12:05:39Z</time></trkpt>
<trkpt lat="46.28078079" lon="7.41401005"><ele>966</ele><time>2007-05-30T12:05:46Z</time></trkpt>
<trkpt lat="46.28083038" lon="7.41418695"><ele>966</ele><time>2007-05-30T12:05:49Z</time></trkpt>
<trkpt lat="46.28105164" lon="7.41468096"><ele>967</ele><time>2007-05-30T12:05:57Z</time></trkpt>
<trkpt lat="46.28121185" lon="7.41518593"><ele>965</ele><time>2007-05-30T12:06:04Z</time></trkpt>
<trkpt lat="46.28141403" lon="7.41594362"><ele>965</ele><time>2007-05-30T12:06:13Z</time></trkpt>
<trkpt lat="46.28156662" lon="7.41654062"><ele>962</ele><time>2007-05-30T12:06:19Z</time></trkpt>
<trkpt lat="46.28179169" lon="7.41717052"><ele>961</ele><time>2007-05-30T12:06:25Z</time></trkpt>
<trkpt lat="46.28184509" lon="7.41726494"><ele>961</ele><time>2007-05-30T12:06:26Z</time></trkpt>
<trkpt lat="46.28204346" lon="7.41750622"><ele>959</ele><time>2007-05-30T12:06:29Z</time></trkpt>
<trkpt lat="46.28256226" lon="7.41797018"><ele>959</ele><time>2007-05-30T12:06:36Z</time></trkpt>
<trkpt lat="46.28295135" lon="7.41830349"><ele>959</ele><time>2007-05-30T12:06:42Z</time></trkpt>
<trkpt lat="46.28324127" lon="7.41857910"><ele>959</ele><time>2007-05-30T12:06:47Z</time></trkpt>
<trkpt lat="46.28355789" lon="7.41902924"><ele>959</ele><time>2007-05-30T12:06:53Z</time></trkpt>
<trkpt lat="46.28366470" lon="7.41918802"><ele>958</ele><time>2007-05-30T12:06:55Z</time></trkpt>
<trkpt lat="46.28404236" lon="7.41948557"><ele>958</ele><time>2007-05-30T12:07:01Z</time></trkpt>
<trkpt lat="46.28414917" lon="7.41956711"><ele>958</ele><time>2007-05-30T12:07:03Z</time></trkpt>
<trkpt lat="46.28434372" lon="7.41970539"><ele>959</ele><time>2007-05-30T12:07:08Z</time></trkpt>
<trkpt lat="46.28445435" lon="7.41975498"><ele>960</ele><time>2007-05-30T12:07:11Z</time></trkpt>
<trkpt lat="46.28465652" lon="7.41988182"><ele>960</ele><time>2007-05-30T12:07:17Z</time></trkpt>
<trkpt lat="46.28472900" lon="7.41992188"><ele>961</ele><time>2007-05-30T12:07:19Z</time></trkpt>
<trkpt lat="46.28495407" lon="7.42017221"><ele>963</ele><time>2007-05-30T12:07:26Z</time></trkpt>
<trkpt lat="46.28516006" lon="7.42042732"><ele>964</ele><time>2007-05-30T12:07:33Z</time></trkpt>
<trkpt lat="46.28537369" lon="7.42063284"><ele>965</ele><time>2007-05-30T12:07:40Z</time></trkpt>
<trkpt lat="46.28553772" lon="7.42070675"><ele>966</ele><time>2007-05-30T12:07:45Z</time></trkpt>
<trkpt lat="46.28564453" lon="7.42077446"><ele>967</ele><time>2007-05-30T12:07:49Z</time></trkpt>
<trkpt lat="46.28584290" lon="7.42087412"><ele>968</ele><time>2007-05-30T12:07:55Z</time></trkpt>
<trkpt lat="46.28611374" lon="7.42102766"><ele>968</ele><time>2007-05-30T12:08:03Z</time></trkpt>
<trkpt lat="46.28629684" lon="7.42107630"><ele>969</ele><time>2007-05-30T12:08:08Z</time></trkpt>
<trkpt lat="46.28667831" lon="7.42108488"><ele>971</ele><time>2007-05-30T12:08:18Z</time></trkpt>
<trkpt lat="46.28697586" lon="7.42111206"><ele>971</ele><time>2007-05-30T12:08:26Z</time></trkpt>
<trkpt lat="46.28721619" lon="7.42121983"><ele>972</ele><time>2007-05-30T12:08:33Z</time></trkpt>
<trkpt lat="46.28748322" lon="7.42126179"><ele>974</ele><time>2007-05-30T12:08:41Z</time></trkpt>
<trkpt lat="46.28766632" lon="7.42121601"><ele>975</ele><time>2007-05-30T12:08:48Z</time></trkpt>
<trkpt lat="46.28780746" lon="7.42106962"><ele>976</ele><time>2007-05-30T12:08:55Z</time></trkpt>
<trkpt lat="46.28794479" lon="7.42084551"><ele>979</ele><time>2007-05-30T12:09:04Z</time></trkpt>
<trkpt lat="46.28804016" lon="7.42064238"><ele>982</ele><time>2007-05-30T12:09:12Z</time></trkpt>
<trkpt lat="46.28810120" lon="7.42040873"><ele>984</ele><time>2007-05-30T12:09:20Z</time></trkpt>
<trkpt lat="46.28815842" lon="7.42014265"><ele>985</ele><time>2007-05-30T12:09:29Z</time></trkpt>
<trkpt lat="46.28824234" lon="7.41996670"><ele>986</ele><time>2007-05-30T12:09:36Z</time></trkpt>
<trkpt lat="46.28834915" lon="7.41993046"><ele>988</ele><time>2007-05-30T12:09:42Z</time></trkpt>
<trkpt lat="46.28844452" lon="7.42002010"><ele>989</ele><time>2007-05-30T12:09:48Z</time></trkpt>
<trkpt lat="46.28852081" lon="7.42024994"><ele>991</ele><time>2007-05-30T12:09:57Z</time></trkpt>
<trkpt lat="46.28857422" lon="7.42052984"><ele>994</ele><time>2007-05-30T12:10:07Z</time></trkpt>
<trkpt lat="46.28864288" lon="7.42076445"><ele>996</ele><time>2007-05-30T12:10:16Z</time></trkpt>
<trkpt lat="46.28876114" lon="7.42090273"><ele>999</ele><time>2007-05-30T12:10:24Z</time></trkpt>
<trkpt lat="46.28890991" lon="7.42096758"><ele>1000</ele><time>2007-05-30T12:10:32Z</time></trkpt>
<trkpt lat="46.28910446" lon="7.42105770"><ele>1002</ele><time>2007-05-30T12:10:43Z</time></trkpt>
<trkpt lat="46.28923035" lon="7.42111635"><ele>1003</ele><time>2007-05-30T12:10:50Z</time></trkpt>
<trkpt lat="46.28924561" lon="7.42112303"><ele>1003</ele><time>2007-05-30T12:10:51Z</time></trkpt>
<trkpt lat="46.28940582" lon="7.42117786"><ele>1006</ele><time>2007-05-30T12:10:59Z</time></trkpt>
<trkpt lat="46.28955841" lon="7.42122984"><ele>1008</ele><time>2007-05-30T12:11:07Z</time></trkpt>
<trkpt lat="46.28973007" lon="7.42129421"><ele>1009</ele><time>2007-05-30T12:11:16Z</time></trkpt>
<trkpt lat="46.28989792" lon="7.42138338"><ele>1010</ele><time>2007-05-30T12:11:25Z</time></trkpt>
<trkpt lat="46.29006577" lon="7.42140865"><ele>1012</ele><time>2007-05-30T12:11:34Z</time></trkpt>
<trkpt lat="46.29023361" lon="7.42136288"><ele>1013</ele><time>2007-05-30T12:11:43Z</time></trkpt>
<trkpt lat="46.29036713" lon="7.42138767"><ele>1015</ele><time>2007-05-30T12:11:50Z</time></trkpt>
<trkpt lat="46.29044342" lon="7.42142010"><ele>1016</ele><time>2007-05-30T12:11:55Z</time></trkpt>
<trkpt lat="46.29055023" lon="7.42148638"><ele>1018</ele><time>2007-05-30T12:12:01Z</time></trkpt>
<trkpt lat="46.29072571" lon="7.42161036"><ele>1019</ele><time>2007-05-30T12:12:10Z</time></trkpt>
<trkpt lat="46.29087448" lon="7.42169142"><ele>1020</ele><time>2007-05-30T12:12:17Z</time></trkpt>
<trkpt lat="46.29108810" lon="7.42181540"><ele>1023</ele><time>2007-05-30T12:12:28Z</time></trkpt>
<trkpt lat="46.29129410" lon="7.42193174"><ele>1026</ele><time>2007-05-30T12:12:38Z</time></trkpt>
<trkpt lat="46.29146576" lon="7.42203283"><ele>1028</ele><time>2007-05-30T12:12:47Z</time></trkpt>
<trkpt lat="46.29159546" lon="7.42214823"><ele>1029</ele><time>2007-05-30T12:12:55Z</time></trkpt>
<trkpt lat="46.29174423" lon="7.42230797"><ele>1031</ele><time>2007-05-30T12:13:04Z</time></trkpt>
<trkpt lat="46.29178238" lon="7.42233086"><ele>1031</ele><time>2007-05-30T12:13:06Z</time></trkpt>
<trkpt lat="46.29184341" lon="7.42223024"><ele>1031</ele><time>2007-05-30T12:13:11Z</time></trkpt>
<trkpt lat="46.29179382" lon="7.42215014"><ele>1032</ele><time>2007-05-30T12:13:14Z</time></trkpt>
<trkpt lat="46.29161453" lon="7.42197752"><ele>1033</ele><time>2007-05-30T12:13:22Z</time></trkpt>
<trkpt lat="46.29149246" lon="7.42173958"><ele>1034</ele><time>2007-05-30T12:13:30Z</time></trkpt>
<trkpt lat="46.29145050" lon="7.42164946"><ele>1034</ele><time>2007-05-30T12:13:33Z</time></trkpt>
<trkpt lat="46.29139328" lon="7.42153215"><ele>1036</ele><time>2007-05-30T12:13:37Z</time></trkpt>
<trkpt lat="46.29134369" lon="7.42145061"><ele>1037</ele><time>2007-05-30T12:13:40Z</time></trkpt>
<trkpt lat="46.29113007" lon="7.42117786"><ele>1039</ele><time>2007-05-30T12:13:51Z</time></trkpt>
<trkpt lat="46.29111481" lon="7.42114925"><ele>1039</ele><time>2007-05-30T12:13:52Z</time></trkpt>
<trkpt lat="46.29095840" lon="7.42084551"><ele>1042</ele><time>2007-05-30T12:14:02Z</time></trkpt>
<trkpt lat="46.29075623" lon="7.42060804"><ele>1043</ele><time>2007-05-30T12:14:12Z</time></trkpt>
<trkpt lat="46.29055786" lon="7.42044973"><ele>1046</ele><time>2007-05-30T12:14:20Z</time></trkpt>
<trkpt lat="46.29040146" lon="7.42027950"><ele>1047</ele><time>2007-05-30T12:14:27Z</time></trkpt>
<trkpt lat="46.29021454" lon="7.42014790"><ele>1049</ele><time>2007-05-30T12:14:35Z</time></trkpt>
<trkpt lat="46.29016876" lon="7.42011499"><ele>1050</ele><time>2007-05-30T12:14:37Z</time></trkpt>
<trkpt lat="46.29015350" lon="7.42009211"><ele>1050</ele><time>2007-05-30T12:14:38Z</time></trkpt>
<trkpt lat="46.29019928" lon="7.42002392"><ele>1050</ele><time>2007-05-30T12:14:42Z</time></trkpt>
<trkpt lat="46.29048920" lon="7.42015934"><ele>1050</ele><time>2007-05-30T12:14:53Z</time></trkpt>
<trkpt lat="46.29072189" lon="7.42025900"><ele>1051</ele><time>2007-05-30T12:15:02Z</time></trkpt>
<trkpt lat="46.29089737" lon="7.42032099"><ele>1054</ele><time>2007-05-30T12:15:09Z</time></trkpt>
<trkpt lat="46.29092026" lon="7.42031717"><ele>1055</ele><time>2007-05-30T12:15:10Z</time></trkpt>
<trkpt lat="46.29095840" lon="7.42019796"><ele>1055</ele><time>2007-05-30T12:15:16Z</time></trkpt>
<trkpt lat="46.29094315" lon="7.42016602"><ele>1056</ele><time>2007-05-30T12:15:21Z</time></trkpt>
<trkpt lat="46.29095078" lon="7.42010164"><ele>1056</ele><time>2007-05-30T12:15:56Z</time></trkpt>
<trkpt lat="46.29094315" lon="7.42009497"><ele>1056</ele><time>2007-05-30T12:16:06Z</time></trkpt>
<trkpt lat="46.29092789" lon="7.42011261"><ele>1056</ele><time>2007-05-30T12:16:12Z</time></trkpt>
<trkpt lat="46.29086685" lon="7.42009020"><ele>1055</ele><time>2007-05-30T12:16:16Z</time></trkpt>
<trkpt lat="46.29082870" lon="7.42006397"><ele>1056</ele><time>2007-05-30T12:16:18Z</time></trkpt>
<trkpt lat="46.29069519" lon="7.42000866"><ele>1058</ele><time>2007-05-30T12:16:25Z</time></trkpt>
<trkpt lat="46.29051971" lon="7.41985750"><ele>1060</ele><time>2007-05-30T12:16:34Z</time></trkpt>
<trkpt lat="46.29048538" lon="7.41981077"><ele>1060</ele><time>2007-05-30T12:16:36Z</time></trkpt>
<trkpt lat="46.29047394" lon="7.41978598"><ele>1060</ele><time>2007-05-30T12:16:37Z</time></trkpt>
<trkpt lat="46.29044342" lon="7.41973591"><ele>1060</ele><time>2007-05-30T12:16:39Z</time></trkpt>
<trkpt lat="46.29043198" lon="7.41971064"><ele>1060</ele><time>2007-05-30T12:16:40Z</time></trkpt>
<trkpt lat="46.29040527" lon="7.41965437"><ele>1060</ele><time>2007-05-30T12:16:42Z</time></trkpt>
<trkpt lat="46.29037476" lon="7.41959810"><ele>1060</ele><time>2007-05-30T12:16:44Z</time></trkpt>
<trkpt lat="46.29035950" lon="7.41956902"><ele>1061</ele><time>2007-05-30T12:16:45Z</time></trkpt>
<trkpt lat="46.29031754" lon="7.41947889"><ele>1061</ele><time>2007-05-30T12:16:48Z</time></trkpt>
<trkpt lat="46.29030228" lon="7.41944838"><ele>1061</ele><time>2007-05-30T12:16:49Z</time></trkpt>
<trkpt lat="46.29027557" lon="7.41938972"><ele>1061</ele><time>2007-05-30T12:16:51Z</time></trkpt>
<trkpt lat="46.29026031" lon="7.41936016"><ele>1061</ele><time>2007-05-30T12:16:52Z</time></trkpt>
<trkpt lat="46.29019547" lon="7.41921854"><ele>1062</ele><time>2007-05-30T12:16:57Z</time></trkpt>
<trkpt lat="46.29018402" lon="7.41918993"><ele>1063</ele><time>2007-05-30T12:16:58Z</time></trkpt>
<trkpt lat="46.29015732" lon="7.41912842"><ele>1063</ele><time>2007-05-30T12:17:00Z</time></trkpt>
<trkpt lat="46.29010391" lon="7.41901112"><ele>1063</ele><time>2007-05-30T12:17:04Z</time></trkpt>
<trkpt lat="46.29007721" lon="7.41895294"><ele>1064</ele><time>2007-05-30T12:17:06Z</time></trkpt>
<trkpt lat="46.28992844" lon="7.41876793"><ele>1066</ele><time>2007-05-30T12:17:14Z</time></trkpt>
<trkpt lat="46.28973389" lon="7.41867781"><ele>1066</ele><time>2007-05-30T12:17:22Z</time></trkpt>
<trkpt lat="46.28961182" lon="7.41861582"><ele>1068</ele><time>2007-05-30T12:17:27Z</time></trkpt>
<trkpt lat="46.28948593" lon="7.41843987"><ele>1069</ele><time>2007-05-30T12:17:34Z</time></trkpt>
<trkpt lat="46.28941727" lon="7.41812038"><ele>1071</ele><time>2007-05-30T12:17:43Z</time></trkpt>
<trkpt lat="46.28934097" lon="7.41785574"><ele>1072</ele><time>2007-05-30T12:17:51Z</time></trkpt>
<trkpt lat="46.28920746" lon="7.41752911"><ele>1074</ele><time>2007-05-30T12:18:02Z</time></trkpt>
<trkpt lat="46.28919220" lon="7.41746759"><ele>1074</ele><time>2007-05-30T12:18:04Z</time></trkpt>
<trkpt lat="46.28915024" lon="7.41725302"><ele>1076</ele><time>2007-05-30T12:18:11Z</time></trkpt>
<trkpt lat="46.28913879" lon="7.41719532"><ele>1078</ele><time>2007-05-30T12:18:13Z</time></trkpt>
<trkpt lat="46.28913116" lon="7.41716814"><ele>1077</ele><time>2007-05-30T12:18:14Z</time></trkpt>
<trkpt lat="46.28911972" lon="7.41711044"><ele>1078</ele><time>2007-05-30T12:18:16Z</time></trkpt>
<trkpt lat="46.28911209" lon="7.41708422"><ele>1077</ele><time>2007-05-30T12:18:17Z</time></trkpt>
<trkpt lat="46.28906631" lon="7.41684628"><ele>1078</ele><time>2007-05-30T12:18:25Z</time></trkpt>
<trkpt lat="46.28902054" lon="7.41657352"><ele>1080</ele><time>2007-05-30T12:18:34Z</time></trkpt>
<trkpt lat="46.28899002" lon="7.41626740"><ele>1083</ele><time>2007-05-30T12:18:44Z</time></trkpt>
<trkpt lat="46.28899765" lon="7.41595125"><ele>1084</ele><time>2007-05-30T12:18:54Z</time></trkpt>
<trkpt lat="46.28900528" lon="7.41565990"><ele>1086</ele><time>2007-05-30T12:19:04Z</time></trkpt>
<trkpt lat="46.28900909" lon="7.41542435"><ele>1089</ele><time>2007-05-30T12:19:12Z</time></trkpt>
<trkpt lat="46.28899765" lon="7.41533422"><ele>1090</ele><time>2007-05-30T12:19:15Z</time></trkpt>
<trkpt lat="46.28895569" lon="7.41508245"><ele>1091</ele><time>2007-05-30T12:19:24Z</time></trkpt>
<trkpt lat="46.28892136" lon="7.41486692"><ele>1093</ele><time>2007-05-30T12:19:31Z</time></trkpt>
<trkpt lat="46.28890991" lon="7.41462517"><ele>1096</ele><time>2007-05-30T12:19:38Z</time></trkpt>
<trkpt lat="46.28890228" lon="7.41450167"><ele>1097</ele><time>2007-05-30T12:19:43Z</time></trkpt>
<trkpt lat="46.28889465" lon="7.41427374"><ele>1097</ele><time>2007-05-30T12:19:51Z</time></trkpt>
<trkpt lat="46.28883743" lon="7.41398048"><ele>1099</ele><time>2007-05-30T12:20:01Z</time></trkpt>
<trkpt lat="46.28876495" lon="7.41374302"><ele>1101</ele><time>2007-05-30T12:20:10Z</time></trkpt>
<trkpt lat="46.28871918" lon="7.41351223"><ele>1102</ele><time>2007-05-30T12:20:18Z</time></trkpt>
<trkpt lat="46.28866577" lon="7.41325569"><ele>1102</ele><time>2007-05-30T12:20:23Z</time></trkpt>
<trkpt lat="46.28856659" lon="7.41295481"><ele>1100</ele><time>2007-05-30T12:20:28Z</time></trkpt>
<trkpt lat="46.28851700" lon="7.41283226"><ele>1100</ele><time>2007-05-30T12:20:30Z</time></trkpt>
<trkpt lat="46.28836441" lon="7.41269064"><ele>1100</ele><time>2007-05-30T12:20:34Z</time></trkpt>
<trkpt lat="46.28826904" lon="7.41268396"><ele>1100</ele><time>2007-05-30T12:20:36Z</time></trkpt>
<trkpt lat="46.28813171" lon="7.41270924"><ele>1100</ele><time>2007-05-30T12:20:39Z</time></trkpt>
<trkpt lat="46.28801346" lon="7.41277742"><ele>1100</ele><time>2007-05-30T12:20:42Z</time></trkpt>
<trkpt lat="46.28785324" lon="7.41273546"><ele>1101</ele><time>2007-05-30T12:20:46Z</time></trkpt>
<trkpt lat="46.28782654" lon="7.41269207"><ele>1102</ele><time>2007-05-30T12:20:47Z</time></trkpt>
<trkpt lat="46.28780365" lon="7.41264820"><ele>1102</ele><time>2007-05-30T12:20:48Z</time></trkpt>
<trkpt lat="46.28772736" lon="7.41252851"><ele>1103</ele><time>2007-05-30T12:20:51Z</time></trkpt>
<trkpt lat="46.28767776" lon="7.41244936"><ele>1104</ele><time>2007-05-30T12:20:53Z</time></trkpt>
<trkpt lat="46.28747177" lon="7.41214514"><ele>1105</ele><time>2007-05-30T12:21:01Z</time></trkpt>
<trkpt lat="46.28728485" lon="7.41185474"><ele>1108</ele><time>2007-05-30T12:21:09Z</time></trkpt>
<trkpt lat="46.28719711" lon="7.41163445"><ele>1107</ele><time>2007-05-30T12:21:14Z</time></trkpt>
<trkpt lat="46.28705597" lon="7.41130877"><ele>1107</ele><time>2007-05-30T12:21:20Z</time></trkpt>
<trkpt lat="46.28688049" lon="7.41102505"><ele>1107</ele><time>2007-05-30T12:21:26Z</time></trkpt>
<trkpt lat="46.28670120" lon="7.41067600"><ele>1106</ele><time>2007-05-30T12:21:32Z</time></trkpt>
<trkpt lat="46.28650284" lon="7.41028070"><ele>1106</ele><time>2007-05-30T12:21:38Z</time></trkpt>
<trkpt lat="46.28627014" lon="7.40974998"><ele>1105</ele><time>2007-05-30T12:21:45Z</time></trkpt>
<trkpt lat="46.28621292" lon="7.40962172"><ele>1106</ele><time>2007-05-30T12:21:47Z</time></trkpt>
<trkpt lat="46.28613663" lon="7.40945721"><ele>1108</ele><time>2007-05-30T12:21:50Z</time></trkpt>
<trkpt lat="46.28611374" lon="7.40940714"><ele>1108</ele><time>2007-05-30T12:21:51Z</time></trkpt>
<trkpt lat="46.28597641" lon="7.40910912"><ele>1109</ele><time>2007-05-30T12:21:57Z</time></trkpt>
<trkpt lat="46.28573227" lon="7.40866041"><ele>1111</ele><time>2007-05-30T12:22:07Z</time></trkpt>
<trkpt lat="46.28557968" lon="7.40841532"><ele>1109</ele><time>2007-05-30T12:22:11Z</time></trkpt>
<trkpt lat="46.28553391" lon="7.40832806"><ele>1108</ele><time>2007-05-30T12:22:12Z</time></trkpt>
<trkpt lat="46.28544617" lon="7.40811634"><ele>1107</ele><time>2007-05-30T12:22:14Z</time></trkpt>
<trkpt lat="46.28535080" lon="7.40787745"><ele>1104</ele><time>2007-05-30T12:22:16Z</time></trkpt>
<trkpt lat="46.28520584" lon="7.40767336"><ele>1102</ele><time>2007-05-30T12:22:18Z</time></trkpt>
<trkpt lat="46.28489685" lon="7.40756321"><ele>1100</ele><time>2007-05-30T12:22:21Z</time></trkpt>
<trkpt lat="46.28443909" lon="7.40762997"><ele>1100</ele><time>2007-05-30T12:22:26Z</time></trkpt>
<trkpt lat="46.28436661" lon="7.40764236"><ele>1100</ele><time>2007-05-30T12:22:27Z</time></trkpt>
<trkpt lat="46.28409576" lon="7.40759468"><ele>1101</ele><time>2007-05-30T12:22:32Z</time></trkpt>
<trkpt lat="46.28386688" lon="7.40747404"><ele>1103</ele><time>2007-05-30T12:22:39Z</time></trkpt>
<trkpt lat="46.28367233" lon="7.40724993"><ele>1104</ele><time>2007-05-30T12:22:46Z</time></trkpt>
<trkpt lat="46.28364563" lon="7.40721560"><ele>1105</ele><time>2007-05-30T12:22:47Z</time></trkpt>
<trkpt lat="46.28342438" lon="7.40694761"><ele>1105</ele><time>2007-05-30T12:22:55Z</time></trkpt>
<trkpt lat="46.28337097" lon="7.40687799"><ele>1105</ele><time>2007-05-30T12:22:57Z</time></trkpt>
<trkpt lat="46.28334808" lon="7.40684271"><ele>1106</ele><time>2007-05-30T12:22:58Z</time></trkpt>
<trkpt lat="46.28317261" lon="7.40656948"><ele>1107</ele><time>2007-05-30T12:23:06Z</time></trkpt>
<trkpt lat="46.28311920" lon="7.40649033"><ele>1108</ele><time>2007-05-30T12:23:09Z</time></trkpt>
<trkpt lat="46.28308105" lon="7.40644264"><ele>1107</ele><time>2007-05-30T12:23:12Z</time></trkpt>
<trkpt lat="46.28301239" lon="7.40627098"><ele>1108</ele><time>2007-05-30T12:23:18Z</time></trkpt>
<trkpt lat="46.28299713" lon="7.40595531"><ele>1110</ele><time>2007-05-30T12:23:27Z</time></trkpt>
<trkpt lat="46.28299713" lon="7.40579081"><ele>1111</ele><time>2007-05-30T12:23:33Z</time></trkpt>
<trkpt lat="46.28299332" lon="7.40562439"><ele>1112</ele><time>2007-05-30T12:23:39Z</time></trkpt>
<trkpt lat="46.28299332" lon="7.40557098"><ele>1113</ele><time>2007-05-30T12:23:41Z</time></trkpt>
<trkpt lat="46.28298950" lon="7.40554428"><ele>1114</ele><time>2007-05-30T12:23:42Z</time></trkpt>
<trkpt lat="46.28298569" lon="7.40551758"><ele>1114</ele><time>2007-05-30T12:23:43Z</time></trkpt>
<trkpt lat="46.28295517" lon="7.40533209"><ele>1115</ele><time>2007-05-30T12:23:50Z</time></trkpt>
<trkpt lat="46.28292847" lon="7.40514135"><ele>1117</ele><time>2007-05-30T12:23:57Z</time></trkpt>
<trkpt lat="46.28292465" lon="7.40511322"><ele>1117</ele><time>2007-05-30T12:23:58Z</time></trkpt>
<trkpt lat="46.28292465" lon="7.40508461"><ele>1117</ele><time>2007-05-30T12:23:59Z</time></trkpt>
<trkpt lat="46.28292084" lon="7.40505648"><ele>1117</ele><time>2007-05-30T12:24:00Z</time></trkpt>
<trkpt lat="46.28291321" lon="7.40475845"><ele>1120</ele><time>2007-05-30T12:24:11Z</time></trkpt>
<trkpt lat="46.28291321" lon="7.40470600"><ele>1121</ele><time>2007-05-30T12:24:13Z</time></trkpt>
<trkpt lat="46.28292465" lon="7.40444517"><ele>1122</ele><time>2007-05-30T12:24:23Z</time></trkpt>
<trkpt lat="46.28292084" lon="7.40423441"><ele>1124</ele><time>2007-05-30T12:24:31Z</time></trkpt>
<trkpt lat="46.28290176" lon="7.40404749"><ele>1125</ele><time>2007-05-30T12:24:38Z</time></trkpt>
<trkpt lat="46.28286743" lon="7.40386820"><ele>1127</ele><time>2007-05-30T12:24:45Z</time></trkpt>
<trkpt lat="46.28277588" lon="7.40360022"><ele>1129</ele><time>2007-05-30T12:24:56Z</time></trkpt>
<trkpt lat="46.28270340" lon="7.40346956"><ele>1132</ele><time>2007-05-30T12:25:02Z</time></trkpt>
<trkpt lat="46.28269196" lon="7.40344715"><ele>1132</ele><time>2007-05-30T12:25:03Z</time></trkpt>
<trkpt lat="46.28256989" lon="7.40323019"><ele>1133</ele><time>2007-05-30T12:25:13Z</time></trkpt>
<trkpt lat="46.28244781" lon="7.40306520"><ele>1135</ele><time>2007-05-30T12:25:22Z</time></trkpt>
<trkpt lat="46.28234482" lon="7.40299892"><ele>1135</ele><time>2007-05-30T12:25:28Z</time></trkpt>
<trkpt lat="46.28223038" lon="7.40292692"><ele>1137</ele><time>2007-05-30T12:25:35Z</time></trkpt>
<trkpt lat="46.28208542" lon="7.40283346"><ele>1139</ele><time>2007-05-30T12:25:43Z</time></trkpt>
<trkpt lat="46.28195953" lon="7.40270853"><ele>1140</ele><time>2007-05-30T12:25:50Z</time></trkpt>
<trkpt lat="46.28186417" lon="7.40261221"><ele>1141</ele><time>2007-05-30T12:25:56Z</time></trkpt>
<trkpt lat="46.28178787" lon="7.40250778"><ele>1142</ele><time>2007-05-30T12:26:02Z</time></trkpt>
<trkpt lat="46.28166580" lon="7.40231657"><ele>1143</ele><time>2007-05-30T12:26:12Z</time></trkpt>
<trkpt lat="46.28157425" lon="7.40206528"><ele>1146</ele><time>2007-05-30T12:26:22Z</time></trkpt>
<trkpt lat="46.28152466" lon="7.40193176"><ele>1147</ele><time>2007-05-30T12:26:27Z</time></trkpt>
<trkpt lat="46.28141403" lon="7.40158463"><ele>1151</ele><time>2007-05-30T12:26:39Z</time></trkpt>
<trkpt lat="46.28140259" lon="7.40155745"><ele>1151</ele><time>2007-05-30T12:26:40Z</time></trkpt>
<trkpt lat="46.28125763" lon="7.40130663"><ele>1154</ele><time>2007-05-30T12:26:51Z</time></trkpt>
<trkpt lat="46.28115845" lon="7.40111780"><ele>1156</ele><time>2007-05-30T12:26:59Z</time></trkpt>
<trkpt lat="46.28106308" lon="7.40094662"><ele>1158</ele><time>2007-05-30T12:27:06Z</time></trkpt>
<trkpt lat="46.28095627" lon="7.40076923"><ele>1159</ele><time>2007-05-30T12:27:14Z</time></trkpt>
<trkpt lat="46.28080368" lon="7.40053320"><ele>1161</ele><time>2007-05-30T12:27:25Z</time></trkpt>
<trkpt lat="46.28063583" lon="7.40028477"><ele>1163</ele><time>2007-05-30T12:27:37Z</time></trkpt>
<trkpt lat="46.28047943" lon="7.40015602"><ele>1165</ele><time>2007-05-30T12:27:46Z</time></trkpt>
<trkpt lat="46.28034210" lon="7.40001154"><ele>1167</ele><time>2007-05-30T12:27:55Z</time></trkpt>
<trkpt lat="46.28022385" lon="7.39979982"><ele>1170</ele><time>2007-05-30T12:28:06Z</time></trkpt>
<trkpt lat="46.28014374" lon="7.39956045"><ele>1171</ele><time>2007-05-30T12:28:16Z</time></trkpt>
<trkpt lat="46.28004456" lon="7.39924669"><ele>1174</ele><time>2007-05-30T12:28:29Z</time></trkpt>
<trkpt lat="46.27997589" lon="7.39902925"><ele>1177</ele><time>2007-05-30T12:28:38Z</time></trkpt>
<trkpt lat="46.27991486" lon="7.39880657"><ele>1178</ele><time>2007-05-30T12:28:47Z</time></trkpt>
<trkpt lat="46.27986526" lon="7.39854288"><ele>1181</ele><time>2007-05-30T12:28:57Z</time></trkpt>
<trkpt lat="46.27984238" lon="7.39827108"><ele>1182</ele><time>2007-05-30T12:29:07Z</time></trkpt>
<trkpt lat="46.27986145" lon="7.39799786"><ele>1184</ele><time>2007-05-30T12:29:17Z</time></trkpt>
<trkpt lat="46.27988434" lon="7.39773035"><ele>1186</ele><time>2007-05-30T12:29:27Z</time></trkpt>
<trkpt lat="46.27989578" lon="7.39754343"><ele>1186</ele><time>2007-05-30T12:29:34Z</time></trkpt>
<trkpt lat="46.27993393" lon="7.39736891"><ele>1189</ele><time>2007-05-30T12:29:39Z</time></trkpt>
<trkpt lat="46.27994537" lon="7.39733410"><ele>1189</ele><time>2007-05-30T12:29:40Z</time></trkpt>
<trkpt lat="46.27995682" lon="7.39722490"><ele>1190</ele><time>2007-05-30T12:29:45Z</time></trkpt>
<trkpt lat="46.27988815" lon="7.39705324"><ele>1189</ele><time>2007-05-30T12:29:50Z</time></trkpt>
<trkpt lat="46.27985382" lon="7.39693308"><ele>1188</ele><time>2007-05-30T12:29:52Z</time></trkpt>
<trkpt lat="46.27986908" lon="7.39680004"><ele>1186</ele><time>2007-05-30T12:29:54Z</time></trkpt>
<trkpt lat="46.28002930" lon="7.39636755"><ele>1188</ele><time>2007-05-30T12:30:02Z</time></trkpt>
<trkpt lat="46.28020096" lon="7.39597845"><ele>1188</ele><time>2007-05-30T12:30:09Z</time></trkpt>
<trkpt lat="46.28023911" lon="7.39588547"><ele>1188</ele><time>2007-05-30T12:30:11Z</time></trkpt>
<trkpt lat="46.28025436" lon="7.39584160"><ele>1189</ele><time>2007-05-30T12:30:12Z</time></trkpt>
<trkpt lat="46.28031540" lon="7.39567518"><ele>1189</ele><time>2007-05-30T12:30:16Z</time></trkpt>
<trkpt lat="46.28038406" lon="7.39546490"><ele>1189</ele><time>2007-05-30T12:30:21Z</time></trkpt>
<trkpt lat="46.28045654" lon="7.39513636"><ele>1190</ele><time>2007-05-30T12:30:28Z</time></trkpt>
<trkpt lat="46.28046799" lon="7.39504576"><ele>1191</ele><time>2007-05-30T12:30:30Z</time></trkpt>
<trkpt lat="46.28047562" lon="7.39499760"><ele>1191</ele><time>2007-05-30T12:30:31Z</time></trkpt>
<trkpt lat="46.28048706" lon="7.39490080"><ele>1191</ele><time>2007-05-30T12:30:33Z</time></trkpt>
<trkpt lat="46.28050232" lon="7.39480782"><ele>1192</ele><time>2007-05-30T12:30:35Z</time></trkpt>
<trkpt lat="46.28050613" lon="7.39475870"><ele>1193</ele><time>2007-05-30T12:30:36Z</time></trkpt>
<trkpt lat="46.28051376" lon="7.39453554"><ele>1193</ele><time>2007-05-30T12:30:41Z</time></trkpt>
<trkpt lat="46.28046799" lon="7.39440155"><ele>1193</ele><time>2007-05-30T12:30:44Z</time></trkpt>
<trkpt lat="46.28033829" lon="7.39434433"><ele>1193</ele><time>2007-05-30T12:30:48Z</time></trkpt>
<trkpt lat="46.28017044" lon="7.39429331"><ele>1194</ele><time>2007-05-30T12:30:53Z</time></trkpt>
<trkpt lat="46.28004074" lon="7.39424419"><ele>1193</ele><time>2007-05-30T12:30:57Z</time></trkpt>
<trkpt lat="46.27995300" lon="7.39422321"><ele>1193</ele><time>2007-05-30T12:30:59Z</time></trkpt>
<trkpt lat="46.27986526" lon="7.39417982"><ele>1194</ele><time>2007-05-30T12:31:01Z</time></trkpt>
<trkpt lat="46.27982330" lon="7.39415503"><ele>1194</ele><time>2007-05-30T12:31:02Z</time></trkpt>
<trkpt lat="46.27970886" lon="7.39410734"><ele>1195</ele><time>2007-05-30T12:31:05Z</time></trkpt>
<trkpt lat="46.27967072" lon="7.39409781"><ele>1195</ele><time>2007-05-30T12:31:06Z</time></trkpt>
<trkpt lat="46.27963638" lon="7.39408588"><ele>1196</ele><time>2007-05-30T12:31:07Z</time></trkpt>
<trkpt lat="46.27960205" lon="7.39407825"><ele>1196</ele><time>2007-05-30T12:31:08Z</time></trkpt>
<trkpt lat="46.27956772" lon="7.39406967"><ele>1196</ele><time>2007-05-30T12:31:09Z</time></trkpt>
<trkpt lat="46.27949905" lon="7.39404964"><ele>1196</ele><time>2007-05-30T12:31:11Z</time></trkpt>
<trkpt lat="46.27943420" lon="7.39402866"><ele>1196</ele><time>2007-05-30T12:31:13Z</time></trkpt>
<trkpt lat="46.27923203" lon="7.39397049"><ele>1197</ele><time>2007-05-30T12:31:19Z</time></trkpt>
<trkpt lat="46.27907181" lon="7.39393759"><ele>1196</ele><time>2007-05-30T12:31:25Z</time></trkpt>
<trkpt lat="46.27890396" lon="7.39386415"><ele>1195</ele><time>2007-05-30T12:31:30Z</time></trkpt>
<trkpt lat="46.27866745" lon="7.39376163"><ele>1194</ele><time>2007-05-30T12:31:34Z</time></trkpt>
<trkpt lat="46.27833557" lon="7.39363861"><ele>1191</ele><time>2007-05-30T12:31:38Z</time></trkpt>
<trkpt lat="46.27813721" lon="7.39356375"><ele>1190</ele><time>2007-05-30T12:31:40Z</time></trkpt>
<trkpt lat="46.27795792" lon="7.39343786"><ele>1189</ele><time>2007-05-30T12:31:42Z</time></trkpt>
<trkpt lat="46.27787781" lon="7.39336109"><ele>1189</ele><time>2007-05-30T12:31:43Z</time></trkpt>
<trkpt lat="46.27773285" lon="7.39320040"><ele>1189</ele><time>2007-05-30T12:31:45Z</time></trkpt>
<trkpt lat="46.27760315" lon="7.39280605"><ele>1186</ele><time>2007-05-30T12:31:48Z</time></trkpt>
<trkpt lat="46.27755356" lon="7.39266634"><ele>1186</ele><time>2007-05-30T12:31:49Z</time></trkpt>
<trkpt lat="46.27744293" lon="7.39240074"><ele>1185</ele><time>2007-05-30T12:31:51Z</time></trkpt>
<trkpt lat="46.27729416" lon="7.39215660"><ele>1184</ele><time>2007-05-30T12:31:53Z</time></trkpt>
<trkpt lat="46.27711868" lon="7.39193678"><ele>1182</ele><time>2007-05-30T12:31:55Z</time></trkpt>
<trkpt lat="46.27702713" lon="7.39183187"><ele>1180</ele><time>2007-05-30T12:31:56Z</time></trkpt>
<trkpt lat="46.27686691" lon="7.39157200"><ele>1175</ele><time>2007-05-30T12:31:58Z</time></trkpt>
<trkpt lat="46.27666473" lon="7.39111757"><ele>1173</ele><time>2007-05-30T12:32:01Z</time></trkpt>
<trkpt lat="46.27659225" lon="7.39096785"><ele>1173</ele><time>2007-05-30T12:32:02Z</time></trkpt>
<trkpt lat="46.27638245" lon="7.39053679"><ele>1170</ele><time>2007-05-30T12:32:05Z</time></trkpt>
<trkpt lat="46.27632141" lon="7.39039612"><ele>1171</ele><time>2007-05-30T12:32:06Z</time></trkpt>
<trkpt lat="46.27618027" lon="7.39000797"><ele>1170</ele><time>2007-05-30T12:32:09Z</time></trkpt>
<trkpt lat="46.27604675" lon="7.38968563"><ele>1170</ele><time>2007-05-30T12:32:12Z</time></trkpt>
<trkpt lat="46.27589417" lon="7.38927031"><ele>1170</ele><time>2007-05-30T12:32:16Z</time></trkpt>
<trkpt lat="46.27578735" lon="7.38907671"><ele>1170</ele><time>2007-05-30T12:32:18Z</time></trkpt>
<trkpt lat="46.27571106" lon="7.38899517"><ele>1170</ele><time>2007-05-30T12:32:19Z</time></trkpt>
<trkpt lat="46.27563095" lon="7.38891745"><ele>1169</ele><time>2007-05-30T12:32:20Z</time></trkpt>
<trkpt lat="46.27554703" lon="7.38884211"><ele>1168</ele><time>2007-05-30T12:32:21Z</time></trkpt>
<trkpt lat="46.27545929" lon="7.38876152"><ele>1165</ele><time>2007-05-30T12:32:22Z</time></trkpt>
<trkpt lat="46.27516937" lon="7.38827133"><ele>1163</ele><time>2007-05-30T12:32:26Z</time></trkpt>
<trkpt lat="46.27512360" lon="7.38811159"><ele>1162</ele><time>2007-05-30T12:32:27Z</time></trkpt>
<trkpt lat="46.27505112" lon="7.38778210"><ele>1161</ele><time>2007-05-30T12:32:29Z</time></trkpt>
<trkpt lat="46.27478027" lon="7.38722420"><ele>1156</ele><time>2007-05-30T12:32:33Z</time></trkpt>
<trkpt lat="46.27458954" lon="7.38682508"><ele>1158</ele><time>2007-05-30T12:32:36Z</time></trkpt>
<trkpt lat="46.27447891" lon="7.38629866"><ele>1155</ele><time>2007-05-30T12:32:40Z</time></trkpt>
<trkpt lat="46.27430344" lon="7.38606834"><ele>1153</ele><time>2007-05-30T12:32:43Z</time></trkpt>
<trkpt lat="46.27410889" lon="7.38591909"><ele>1150</ele><time>2007-05-30T12:32:47Z</time></trkpt>
<trkpt lat="46.27397919" lon="7.38592005"><ele>1149</ele><time>2007-05-30T12:32:50Z</time></trkpt>
<trkpt lat="46.27393723" lon="7.38593102"><ele>1150</ele><time>2007-05-30T12:32:51Z</time></trkpt>
<trkpt lat="46.27380753" lon="7.38594294"><ele>1150</ele><time>2007-05-30T12:32:54Z</time></trkpt>
<trkpt lat="46.27376556" lon="7.38594866"><ele>1150</ele><time>2007-05-30T12:32:55Z</time></trkpt>
<trkpt lat="46.27373505" lon="7.38596296"><ele>1150</ele><time>2007-05-30T12:32:56Z</time></trkpt>
<trkpt lat="46.27370834" lon="7.38598108"><ele>1150</ele><time>2007-05-30T12:32:57Z</time></trkpt>
<trkpt lat="46.27362442" lon="7.38610506"><ele>1148</ele><time>2007-05-30T12:33:01Z</time></trkpt>
<trkpt lat="46.27362823" lon="7.38626051"><ele>1148</ele><time>2007-05-30T12:33:03Z</time></trkpt>
<trkpt lat="46.27369690" lon="7.38681602"><ele>1143</ele><time>2007-05-30T12:33:08Z</time></trkpt>
<trkpt lat="46.27387238" lon="7.38721609"><ele>1141</ele><time>2007-05-30T12:33:11Z</time></trkpt>
<trkpt lat="46.27400589" lon="7.38750124"><ele>1139</ele><time>2007-05-30T12:33:13Z</time></trkpt>
<trkpt lat="46.27406311" lon="7.38785172"><ele>1137</ele><time>2007-05-30T12:33:15Z</time></trkpt>
<trkpt lat="46.27407455" lon="7.38803577"><ele>1135</ele><time>2007-05-30T12:33:16Z</time></trkpt>
<trkpt lat="46.27408600" lon="7.38841486"><ele>1134</ele><time>2007-05-30T12:33:18Z</time></trkpt>
<trkpt lat="46.27419281" lon="7.38911724"><ele>1131</ele><time>2007-05-30T12:33:22Z</time></trkpt>
<trkpt lat="46.27422714" lon="7.38928366"><ele>1131</ele><time>2007-05-30T12:33:23Z</time></trkpt>
<trkpt lat="46.27426147" lon="7.38944864"><ele>1130</ele><time>2007-05-30T12:33:24Z</time></trkpt>
<trkpt lat="46.27429581" lon="7.38961458"><ele>1129</ele><time>2007-05-30T12:33:25Z</time></trkpt>
<trkpt lat="46.27432632" lon="7.38978338"><ele>1129</ele><time>2007-05-30T12:33:26Z</time></trkpt>
<trkpt lat="46.27440643" lon="7.39062357"><ele>1125</ele><time>2007-05-30T12:33:31Z</time></trkpt>
<trkpt lat="46.27454758" lon="7.39171791"><ele>1122</ele><time>2007-05-30T12:33:38Z</time></trkpt>
<trkpt lat="46.27462006" lon="7.39214230"><ele>1120</ele><time>2007-05-30T12:33:41Z</time></trkpt>
<trkpt lat="46.27472687" lon="7.39267349"><ele>1117</ele><time>2007-05-30T12:33:45Z</time></trkpt>
<trkpt lat="46.27492142" lon="7.39342260"><ele>1116</ele><time>2007-05-30T12:33:51Z</time></trkpt>
<trkpt lat="46.27499771" lon="7.39367199"><ele>1116</ele><time>2007-05-30T12:33:53Z</time></trkpt>
<trkpt lat="46.27503586" lon="7.39379597"><ele>1116</ele><time>2007-05-30T12:33:54Z</time></trkpt>
<trkpt lat="46.27511597" lon="7.39404535"><ele>1116</ele><time>2007-05-30T12:33:56Z</time></trkpt>
<trkpt lat="46.27520370" lon="7.39429235"><ele>1115</ele><time>2007-05-30T12:33:58Z</time></trkpt>
<trkpt lat="46.27524948" lon="7.39441490"><ele>1115</ele><time>2007-05-30T12:33:59Z</time></trkpt>
<trkpt lat="46.27529907" lon="7.39453650"><ele>1115</ele><time>2007-05-30T12:34:00Z</time></trkpt>
<trkpt lat="46.27556992" lon="7.39512920"><ele>1114</ele><time>2007-05-30T12:34:05Z</time></trkpt>
<trkpt lat="46.27590561" lon="7.39584398"><ele>1112</ele><time>2007-05-30T12:34:11Z</time></trkpt>
<trkpt lat="46.27619171" lon="7.39645147"><ele>1110</ele><time>2007-05-30T12:34:16Z</time></trkpt>
<trkpt lat="46.27667236" lon="7.39740276"><ele>1109</ele><time>2007-05-30T12:34:24Z</time></trkpt>
<trkpt lat="46.27678299" lon="7.39763880"><ele>1109</ele><time>2007-05-30T12:34:26Z</time></trkpt>
<trkpt lat="46.27684021" lon="7.39775372"><ele>1109</ele><time>2007-05-30T12:34:27Z</time></trkpt>
<trkpt lat="46.27694702" lon="7.39797878"><ele>1108</ele><time>2007-05-30T12:34:29Z</time></trkpt>
<trkpt lat="46.27700424" lon="7.39809084"><ele>1107</ele><time>2007-05-30T12:34:30Z</time></trkpt>
<trkpt lat="46.27710724" lon="7.39832878"><ele>1106</ele><time>2007-05-30T12:34:32Z</time></trkpt>
<trkpt lat="46.27715302" lon="7.39845943"><ele>1106</ele><time>2007-05-30T12:34:33Z</time></trkpt>
<trkpt lat="46.27719879" lon="7.39904213"><ele>1101</ele><time>2007-05-30T12:34:37Z</time></trkpt>
<trkpt lat="46.27721024" lon="7.39955521"><ele>1097</ele><time>2007-05-30T12:34:40Z</time></trkpt>
<trkpt lat="46.27722931" lon="7.39972019"><ele>1096</ele><time>2007-05-30T12:34:41Z</time></trkpt>
<trkpt lat="46.27724838" lon="7.39985847"><ele>1093</ele><time>2007-05-30T12:34:42Z</time></trkpt>
<trkpt lat="46.27726746" lon="7.39996958"><ele>1093</ele><time>2007-05-30T12:34:43Z</time></trkpt>
<trkpt lat="46.27729034" lon="7.40011168"><ele>1092</ele><time>2007-05-30T12:34:45Z</time></trkpt>
<trkpt lat="46.27719116" lon="7.40018940"><ele>1089</ele><time>2007-05-30T12:34:48Z</time></trkpt>
<trkpt lat="46.27703094" lon="7.40024281"><ele>1087</ele><time>2007-05-30T12:34:51Z</time></trkpt>
<trkpt lat="46.27695084" lon="7.40031815"><ele>1085</ele><time>2007-05-30T12:34:54Z</time></trkpt>
<trkpt lat="46.27693176" lon="7.40032530"><ele>1085</ele><time>2007-05-30T12:34:55Z</time></trkpt>
<trkpt lat="46.27685547" lon="7.40028811"><ele>1084</ele><time>2007-05-30T12:34:59Z</time></trkpt>
<trkpt lat="46.27680206" lon="7.40025377"><ele>1084</ele><time>2007-05-30T12:35:01Z</time></trkpt>
<trkpt lat="46.27676773" lon="7.40022945"><ele>1083</ele><time>2007-05-30T12:35:02Z</time></trkpt>
<trkpt lat="46.27668762" lon="7.40013075"><ele>1082</ele><time>2007-05-30T12:35:04Z</time></trkpt>
<trkpt lat="46.27658081" lon="7.39979553"><ele>1077</ele><time>2007-05-30T12:35:08Z</time></trkpt>
<trkpt lat="46.27634048" lon="7.39954138"><ele>1076</ele><time>2007-05-30T12:35:12Z</time></trkpt>
<trkpt lat="46.27608109" lon="7.39934444"><ele>1072</ele><time>2007-05-30T12:35:15Z</time></trkpt>
<trkpt lat="46.27599335" lon="7.39924479"><ele>1071</ele><time>2007-05-30T12:35:16Z</time></trkpt>
<trkpt lat="46.27574158" lon="7.39888382"><ele>1067</ele><time>2007-05-30T12:35:19Z</time></trkpt>
<trkpt lat="46.27556992" lon="7.39865303"><ele>1064</ele><time>2007-05-30T12:35:21Z</time></trkpt>
<trkpt lat="46.27543640" lon="7.39846849"><ele>1060</ele><time>2007-05-30T12:35:23Z</time></trkpt>
<trkpt lat="46.27533722" lon="7.39833307"><ele>1057</ele><time>2007-05-30T12:35:25Z</time></trkpt>
<trkpt lat="46.27524185" lon="7.39832687"><ele>1055</ele><time>2007-05-30T12:35:28Z</time></trkpt>
<trkpt lat="46.27526855" lon="7.39845800"><ele>1055</ele><time>2007-05-30T12:35:30Z</time></trkpt>
<trkpt lat="46.27544022" lon="7.39879227"><ele>1054</ele><time>2007-05-30T12:35:35Z</time></trkpt>
<trkpt lat="46.27553940" lon="7.39915228"><ele>1053</ele><time>2007-05-30T12:35:39Z</time></trkpt>
<trkpt lat="46.27561951" lon="7.39992571"><ele>1051</ele><time>2007-05-30T12:35:46Z</time></trkpt>
<trkpt lat="46.27580261" lon="7.40033913"><ele>1049</ele><time>2007-05-30T12:35:50Z</time></trkpt>
<trkpt lat="46.27617645" lon="7.40071869"><ele>1047</ele><time>2007-05-30T12:35:55Z</time></trkpt>
<trkpt lat="46.27624512" lon="7.40077209"><ele>1047</ele><time>2007-05-30T12:35:56Z</time></trkpt>
<trkpt lat="46.27629089" lon="7.40094995"><ele>1047</ele><time>2007-05-30T12:35:59Z</time></trkpt>
<trkpt lat="46.27618408" lon="7.40096760"><ele>1046</ele><time>2007-05-30T12:36:01Z</time></trkpt>
<trkpt lat="46.27598190" lon="7.40099239"><ele>1045</ele><time>2007-05-30T12:36:04Z</time></trkpt>
<trkpt lat="46.27591705" lon="7.40115213"><ele>1042</ele><time>2007-05-30T12:36:06Z</time></trkpt>
<trkpt lat="46.27589798" lon="7.40128899"><ele>1040</ele><time>2007-05-30T12:36:08Z</time></trkpt>
<trkpt lat="46.27586746" lon="7.40133667"><ele>1039</ele><time>2007-05-30T12:36:10Z</time></trkpt>
<trkpt lat="46.27583313" lon="7.40137720"><ele>1039</ele><time>2007-05-30T12:36:13Z</time></trkpt>
<trkpt lat="46.27576447" lon="7.40136385"><ele>1038</ele><time>2007-05-30T12:36:17Z</time></trkpt>
<trkpt lat="46.27573395" lon="7.40134478"><ele>1037</ele><time>2007-05-30T12:36:18Z</time></trkpt>
<trkpt lat="46.27545166" lon="7.40119791"><ele>1036</ele><time>2007-05-30T12:36:23Z</time></trkpt>
<trkpt lat="46.27513504" lon="7.40095091"><ele>1033</ele><time>2007-05-30T12:36:27Z</time></trkpt>
<trkpt lat="46.27505112" lon="7.40086079"><ele>1033</ele><time>2007-05-30T12:36:28Z</time></trkpt>
<trkpt lat="46.27471542" lon="7.40044212"><ele>1030</ele><time>2007-05-30T12:36:32Z</time></trkpt>
<trkpt lat="46.27446747" lon="7.40005589"><ele>1025</ele><time>2007-05-30T12:36:35Z</time></trkpt>
<trkpt lat="46.27437592" lon="7.39992666"><ele>1025</ele><time>2007-05-30T12:36:36Z</time></trkpt>
<trkpt lat="46.27398682" lon="7.39944458"><ele>1022</ele><time>2007-05-30T12:36:40Z</time></trkpt>
<trkpt lat="46.27379227" lon="7.39921236"><ele>1020</ele><time>2007-05-30T12:36:42Z</time></trkpt>
<trkpt lat="46.27369308" lon="7.39909601"><ele>1020</ele><time>2007-05-30T12:36:43Z</time></trkpt>
<trkpt lat="46.27333832" lon="7.39857483"><ele>1017</ele><time>2007-05-30T12:36:47Z</time></trkpt>
<trkpt lat="46.27291489" lon="7.39792538"><ele>1013</ele><time>2007-05-30T12:36:52Z</time></trkpt>
<trkpt lat="46.27268982" lon="7.39754295"><ele>1012</ele><time>2007-05-30T12:36:55Z</time></trkpt>
<trkpt lat="46.27228928" lon="7.39667177"><ele>1010</ele><time>2007-05-30T12:37:02Z</time></trkpt>
<trkpt lat="46.27212906" lon="7.39648438"><ele>1009</ele><time>2007-05-30T12:37:05Z</time></trkpt>
<trkpt lat="46.27202988" lon="7.39653635"><ele>1008</ele><time>2007-05-30T12:37:07Z</time></trkpt>
<trkpt lat="46.27194595" lon="7.39678574"><ele>1008</ele><time>2007-05-30T12:37:10Z</time></trkpt>
<trkpt lat="46.27188110" lon="7.39710426"><ele>1006</ele><time>2007-05-30T12:37:13Z</time></trkpt>
<trkpt lat="46.27178955" lon="7.39747000"><ele>1003</ele><time>2007-05-30T12:37:17Z</time></trkpt>
<trkpt lat="46.27187347" lon="7.39774418"><ele>1002</ele><time>2007-05-30T12:37:20Z</time></trkpt>
<trkpt lat="46.27212143" lon="7.39829063"><ele>998</ele><time>2007-05-30T12:37:25Z</time></trkpt>
<trkpt lat="46.27219009" lon="7.39872074"><ele>996</ele><time>2007-05-30T12:37:28Z</time></trkpt>
<trkpt lat="46.27228546" lon="7.39913082"><ele>993</ele><time>2007-05-30T12:37:31Z</time></trkpt>
<trkpt lat="46.27236938" lon="7.39930344"><ele>990</ele><time>2007-05-30T12:37:33Z</time></trkpt>
<trkpt lat="46.27251053" lon="7.39934254"><ele>989</ele><time>2007-05-30T12:37:35Z</time></trkpt>
<trkpt lat="46.27266312" lon="7.39934397"><ele>988</ele><time>2007-05-30T12:37:37Z</time></trkpt>
<trkpt lat="46.27287674" lon="7.39946985"><ele>987</ele><time>2007-05-30T12:37:40Z</time></trkpt>
<trkpt lat="46.27299500" lon="7.39959145"><ele>988</ele><time>2007-05-30T12:37:42Z</time></trkpt>
<trkpt lat="46.27312851" lon="7.39977789"><ele>986</ele><time>2007-05-30T12:37:46Z</time></trkpt>
<trkpt lat="46.27307129" lon="7.39985514"><ele>985</ele><time>2007-05-30T12:37:48Z</time></trkpt>
<trkpt lat="46.27293777" lon="7.39993429"><ele>982</ele><time>2007-05-30T12:37:51Z</time></trkpt>
<trkpt lat="46.27286530" lon="7.39998436"><ele>981</ele><time>2007-05-30T12:37:53Z</time></trkpt>
<trkpt lat="46.27278900" lon="7.40009069"><ele>979</ele><time>2007-05-30T12:37:55Z</time></trkpt>
<trkpt lat="46.27262878" lon="7.40041447"><ele>975</ele><time>2007-05-30T12:37:59Z</time></trkpt>
<trkpt lat="46.27257538" lon="7.40046978"><ele>975</ele><time>2007-05-30T12:38:00Z</time></trkpt>
<trkpt lat="46.27251053" lon="7.40052176"><ele>974</ele><time>2007-05-30T12:38:01Z</time></trkpt>
<trkpt lat="46.27230453" lon="7.40067863"><ele>970</ele><time>2007-05-30T12:38:04Z</time></trkpt>
<trkpt lat="46.27225113" lon="7.40071440"><ele>967</ele><time>2007-05-30T12:38:05Z</time></trkpt>
<trkpt lat="46.27217484" lon="7.40094709"><ele>963</ele><time>2007-05-30T12:38:09Z</time></trkpt>
<trkpt lat="46.27216339" lon="7.40108871"><ele>961</ele><time>2007-05-30T12:38:11Z</time></trkpt>
<trkpt lat="46.27205658" lon="7.40119505"><ele>961</ele><time>2007-05-30T12:38:13Z</time></trkpt>
<trkpt lat="46.27198029" lon="7.40122366"><ele>960</ele><time>2007-05-30T12:38:14Z</time></trkpt>
<trkpt lat="46.27183533" lon="7.40126514"><ele>957</ele><time>2007-05-30T12:38:16Z</time></trkpt>
<trkpt lat="46.27164078" lon="7.40138340"><ele>955</ele><time>2007-05-30T12:38:19Z</time></trkpt>
<trkpt lat="46.27157593" lon="7.40142870"><ele>955</ele><time>2007-05-30T12:38:20Z</time></trkpt>
<trkpt lat="46.27131271" lon="7.40155315"><ele>951</ele><time>2007-05-30T12:38:24Z</time></trkpt>
<trkpt lat="46.27118683" lon="7.40162992"><ele>948</ele><time>2007-05-30T12:38:27Z</time></trkpt>
<trkpt lat="46.27114105" lon="7.40167189"><ele>947</ele><time>2007-05-30T12:38:29Z</time></trkpt>
<trkpt lat="46.27106476" lon="7.40173864"><ele>946</ele><time>2007-05-30T12:38:35Z</time></trkpt>
<trkpt lat="46.27101898" lon="7.40168190"><ele>945</ele><time>2007-05-30T12:38:44Z</time></trkpt>
<trkpt lat="46.27095032" lon="7.40160561"><ele>945</ele><time>2007-05-30T12:38:49Z</time></trkpt>
<trkpt lat="46.27093887" lon="7.40162325"><ele>946</ele><time>2007-05-30T12:38:50Z</time></trkpt>
<trkpt lat="46.27083206" lon="7.40171146"><ele>944</ele><time>2007-05-30T12:38:56Z</time></trkpt>
<trkpt lat="46.27071381" lon="7.40182638"><ele>942</ele><time>2007-05-30T12:39:01Z</time></trkpt>
<trkpt lat="46.27067947" lon="7.40191221"><ele>942</ele><time>2007-05-30T12:39:05Z</time></trkpt>
<trkpt lat="46.27067947" lon="7.40193319"><ele>942</ele><time>2007-05-30T12:39:06Z</time></trkpt>
<trkpt lat="46.27061462" lon="7.40204191"><ele>942</ele><time>2007-05-30T12:39:11Z</time></trkpt>
<trkpt lat="46.27054596" lon="7.40206671"><ele>939</ele><time>2007-05-30T12:39:13Z</time></trkpt>
<trkpt lat="46.27042007" lon="7.40208626"><ele>935</ele><time>2007-05-30T12:39:16Z</time></trkpt>
<trkpt lat="46.27033615" lon="7.40208673"><ele>930</ele><time>2007-05-30T12:39:18Z</time></trkpt>
<trkpt lat="46.27014923" lon="7.40213251"><ele>926</ele><time>2007-05-30T12:39:21Z</time></trkpt>
<trkpt lat="46.26987839" lon="7.40230179"><ele>923</ele><time>2007-05-30T12:39:25Z</time></trkpt>
<trkpt lat="46.26953125" lon="7.40256500"><ele>917</ele><time>2007-05-30T12:39:30Z</time></trkpt>
<trkpt lat="46.26942444" lon="7.40264654"><ele>914</ele><time>2007-05-30T12:39:32Z</time></trkpt>
<trkpt lat="46.26939011" lon="7.40267181"><ele>913</ele><time>2007-05-30T12:39:33Z</time></trkpt>
<trkpt lat="46.26935959" lon="7.40284729"><ele>912</ele><time>2007-05-30T12:39:37Z</time></trkpt>
<trkpt lat="46.26939011" lon="7.40290070"><ele>913</ele><time>2007-05-30T12:39:38Z</time></trkpt>
<trkpt lat="46.26963806" lon="7.40331030"><ele>914</ele><time>2007-05-30T12:39:45Z</time></trkpt>
<trkpt lat="46.26977158" lon="7.40343475"><ele>914</ele><time>2007-05-30T12:39:48Z</time></trkpt>
<trkpt lat="46.27005386" lon="7.40351152"><ele>916</ele><time>2007-05-30T12:39:53Z</time></trkpt>
<trkpt lat="46.27027512" lon="7.40355301"><ele>917</ele><time>2007-05-30T12:39:57Z</time></trkpt>
<trkpt lat="46.27049255" lon="7.40351820"><ele>917</ele><time>2007-05-30T12:40:01Z</time></trkpt>
<trkpt lat="46.27064896" lon="7.40342093"><ele>917</ele><time>2007-05-30T12:40:04Z</time></trkpt>
<trkpt lat="46.27088547" lon="7.40328407"><ele>916</ele><time>2007-05-30T12:40:08Z</time></trkpt>
<trkpt lat="46.27117157" lon="7.40326262"><ele>916</ele><time>2007-05-30T12:40:12Z</time></trkpt>
<trkpt lat="46.27132034" lon="7.40332603"><ele>914</ele><time>2007-05-30T12:40:14Z</time></trkpt>
<trkpt lat="46.27167892" lon="7.40351486"><ele>912</ele><time>2007-05-30T12:40:19Z</time></trkpt>
<trkpt lat="46.27198029" lon="7.40374136"><ele>910</ele><time>2007-05-30T12:40:23Z</time></trkpt>
<trkpt lat="46.27215195" lon="7.40386581"><ele>910</ele><time>2007-05-30T12:40:25Z</time></trkpt>
<trkpt lat="46.27259827" lon="7.40420103"><ele>906</ele><time>2007-05-30T12:40:30Z</time></trkpt>
<trkpt lat="46.27267456" lon="7.40425301"><ele>904</ele><time>2007-05-30T12:40:31Z</time></trkpt>
<trkpt lat="46.27277374" lon="7.40449619"><ele>902</ele><time>2007-05-30T12:40:34Z</time></trkpt>
<trkpt lat="46.27270889" lon="7.40469503"><ele>902</ele><time>2007-05-30T12:40:36Z</time></trkpt>
<trkpt lat="46.27256012" lon="7.40512562"><ele>904</ele><time>2007-05-30T12:40:41Z</time></trkpt>
<trkpt lat="46.27242279" lon="7.40523577"><ele>902</ele><time>2007-05-30T12:40:44Z</time></trkpt>
<trkpt lat="46.27224731" lon="7.40539885"><ele>894</ele><time>2007-05-30T12:40:47Z</time></trkpt>
<trkpt lat="46.27220535" lon="7.40545177"><ele>894</ele><time>2007-05-30T12:40:48Z</time></trkpt>
<trkpt lat="46.27214813" lon="7.40554619"><ele>891</ele><time>2007-05-30T12:40:50Z</time></trkpt>
<trkpt lat="46.27201843" lon="7.40559673"><ele>886</ele><time>2007-05-30T12:40:55Z</time></trkpt>
<trkpt lat="46.27201080" lon="7.40538502"><ele>883</ele><time>2007-05-30T12:40:58Z</time></trkpt>
<trkpt lat="46.27202225" lon="7.40529490"><ele>883</ele><time>2007-05-30T12:40:59Z</time></trkpt>
<trkpt lat="46.27204514" lon="7.40514088"><ele>881</ele><time>2007-05-30T12:41:01Z</time></trkpt>
<trkpt lat="46.27205658" lon="7.40502739"><ele>878</ele><time>2007-05-30T12:41:03Z</time></trkpt>
<trkpt lat="46.27193832" lon="7.40493536"><ele>874</ele><time>2007-05-30T12:41:07Z</time></trkpt>
<trkpt lat="46.27182770" lon="7.40497065"><ele>870</ele><time>2007-05-30T12:41:10Z</time></trkpt>
<trkpt lat="46.27178574" lon="7.40498018"><ele>869</ele><time>2007-05-30T12:41:11Z</time></trkpt>
<trkpt lat="46.27169037" lon="7.40504313"><ele>864</ele><time>2007-05-30T12:41:14Z</time></trkpt>
<trkpt lat="46.27165985" lon="7.40507221"><ele>864</ele><time>2007-05-30T12:41:15Z</time></trkpt>
<trkpt lat="46.27157211" lon="7.40515375"><ele>860</ele><time>2007-05-30T12:41:18Z</time></trkpt>
<trkpt lat="46.27154541" lon="7.40517950"><ele>859</ele><time>2007-05-30T12:41:19Z</time></trkpt>
<trkpt lat="46.27146149" lon="7.40524292"><ele>857</ele><time>2007-05-30T12:41:23Z</time></trkpt>
<trkpt lat="46.27140045" lon="7.40530539"><ele>854</ele><time>2007-05-30T12:41:25Z</time></trkpt>
<trkpt lat="46.27120590" lon="7.40541553"><ele>849</ele><time>2007-05-30T12:41:29Z</time></trkpt>
<trkpt lat="46.27111053" lon="7.40545988"><ele>845</ele><time>2007-05-30T12:41:31Z</time></trkpt>
<trkpt lat="46.27098083" lon="7.40554714"><ele>840</ele><time>2007-05-30T12:41:34Z</time></trkpt>
<trkpt lat="46.27089310" lon="7.40566301"><ele>837</ele><time>2007-05-30T12:41:37Z</time></trkpt>
<trkpt lat="46.27081680" lon="7.40581274"><ele>833</ele><time>2007-05-30T12:41:40Z</time></trkpt>
<trkpt lat="46.27075195" lon="7.40594435"><ele>828</ele><time>2007-05-30T12:41:42Z</time></trkpt>
<trkpt lat="46.27063370" lon="7.40598726"><ele>824</ele><time>2007-05-30T12:41:45Z</time></trkpt>
<trkpt lat="46.27060699" lon="7.40594721"><ele>823</ele><time>2007-05-30T12:41:46Z</time></trkpt>
<trkpt lat="46.27042389" lon="7.40584040"><ele>820</ele><time>2007-05-30T12:41:51Z</time></trkpt>
<trkpt lat="46.27039719" lon="7.40592241"><ele>820</ele><time>2007-05-30T12:41:54Z</time></trkpt>
<trkpt lat="46.27037430" lon="7.40603304"><ele>817</ele><time>2007-05-30T12:41:57Z</time></trkpt>
<trkpt lat="46.27026367" lon="7.40616989"><ele>814</ele><time>2007-05-30T12:42:00Z</time></trkpt>
<trkpt lat="46.27012634" lon="7.40621042"><ele>811</ele><time>2007-05-30T12:42:02Z</time></trkpt>
<trkpt lat="46.26992798" lon="7.40625763"><ele>805</ele><time>2007-05-30T12:42:05Z</time></trkpt>
<trkpt lat="46.26968002" lon="7.40643883"><ele>802</ele><time>2007-05-30T12:42:09Z</time></trkpt>
<trkpt lat="46.26944733" lon="7.40664387"><ele>796</ele><time>2007-05-30T12:42:13Z</time></trkpt>
<trkpt lat="46.26924896" lon="7.40676641"><ele>792</ele><time>2007-05-30T12:42:16Z</time></trkpt>
<trkpt lat="46.26914978" lon="7.40681696"><ele>788</ele><time>2007-05-30T12:42:18Z</time></trkpt>
<trkpt lat="46.26911163" lon="7.40683413"><ele>788</ele><time>2007-05-30T12:42:19Z</time></trkpt>
<trkpt lat="46.26902008" lon="7.40699959"><ele>785</ele><time>2007-05-30T12:42:22Z</time></trkpt>
<trkpt lat="46.26895905" lon="7.40714741"><ele>781</ele><time>2007-05-30T12:42:24Z</time></trkpt>
<trkpt lat="46.26889038" lon="7.40727234"><ele>780</ele><time>2007-05-30T12:42:26Z</time></trkpt>
<trkpt lat="46.26875687" lon="7.40742254"><ele>776</ele><time>2007-05-30T12:42:29Z</time></trkpt>
<trkpt lat="46.26860809" lon="7.40756226"><ele>773</ele><time>2007-05-30T12:42:32Z</time></trkpt>
<trkpt lat="46.26849365" lon="7.40765953"><ele>769</ele><time>2007-05-30T12:42:34Z</time></trkpt>
<trkpt lat="46.26844406" lon="7.40769768"><ele>766</ele><time>2007-05-30T12:42:35Z</time></trkpt>
<trkpt lat="46.26840591" lon="7.40772057"><ele>766</ele><time>2007-05-30T12:42:36Z</time></trkpt>
<trkpt lat="46.26828766" lon="7.40786171"><ele>762</ele><time>2007-05-30T12:42:39Z</time></trkpt>
<trkpt lat="46.26820374" lon="7.40798759"><ele>761</ele><time>2007-05-30T12:42:41Z</time></trkpt>
<trkpt lat="46.26810074" lon="7.40810823"><ele>758</ele><time>2007-05-30T12:42:44Z</time></trkpt>
<trkpt lat="46.26803207" lon="7.40816021"><ele>755</ele><time>2007-05-30T12:42:46Z</time></trkpt>
<trkpt lat="46.26792526" lon="7.40824080"><ele>754</ele><time>2007-05-30T12:42:48Z</time></trkpt>
<trkpt lat="46.26779175" lon="7.40832186"><ele>754</ele><time>2007-05-30T12:42:50Z</time></trkpt>
<trkpt lat="46.26746368" lon="7.40853596"><ele>749</ele><time>2007-05-30T12:42:55Z</time></trkpt>
<trkpt lat="46.26736832" lon="7.40859461"><ele>746</ele><time>2007-05-30T12:42:57Z</time></trkpt>
<trkpt lat="46.26731873" lon="7.40883446"><ele>743</ele><time>2007-05-30T12:43:01Z</time></trkpt>
<trkpt lat="46.26734161" lon="7.40890789"><ele>741</ele><time>2007-05-30T12:43:02Z</time></trkpt>
<trkpt lat="46.26738358" lon="7.40901899"><ele>738</ele><time>2007-05-30T12:43:04Z</time></trkpt>
<trkpt lat="46.26739883" lon="7.40916348"><ele>737</ele><time>2007-05-30T12:43:06Z</time></trkpt>
<trkpt lat="46.26739120" lon="7.40947485"><ele>736</ele><time>2007-05-30T12:43:09Z</time></trkpt>
<trkpt lat="46.26745605" lon="7.40976143"><ele>733</ele><time>2007-05-30T12:43:13Z</time></trkpt>
<trkpt lat="46.26747513" lon="7.40979862"><ele>732</ele><time>2007-05-30T12:43:14Z</time></trkpt>
<trkpt lat="46.26739502" lon="7.40993690"><ele>730</ele><time>2007-05-30T12:43:18Z</time></trkpt>
<trkpt lat="46.26720810" lon="7.40988827"><ele>728</ele><time>2007-05-30T12:43:21Z</time></trkpt>
<trkpt lat="46.26714706" lon="7.40982056"><ele>728</ele><time>2007-05-30T12:43:22Z</time></trkpt>
<trkpt lat="46.26703644" lon="7.40966749"><ele>727</ele><time>2007-05-30T12:43:24Z</time></trkpt>
<trkpt lat="46.26689529" lon="7.40932131"><ele>724</ele><time>2007-05-30T12:43:28Z</time></trkpt>
<trkpt lat="46.26689529" lon="7.40898752"><ele>723</ele><time>2007-05-30T12:43:31Z</time></trkpt>
<trkpt lat="46.26688766" lon="7.40886879"><ele>722</ele><time>2007-05-30T12:43:32Z</time></trkpt>
<trkpt lat="46.26683044" lon="7.40794516"><ele>720</ele><time>2007-05-30T12:43:39Z</time></trkpt>
<trkpt lat="46.26681137" lon="7.40739393"><ele>718</ele><time>2007-05-30T12:43:43Z</time></trkpt>
<trkpt lat="46.26667023" lon="7.40705919"><ele>716</ele><time>2007-05-30T12:43:46Z</time></trkpt>
<trkpt lat="46.26648331" lon="7.40696526"><ele>714</ele><time>2007-05-30T12:43:48Z</time></trkpt>
<trkpt lat="46.26607513" lon="7.40689182"><ele>711</ele><time>2007-05-30T12:43:52Z</time></trkpt>
<trkpt lat="46.26568604" lon="7.40670156"><ele>707</ele><time>2007-05-30T12:43:56Z</time></trkpt>
<trkpt lat="46.26539230" lon="7.40645599"><ele>705</ele><time>2007-05-30T12:43:59Z</time></trkpt>
<trkpt lat="46.26496887" lon="7.40609312"><ele>702</ele><time>2007-05-30T12:44:03Z</time></trkpt>
<trkpt lat="46.26472092" lon="7.40596485"><ele>700</ele><time>2007-05-30T12:44:05Z</time></trkpt>
<trkpt lat="46.26446915" lon="7.40593529"><ele>696</ele><time>2007-05-30T12:44:07Z</time></trkpt>
<trkpt lat="46.26409149" lon="7.40576506"><ele>690</ele><time>2007-05-30T12:44:11Z</time></trkpt>
<trkpt lat="46.26401901" lon="7.40565681"><ele>690</ele><time>2007-05-30T12:44:12Z</time></trkpt>
<trkpt lat="46.26386642" lon="7.40542412"><ele>688</ele><time>2007-05-30T12:44:14Z</time></trkpt>
<trkpt lat="46.26368332" lon="7.40525770"><ele>687</ele><time>2007-05-30T12:44:16Z</time></trkpt>
<trkpt lat="46.26350021" lon="7.40517569"><ele>685</ele><time>2007-05-30T12:44:18Z</time></trkpt>
<trkpt lat="46.26333237" lon="7.40518475"><ele>683</ele><time>2007-05-30T12:44:21Z</time></trkpt>
<trkpt lat="46.26335526" lon="7.40531397"><ele>681</ele><time>2007-05-30T12:44:23Z</time></trkpt>
<trkpt lat="46.26340485" lon="7.40534258"><ele>682</ele><time>2007-05-30T12:44:24Z</time></trkpt>
<trkpt lat="46.26352310" lon="7.40536690"><ele>682</ele><time>2007-05-30T12:44:26Z</time></trkpt>
<trkpt lat="46.26373672" lon="7.40554619"><ele>678</ele><time>2007-05-30T12:44:30Z</time></trkpt>
<trkpt lat="46.26384354" lon="7.40582514"><ele>678</ele><time>2007-05-30T12:44:33Z</time></trkpt>
<trkpt lat="46.26383591" lon="7.40619850"><ele>678</ele><time>2007-05-30T12:44:36Z</time></trkpt>
<trkpt lat="46.26380157" lon="7.40632153"><ele>677</ele><time>2007-05-30T12:44:37Z</time></trkpt>
<trkpt lat="46.26365662" lon="7.40668917"><ele>675</ele><time>2007-05-30T12:44:40Z</time></trkpt>
<trkpt lat="46.26360703" lon="7.40680456"><ele>674</ele><time>2007-05-30T12:44:41Z</time></trkpt>
<trkpt lat="46.26358032" lon="7.40711880"><ele>670</ele><time>2007-05-30T12:44:44Z</time></trkpt>
<trkpt lat="46.26369476" lon="7.40726900"><ele>669</ele><time>2007-05-30T12:44:46Z</time></trkpt>
<trkpt lat="46.26386261" lon="7.40726471"><ele>668</ele><time>2007-05-30T12:44:48Z</time></trkpt>
<trkpt lat="46.26395035" lon="7.40723133"><ele>668</ele><time>2007-05-30T12:44:49Z</time></trkpt>
<trkpt lat="46.26452255" lon="7.40699816"><ele>666</ele><time>2007-05-30T12:44:55Z</time></trkpt>
<trkpt lat="46.26484680" lon="7.40707159"><ele>662</ele><time>2007-05-30T12:44:58Z</time></trkpt>
<trkpt lat="46.26494217" lon="7.40716505"><ele>661</ele><time>2007-05-30T12:44:59Z</time></trkpt>
<trkpt lat="46.26532364" lon="7.40761423"><ele>657</ele><time>2007-05-30T12:45:03Z</time></trkpt>
<trkpt lat="46.26552200" lon="7.40808105"><ele>655</ele><time>2007-05-30T12:45:06Z</time></trkpt>
<trkpt lat="46.26556778" lon="7.40824175"><ele>654</ele><time>2007-05-30T12:45:07Z</time></trkpt>
<trkpt lat="46.26561737" lon="7.40853834"><ele>652</ele><time>2007-05-30T12:45:09Z</time></trkpt>
<trkpt lat="46.26553726" lon="7.40880108"><ele>651</ele><time>2007-05-30T12:45:11Z</time></trkpt>
<trkpt lat="46.26536179" lon="7.40894699"><ele>650</ele><time>2007-05-30T12:45:13Z</time></trkpt>
<trkpt lat="46.26512527" lon="7.40918922"><ele>648</ele><time>2007-05-30T12:45:16Z</time></trkpt>
<trkpt lat="46.26502991" lon="7.40944481"><ele>647</ele><time>2007-05-30T12:45:18Z</time></trkpt>
<trkpt lat="46.26496887" lon="7.40955830"><ele>645</ele><time>2007-05-30T12:45:19Z</time></trkpt>
<trkpt lat="46.26459885" lon="7.41005564"><ele>643</ele><time>2007-05-30T12:45:24Z</time></trkpt>
<trkpt lat="46.26446915" lon="7.41028690"><ele>642</ele><time>2007-05-30T12:45:26Z</time></trkpt>
<trkpt lat="46.26432800" lon="7.41066551"><ele>640</ele><time>2007-05-30T12:45:29Z</time></trkpt>
<trkpt lat="46.26431656" lon="7.41105223"><ele>637</ele><time>2007-05-30T12:45:32Z</time></trkpt>
<trkpt lat="46.26435852" lon="7.41118193"><ele>637</ele><time>2007-05-30T12:45:33Z</time></trkpt>
<trkpt lat="46.26439667" lon="7.41160774"><ele>635</ele><time>2007-05-30T12:45:36Z</time></trkpt>
<trkpt lat="46.26429367" lon="7.41186523"><ele>634</ele><time>2007-05-30T12:45:38Z</time></trkpt>
<trkpt lat="46.26407242" lon="7.41215706"><ele>633</ele><time>2007-05-30T12:45:41Z</time></trkpt>
<trkpt lat="46.26401901" lon="7.41227341"><ele>633</ele><time>2007-05-30T12:45:42Z</time></trkpt>
<trkpt lat="46.26397324" lon="7.41255283"><ele>631</ele><time>2007-05-30T12:45:44Z</time></trkpt>
<trkpt lat="46.26395035" lon="7.41299963"><ele>629</ele><time>2007-05-30T12:45:47Z</time></trkpt>
<trkpt lat="46.26396942" lon="7.41325378"><ele>628</ele><time>2007-05-30T12:45:49Z</time></trkpt>
<trkpt lat="46.26391983" lon="7.41345406"><ele>625</ele><time>2007-05-30T12:45:52Z</time></trkpt>
<trkpt lat="46.26385880" lon="7.41337824"><ele>625</ele><time>2007-05-30T12:45:54Z</time></trkpt>
<trkpt lat="46.26385498" lon="7.41330481"><ele>624</ele><time>2007-05-30T12:45:55Z</time></trkpt>
<trkpt lat="46.26385880" lon="7.41313887"><ele>623</ele><time>2007-05-30T12:45:57Z</time></trkpt>
<trkpt lat="46.26385880" lon="7.41304684"><ele>622</ele><time>2007-05-30T12:45:58Z</time></trkpt>
<trkpt lat="46.26374817" lon="7.41250610"><ele>620</ele><time>2007-05-30T12:46:03Z</time></trkpt>
<trkpt lat="46.26374054" lon="7.41212797"><ele>617</ele><time>2007-05-30T12:46:06Z</time></trkpt>
<trkpt lat="46.26385498" lon="7.41156149"><ele>614</ele><time>2007-05-30T12:46:10Z</time></trkpt>
<trkpt lat="46.26384735" lon="7.41109180"><ele>611</ele><time>2007-05-30T12:46:13Z</time></trkpt>
<trkpt lat="46.26391602" lon="7.41078281"><ele>608</ele><time>2007-05-30T12:46:15Z</time></trkpt>
<trkpt lat="46.26394272" lon="7.41019726"><ele>604</ele><time>2007-05-30T12:46:19Z</time></trkpt>
<trkpt lat="46.26387024" lon="7.41007185"><ele>604</ele><time>2007-05-30T12:46:20Z</time></trkpt>
<trkpt lat="46.26377869" lon="7.40996599"><ele>604</ele><time>2007-05-30T12:46:21Z</time></trkpt>
<trkpt lat="46.26336288" lon="7.40956831"><ele>599</ele><time>2007-05-30T12:46:25Z</time></trkpt>
<trkpt lat="46.26325226" lon="7.40946960"><ele>597</ele><time>2007-05-30T12:46:26Z</time></trkpt>
<trkpt lat="46.26301575" lon="7.40934038"><ele>595</ele><time>2007-05-30T12:46:28Z</time></trkpt>
<trkpt lat="46.26274872" lon="7.40932560"><ele>592</ele><time>2007-05-30T12:46:30Z</time></trkpt>
<trkpt lat="46.26234436" lon="7.40940952"><ele>591</ele><time>2007-05-30T12:46:33Z</time></trkpt>
<trkpt lat="46.26211166" lon="7.40955591"><ele>587</ele><time>2007-05-30T12:46:35Z</time></trkpt>
<trkpt lat="46.26191330" lon="7.40964937"><ele>586</ele><time>2007-05-30T12:46:37Z</time></trkpt>
<trkpt lat="46.26174927" lon="7.40960646"><ele>582</ele><time>2007-05-30T12:46:39Z</time></trkpt>
<trkpt lat="46.26163864" lon="7.40960503"><ele>579</ele><time>2007-05-30T12:46:41Z</time></trkpt>
<trkpt lat="46.26161957" lon="7.40966415"><ele>579</ele><time>2007-05-30T12:46:42Z</time></trkpt>
<trkpt lat="46.26168060" lon="7.40976620"><ele>579</ele><time>2007-05-30T12:46:44Z</time></trkpt>
<trkpt lat="46.26187134" lon="7.40977526"><ele>578</ele><time>2007-05-30T12:46:47Z</time></trkpt>
<trkpt lat="46.26211929" lon="7.40979862"><ele>576</ele><time>2007-05-30T12:46:50Z</time></trkpt>
<trkpt lat="46.26229477" lon="7.40989065"><ele>575</ele><time>2007-05-30T12:46:52Z</time></trkpt>
<trkpt lat="46.26250076" lon="7.41020584"><ele>573</ele><time>2007-05-30T12:46:55Z</time></trkpt>
<trkpt lat="46.26255035" lon="7.41062880"><ele>570</ele><time>2007-05-30T12:46:58Z</time></trkpt>
<trkpt lat="46.26248932" lon="7.41091537"><ele>568</ele><time>2007-05-30T12:47:00Z</time></trkpt>
<trkpt lat="46.26239395" lon="7.41119480"><ele>566</ele><time>2007-05-30T12:47:02Z</time></trkpt>
<trkpt lat="46.26228714" lon="7.41147470"><ele>564</ele><time>2007-05-30T12:47:04Z</time></trkpt>
<trkpt lat="46.26213837" lon="7.41185522"><ele>561</ele><time>2007-05-30T12:47:07Z</time></trkpt>
<trkpt lat="46.26193619" lon="7.41208458"><ele>560</ele><time>2007-05-30T12:47:10Z</time></trkpt>
<trkpt lat="46.26174545" lon="7.41207838"><ele>557</ele><time>2007-05-30T12:47:12Z</time></trkpt>
<trkpt lat="46.26155853" lon="7.41194534"><ele>555</ele><time>2007-05-30T12:47:14Z</time></trkpt>
<trkpt lat="46.26136780" lon="7.41176128"><ele>553</ele><time>2007-05-30T12:47:16Z</time></trkpt>
<trkpt lat="46.26108932" lon="7.41140413"><ele>550</ele><time>2007-05-30T12:47:19Z</time></trkpt>
<trkpt lat="46.26076889" lon="7.41114235"><ele>545</ele><time>2007-05-30T12:47:22Z</time></trkpt>
<trkpt lat="46.26051712" lon="7.41112709"><ele>542</ele><time>2007-05-30T12:47:24Z</time></trkpt>
<trkpt lat="46.26028824" lon="7.41125011"><ele>539</ele><time>2007-05-30T12:47:26Z</time></trkpt>
<trkpt lat="46.26018906" lon="7.41134501"><ele>537</ele><time>2007-05-30T12:47:27Z</time></trkpt>
<trkpt lat="46.25978088" lon="7.41164494"><ele>534</ele><time>2007-05-30T12:47:31Z</time></trkpt>
<trkpt lat="46.25966644" lon="7.41164160"><ele>534</ele><time>2007-05-30T12:47:32Z</time></trkpt>
<trkpt lat="46.25932693" lon="7.41161251"><ele>532</ele><time>2007-05-30T12:47:35Z</time></trkpt>
<trkpt lat="46.25913239" lon="7.41170263"><ele>532</ele><time>2007-05-30T12:47:37Z</time></trkpt>
<trkpt lat="46.25872421" lon="7.41197538"><ele>531</ele><time>2007-05-30T12:47:42Z</time></trkpt>
<trkpt lat="46.25830460" lon="7.41222477"><ele>530</ele><time>2007-05-30T12:47:48Z</time></trkpt>
<trkpt lat="46.25800705" lon="7.41246223"><ele>528</ele><time>2007-05-30T12:47:53Z</time></trkpt>
<trkpt lat="46.25794220" lon="7.41250610"><ele>528</ele><time>2007-05-30T12:47:54Z</time></trkpt>
<trkpt lat="46.25773239" lon="7.41264296"><ele>526</ele><time>2007-05-30T12:47:57Z</time></trkpt>
<trkpt lat="46.25745010" lon="7.41287422"><ele>526</ele><time>2007-05-30T12:48:01Z</time></trkpt>
<trkpt lat="46.25724030" lon="7.41300583"><ele>526</ele><time>2007-05-30T12:48:04Z</time></trkpt>
<trkpt lat="46.25681686" lon="7.41311073"><ele>525</ele><time>2007-05-30T12:48:10Z</time></trkpt>
<trkpt lat="46.25656128" lon="7.41326284"><ele>525</ele><time>2007-05-30T12:48:14Z</time></trkpt>
<trkpt lat="46.25650787" lon="7.41332674"><ele>524</ele><time>2007-05-30T12:48:15Z</time></trkpt>
<trkpt lat="46.25612640" lon="7.41379309"><ele>525</ele><time>2007-05-30T12:48:22Z</time></trkpt>
<trkpt lat="46.25590897" lon="7.41406631"><ele>524</ele><time>2007-05-30T12:48:26Z</time></trkpt>
<trkpt lat="46.25562668" lon="7.41442156"><ele>522</ele><time>2007-05-30T12:48:31Z</time></trkpt>
<trkpt lat="46.25546265" lon="7.41462898"><ele>522</ele><time>2007-05-30T12:48:34Z</time></trkpt>
<trkpt lat="46.25529861" lon="7.41485643"><ele>523</ele><time>2007-05-30T12:48:37Z</time></trkpt>
<trkpt lat="46.25512695" lon="7.41536283"><ele>522</ele><time>2007-05-30T12:48:42Z</time></trkpt>
<trkpt lat="46.25510406" lon="7.41559601"><ele>522</ele><time>2007-05-30T12:48:44Z</time></trkpt>
<trkpt lat="46.25510025" lon="7.41595030"><ele>521</ele><time>2007-05-30T12:48:47Z</time></trkpt>
<trkpt lat="46.25495911" lon="7.41634274"><ele>520</ele><time>2007-05-30T12:48:51Z</time></trkpt>
<trkpt lat="46.25462723" lon="7.41681767"><ele>519</ele><time>2007-05-30T12:48:57Z</time></trkpt>
<trkpt lat="46.25435257" lon="7.41718102"><ele>517</ele><time>2007-05-30T12:49:02Z</time></trkpt>
<trkpt lat="46.25425339" lon="7.41731834"><ele>517</ele><time>2007-05-30T12:49:04Z</time></trkpt>
<trkpt lat="46.25425339" lon="7.41721058"><ele>515</ele><time>2007-05-30T12:49:07Z</time></trkpt>
<trkpt lat="46.25416946" lon="7.41722965"><ele>516</ele><time>2007-05-30T12:49:10Z</time></trkpt>
<trkpt lat="46.25402832" lon="7.41705608"><ele>516</ele><time>2007-05-30T12:49:14Z</time></trkpt>
<trkpt lat="46.25394821" lon="7.41682434"><ele>518</ele><time>2007-05-30T12:49:17Z</time></trkpt>
<trkpt lat="46.25384903" lon="7.41657877"><ele>519</ele><time>2007-05-30T12:49:21Z</time></trkpt>
<trkpt lat="46.25374222" lon="7.41624594"><ele>518</ele><time>2007-05-30T12:49:26Z</time></trkpt>
<trkpt lat="46.25360870" lon="7.41580105"><ele>518</ele><time>2007-05-30T12:49:31Z</time></trkpt>
<trkpt lat="46.25351334" lon="7.41552019"><ele>515</ele><time>2007-05-30T12:49:34Z</time></trkpt>
<trkpt lat="46.25338364" lon="7.41535807"><ele>515</ele><time>2007-05-30T12:49:37Z</time></trkpt>
<trkpt lat="46.25324631" lon="7.41540098"><ele>515</ele><time>2007-05-30T12:49:39Z</time></trkpt>
<trkpt lat="46.25309753" lon="7.41546583"><ele>514</ele><time>2007-05-30T12:49:41Z</time></trkpt>
<trkpt lat="46.25279617" lon="7.41561317"><ele>514</ele><time>2007-05-30T12:49:45Z</time></trkpt>
<trkpt lat="46.25216293" lon="7.41587067"><ele>515</ele><time>2007-05-30T12:49:54Z</time></trkpt>
<trkpt lat="46.25136566" lon="7.41620922"><ele>515</ele><time>2007-05-30T12:50:05Z</time></trkpt>
<trkpt lat="46.25075150" lon="7.41646481"><ele>512</ele><time>2007-05-30T12:50:13Z</time></trkpt>
<trkpt lat="46.25050735" lon="7.41656637"><ele>511</ele><time>2007-05-30T12:50:16Z</time></trkpt>
<trkpt lat="46.25037003" lon="7.41675282"><ele>511</ele><time>2007-05-30T12:50:19Z</time></trkpt>
<trkpt lat="46.25038528" lon="7.41706371"><ele>511</ele><time>2007-05-30T12:50:22Z</time></trkpt>
<trkpt lat="46.25055313" lon="7.41768885"><ele>514</ele><time>2007-05-30T12:50:29Z</time></trkpt>
<trkpt lat="46.25054550" lon="7.41798782"><ele>514</ele><time>2007-05-30T12:50:33Z</time></trkpt>
<trkpt lat="46.25041580" lon="7.41808653"><ele>514</ele><time>2007-05-30T12:50:36Z</time></trkpt>
<trkpt lat="46.25004196" lon="7.41828537"><ele>515</ele><time>2007-05-30T12:50:42Z</time></trkpt>
<trkpt lat="46.24963379" lon="7.41850042"><ele>515</ele><time>2007-05-30T12:50:48Z</time></trkpt>
<trkpt lat="46.24928665" lon="7.41868782"><ele>513</ele><time>2007-05-30T12:50:53Z</time></trkpt>
<trkpt lat="46.24878311" lon="7.41895866"><ele>513</ele><time>2007-05-30T12:51:00Z</time></trkpt>
<trkpt lat="46.24796295" lon="7.41938353"><ele>513</ele><time>2007-05-30T12:51:11Z</time></trkpt>
<trkpt lat="46.24717331" lon="7.41977358"><ele>513</ele><time>2007-05-30T12:51:21Z</time></trkpt>
<trkpt lat="46.24629593" lon="7.42020702"><ele>511</ele><time>2007-05-30T12:51:32Z</time></trkpt>
<trkpt lat="46.24558258" lon="7.42056799"><ele>511</ele><time>2007-05-30T12:51:41Z</time></trkpt>
<trkpt lat="46.24498367" lon="7.42083216"><ele>510</ele><time>2007-05-30T12:51:49Z</time></trkpt>
<trkpt lat="46.24411774" lon="7.42124748"><ele>509</ele><time>2007-05-30T12:52:00Z</time></trkpt>
<trkpt lat="46.24344635" lon="7.42159700"><ele>510</ele><time>2007-05-30T12:52:09Z</time></trkpt>
<trkpt lat="46.24294662" lon="7.42197037"><ele>511</ele><time>2007-05-30T12:52:17Z</time></trkpt>
<trkpt lat="46.24266815" lon="7.42214060"><ele>511</ele><time>2007-05-30T12:52:22Z</time></trkpt>
<trkpt lat="46.24261475" lon="7.42215776"><ele>511</ele><time>2007-05-30T12:52:23Z</time></trkpt>
<trkpt lat="46.24232483" lon="7.42212200"><ele>511</ele><time>2007-05-30T12:52:28Z</time></trkpt>
<trkpt lat="46.24220657" lon="7.42204332"><ele>512</ele><time>2007-05-30T12:52:30Z</time></trkpt>
<trkpt lat="46.24203491" lon="7.42181730"><ele>513</ele><time>2007-05-30T12:52:34Z</time></trkpt>
<trkpt lat="46.24200439" lon="7.42174673"><ele>513</ele><time>2007-05-30T12:52:35Z</time></trkpt>
<trkpt lat="46.24185944" lon="7.42131567"><ele>513</ele><time>2007-05-30T12:52:41Z</time></trkpt>
<trkpt lat="46.24168777" lon="7.42116785"><ele>513</ele><time>2007-05-30T12:52:45Z</time></trkpt>
<trkpt lat="46.24155426" lon="7.42123365"><ele>513</ele><time>2007-05-30T12:52:48Z</time></trkpt>
<trkpt lat="46.24121094" lon="7.42164660"><ele>513</ele><time>2007-05-30T12:52:59Z</time></trkpt>
<trkpt lat="46.24095917" lon="7.42194414"><ele>513</ele><time>2007-05-30T12:53:07Z</time></trkpt>
<trkpt lat="46.24085999" lon="7.42204952"><ele>513</ele><time>2007-05-30T12:53:10Z</time></trkpt>
<trkpt lat="46.24074936" lon="7.42199945"><ele>512</ele><time>2007-05-30T12:53:13Z</time></trkpt>
<trkpt lat="46.24072266" lon="7.42185259"><ele>512</ele><time>2007-05-30T12:53:15Z</time></trkpt>
<trkpt lat="46.24063110" lon="7.42143774"><ele>511</ele><time>2007-05-30T12:53:20Z</time></trkpt>
<trkpt lat="46.24034119" lon="7.42085314"><ele>511</ele><time>2007-05-30T12:53:27Z</time></trkpt>
<trkpt lat="46.24009323" lon="7.42018557"><ele>512</ele><time>2007-05-30T12:53:34Z</time></trkpt>
<trkpt lat="46.23990250" lon="7.41947556"><ele>510</ele><time>2007-05-30T12:53:41Z</time></trkpt>
<trkpt lat="46.23976517" lon="7.41881990"><ele>511</ele><time>2007-05-30T12:53:47Z</time></trkpt>
<trkpt lat="46.23961639" lon="7.41782570"><ele>510</ele><time>2007-05-30T12:53:56Z</time></trkpt>
<trkpt lat="46.23952103" lon="7.41694927"><ele>510</ele><time>2007-05-30T12:54:04Z</time></trkpt>
<trkpt lat="46.23951721" lon="7.41639423"><ele>510</ele><time>2007-05-30T12:54:09Z</time></trkpt>
<trkpt lat="46.23952866" lon="7.41617060"><ele>511</ele><time>2007-05-30T12:54:11Z</time></trkpt>
<trkpt lat="46.23955917" lon="7.41562080"><ele>510</ele><time>2007-05-30T12:54:16Z</time></trkpt>
<trkpt lat="46.23962784" lon="7.41497469"><ele>510</ele><time>2007-05-30T12:54:22Z</time></trkpt>
<trkpt lat="46.23978043" lon="7.41413021"><ele>509</ele><time>2007-05-30T12:54:30Z</time></trkpt>
<trkpt lat="46.23998260" lon="7.41332245"><ele>509</ele><time>2007-05-30T12:54:38Z</time></trkpt>
<trkpt lat="46.24020767" lon="7.41259909"><ele>508</ele><time>2007-05-30T12:54:45Z</time></trkpt>
<trkpt lat="46.24044800" lon="7.41192579"><ele>509</ele><time>2007-05-30T12:54:52Z</time></trkpt>
<trkpt lat="46.24074554" lon="7.41130829"><ele>508</ele><time>2007-05-30T12:54:59Z</time></trkpt>
<trkpt lat="46.24109650" lon="7.41077232"><ele>508</ele><time>2007-05-30T12:55:06Z</time></trkpt>
<trkpt lat="46.24145508" lon="7.41022539"><ele>507</ele><time>2007-05-30T12:55:13Z</time></trkpt>
<trkpt lat="46.24170685" lon="7.40969372"><ele>508</ele><time>2007-05-30T12:55:19Z</time></trkpt>
<trkpt lat="46.24193573" lon="7.40915346"><ele>508</ele><time>2007-05-30T12:55:25Z</time></trkpt>
<trkpt lat="46.24242783" lon="7.40823507"><ele>508</ele><time>2007-05-30T12:55:36Z</time></trkpt>
<trkpt lat="46.24273300" lon="7.40765095"><ele>507</ele><time>2007-05-30T12:55:43Z</time></trkpt>
<trkpt lat="46.24302673" lon="7.40706253"><ele>505</ele><time>2007-05-30T12:55:49Z</time></trkpt>
<trkpt lat="46.24308014" lon="7.40695381"><ele>505</ele><time>2007-05-30T12:55:50Z</time></trkpt>
<trkpt lat="46.24340057" lon="7.40635252"><ele>504</ele><time>2007-05-30T12:55:56Z</time></trkpt>
<trkpt lat="46.24351883" lon="7.40606022"><ele>506</ele><time>2007-05-30T12:55:59Z</time></trkpt>
<trkpt lat="46.24374008" lon="7.40552282"><ele>508</ele><time>2007-05-30T12:56:05Z</time></trkpt>
<trkpt lat="46.24383163" lon="7.40497112"><ele>508</ele><time>2007-05-30T12:56:11Z</time></trkpt>
<trkpt lat="46.24391937" lon="7.40417862"><ele>506</ele><time>2007-05-30T12:56:19Z</time></trkpt>
<trkpt lat="46.24398804" lon="7.40352488"><ele>506</ele><time>2007-05-30T12:56:26Z</time></trkpt>
<trkpt lat="46.24404526" lon="7.40298843"><ele>506</ele><time>2007-05-30T12:56:32Z</time></trkpt>
<trkpt lat="46.24411011" lon="7.40200806"><ele>506</ele><time>2007-05-30T12:56:42Z</time></trkpt>
<trkpt lat="46.24416351" lon="7.40098524"><ele>506</ele><time>2007-05-30T12:56:52Z</time></trkpt>
<trkpt lat="46.24422073" lon="7.40003681"><ele>506</ele><time>2007-05-30T12:57:01Z</time></trkpt>
<trkpt lat="46.24429703" lon="7.39889526"><ele>505</ele><time>2007-05-30T12:57:12Z</time></trkpt>
<trkpt lat="46.24434280" lon="7.39797544"><ele>505</ele><time>2007-05-30T12:57:21Z</time></trkpt>
<trkpt lat="46.24434280" lon="7.39714384"><ele>505</ele><time>2007-05-30T12:57:29Z</time></trkpt>
<trkpt lat="46.24433899" lon="7.39631605"><ele>505</ele><time>2007-05-30T12:57:37Z</time></trkpt>
<trkpt lat="46.24433136" lon="7.39526224"><ele>505</ele><time>2007-05-30T12:57:47Z</time></trkpt>
<trkpt lat="46.24432755" lon="7.39445591"><ele>505</ele><time>2007-05-30T12:57:55Z</time></trkpt>
<trkpt lat="46.24435043" lon="7.39338160"><ele>504</ele><time>2007-05-30T12:58:05Z</time></trkpt>
<trkpt lat="46.24443436" lon="7.39249659"><ele>503</ele><time>2007-05-30T12:58:13Z</time></trkpt>
<trkpt lat="46.24447632" lon="7.39162731"><ele>504</ele><time>2007-05-30T12:58:21Z</time></trkpt>
<trkpt lat="46.24450302" lon="7.39080000"><ele>504</ele><time>2007-05-30T12:58:29Z</time></trkpt>
<trkpt lat="46.24452591" lon="7.38989019"><ele>503</ele><time>2007-05-30T12:58:38Z</time></trkpt>
<trkpt lat="46.24454880" lon="7.38908291"><ele>504</ele><time>2007-05-30T12:58:46Z</time></trkpt>
<trkpt lat="46.24455261" lon="7.38842869"><ele>504</ele><time>2007-05-30T12:58:53Z</time></trkpt>
<trkpt lat="46.24451447" lon="7.38750601"><ele>504</ele><time>2007-05-30T12:59:02Z</time></trkpt>
<trkpt lat="46.24441910" lon="7.38645172"><ele>504</ele><time>2007-05-30T12:59:12Z</time></trkpt>
<trkpt lat="46.24430466" lon="7.38537550"><ele>503</ele><time>2007-05-30T12:59:22Z</time></trkpt>
<trkpt lat="46.24417877" lon="7.38428497"><ele>503</ele><time>2007-05-30T12:59:32Z</time></trkpt>
<trkpt lat="46.24404907" lon="7.38366365"><ele>503</ele><time>2007-05-30T12:59:38Z</time></trkpt>
<trkpt lat="46.24398804" lon="7.38347197"><ele>503</ele><time>2007-05-30T12:59:40Z</time></trkpt>
<trkpt lat="46.24393463" lon="7.38327646"><ele>503</ele><time>2007-05-30T12:59:42Z</time></trkpt>
<trkpt lat="46.24372101" lon="7.38300800"><ele>504</ele><time>2007-05-30T12:59:46Z</time></trkpt>
<trkpt lat="46.24363708" lon="7.38262701"><ele>502</ele><time>2007-05-30T12:59:51Z</time></trkpt>
<trkpt lat="46.24354172" lon="7.38207769"><ele>502</ele><time>2007-05-30T12:59:56Z</time></trkpt>
<trkpt lat="46.24320602" lon="7.38132238"><ele>503</ele><time>2007-05-30T13:00:04Z</time></trkpt>
<trkpt lat="46.24276352" lon="7.38048029"><ele>503</ele><time>2007-05-30T13:00:14Z</time></trkpt>
<trkpt lat="46.24237061" lon="7.37998533"><ele>503</ele><time>2007-05-30T13:00:21Z</time></trkpt>
<trkpt lat="46.24193573" lon="7.37947559"><ele>503</ele><time>2007-05-30T13:00:29Z</time></trkpt>
<trkpt lat="46.24155045" lon="7.37900829"><ele>502</ele><time>2007-05-30T13:00:37Z</time></trkpt>
<trkpt lat="46.24110794" lon="7.37853670"><ele>501</ele><time>2007-05-30T13:00:46Z</time></trkpt>
<trkpt lat="46.24058151" lon="7.37801218"><ele>501</ele><time>2007-05-30T13:00:56Z</time></trkpt>
<trkpt lat="46.24021530" lon="7.37762976"><ele>501</ele><time>2007-05-30T13:01:03Z</time></trkpt>
<trkpt lat="46.23968124" lon="7.37708092"><ele>501</ele><time>2007-05-30T13:01:13Z</time></trkpt>
<trkpt lat="46.23907089" lon="7.37644291"><ele>500</ele><time>2007-05-30T13:01:25Z</time></trkpt>
<trkpt lat="46.23878479" lon="7.37620592"><ele>500</ele><time>2007-05-30T13:01:31Z</time></trkpt>
<trkpt lat="46.23850250" lon="7.37595129"><ele>499</ele><time>2007-05-30T13:01:36Z</time></trkpt>
<trkpt lat="46.23818207" lon="7.37559938"><ele>499</ele><time>2007-05-30T13:01:42Z</time></trkpt>
<trkpt lat="46.23762131" lon="7.37497854"><ele>498</ele><time>2007-05-30T13:01:53Z</time></trkpt>
<trkpt lat="46.23754501" lon="7.37488890"><ele>498</ele><time>2007-05-30T13:01:55Z</time></trkpt>
<trkpt lat="46.23735809" lon="7.37473440"><ele>498</ele><time>2007-05-30T13:01:58Z</time></trkpt>
<trkpt lat="46.23699188" lon="7.37427139"><ele>498</ele><time>2007-05-30T13:02:06Z</time></trkpt>
<trkpt lat="46.23680496" lon="7.37407207"><ele>497</ele><time>2007-05-30T13:02:10Z</time></trkpt>
<trkpt lat="46.23666000" lon="7.37384796"><ele>498</ele><time>2007-05-30T13:02:14Z</time></trkpt>
<trkpt lat="46.23633194" lon="7.37336779"><ele>499</ele><time>2007-05-30T13:02:22Z</time></trkpt>
<trkpt lat="46.23582077" lon="7.37273073"><ele>498</ele><time>2007-05-30T13:02:33Z</time></trkpt>
<trkpt lat="46.23536682" lon="7.37231493"><ele>498</ele><time>2007-05-30T13:02:41Z</time></trkpt>
<trkpt lat="46.23524857" lon="7.37222195"><ele>497</ele><time>2007-05-30T13:02:43Z</time></trkpt>
<trkpt lat="46.23493576" lon="7.37202454"><ele>498</ele><time>2007-05-30T13:02:48Z</time></trkpt>
<trkpt lat="46.23468781" lon="7.37185621"><ele>498</ele><time>2007-05-30T13:02:52Z</time></trkpt>
<trkpt lat="46.23444366" lon="7.37169743"><ele>498</ele><time>2007-05-30T13:02:56Z</time></trkpt>
<trkpt lat="46.23419571" lon="7.37161589"><ele>497</ele><time>2007-05-30T13:03:00Z</time></trkpt>
<trkpt lat="46.23397064" lon="7.37146902"><ele>497</ele><time>2007-05-30T13:03:04Z</time></trkpt>
<trkpt lat="46.23353958" lon="7.37126398"><ele>497</ele><time>2007-05-30T13:03:11Z</time></trkpt>
<trkpt lat="46.23315048" lon="7.37116003"><ele>497</ele><time>2007-05-30T13:03:17Z</time></trkpt>
<trkpt lat="46.23272324" lon="7.37098885"><ele>496</ele><time>2007-05-30T13:03:24Z</time></trkpt>
<trkpt lat="46.23247528" lon="7.37091923"><ele>496</ele><time>2007-05-30T13:03:28Z</time></trkpt>
<trkpt lat="46.23226547" lon="7.37092924"><ele>496</ele><time>2007-05-30T13:03:31Z</time></trkpt>
<trkpt lat="46.23205566" lon="7.37091351"><ele>496</ele><time>2007-05-30T13:03:34Z</time></trkpt>
<trkpt lat="46.23154831" lon="7.37096500"><ele>496</ele><time>2007-05-30T13:03:41Z</time></trkpt>
<trkpt lat="46.23117447" lon="7.37099648"><ele>496</ele><time>2007-05-30T13:03:46Z</time></trkpt>
<trkpt lat="46.23110199" lon="7.37099600"><ele>496</ele><time>2007-05-30T13:03:47Z</time></trkpt>
<trkpt lat="46.23065567" lon="7.37095070"><ele>496</ele><time>2007-05-30T13:03:53Z</time></trkpt>
<trkpt lat="46.23032379" lon="7.37087631"><ele>496</ele><time>2007-05-30T13:03:58Z</time></trkpt>
<trkpt lat="46.22981262" lon="7.37090540"><ele>495</ele><time>2007-05-30T13:04:06Z</time></trkpt>
<trkpt lat="46.22970963" lon="7.37093210"><ele>496</ele><time>2007-05-30T13:04:08Z</time></trkpt>
<trkpt lat="46.22968292" lon="7.37108946"><ele>495</ele><time>2007-05-30T13:04:12Z</time></trkpt>
<trkpt lat="46.22980118" lon="7.37122345"><ele>495</ele><time>2007-05-30T13:04:16Z</time></trkpt>
<trkpt lat="46.22976685" lon="7.37132215"><ele>494</ele><time>2007-05-30T13:04:19Z</time></trkpt>
<trkpt lat="46.22971344" lon="7.37137127"><ele>494</ele><time>2007-05-30T13:04:21Z</time></trkpt>
<trkpt lat="46.22965622" lon="7.37149811"><ele>494</ele><time>2007-05-30T13:04:38Z</time></trkpt>
<trkpt lat="46.22967911" lon="7.37152004"><ele>493</ele><time>2007-05-30T13:04:41Z</time></trkpt>
<trkpt lat="46.22971344" lon="7.37146950"><ele>493</ele><time>2007-05-30T13:04:43Z</time></trkpt>
<trkpt lat="46.22978210" lon="7.37134695"><ele>494</ele><time>2007-05-30T13:04:47Z</time></trkpt>
<trkpt lat="46.22984695" lon="7.37122774"><ele>494</ele><time>2007-05-30T13:04:51Z</time></trkpt>
<trkpt lat="46.22980499" lon="7.37112665"><ele>495</ele><time>2007-05-30T13:04:55Z</time></trkpt>
<trkpt lat="46.22966766" lon="7.37093496"><ele>495</ele><time>2007-05-30T13:05:01Z</time></trkpt>
<trkpt lat="46.22953415" lon="7.37085629"><ele>496</ele><time>2007-05-30T13:05:05Z</time></trkpt>
<trkpt lat="46.22935867" lon="7.37077045"><ele>496</ele><time>2007-05-30T13:05:10Z</time></trkpt>
<trkpt lat="46.22932434" lon="7.37075090"><ele>496</ele><time>2007-05-30T13:05:11Z</time></trkpt>
<trkpt lat="46.22911835" lon="7.37065792"><ele>497</ele><time>2007-05-30T13:05:16Z</time></trkpt>
<trkpt lat="46.22885132" lon="7.37049580"><ele>498</ele><time>2007-05-30T13:05:22Z</time></trkpt>
<trkpt lat="46.22875214" lon="7.37045240"><ele>498</ele><time>2007-05-30T13:05:24Z</time></trkpt>
<trkpt lat="46.22848511" lon="7.37042332"><ele>499</ele><time>2007-05-30T13:05:29Z</time></trkpt>
<trkpt lat="46.22833252" lon="7.37034655"><ele>498</ele><time>2007-05-30T13:05:33Z</time></trkpt>
<trkpt lat="46.22835159" lon="7.37019539"><ele>498</ele><time>2007-05-30T13:05:36Z</time></trkpt>
<trkpt lat="46.22855377" lon="7.36958742"><ele>499</ele><time>2007-05-30T13:05:45Z</time></trkpt>
<trkpt lat="46.22867584" lon="7.36921358"><ele>499</ele><time>2007-05-30T13:05:50Z</time></trkpt>
<trkpt lat="46.22882080" lon="7.36892033"><ele>498</ele><time>2007-05-30T13:05:54Z</time></trkpt>
<trkpt lat="46.22881317" lon="7.36870241"><ele>498</ele><time>2007-05-30T13:05:57Z</time></trkpt>
<trkpt lat="46.22872543" lon="7.36866426"><ele>499</ele><time>2007-05-30T13:05:59Z</time></trkpt>
<trkpt lat="46.22832489" lon="7.36844540"><ele>498</ele><time>2007-05-30T13:06:07Z</time></trkpt>
<trkpt lat="46.22805023" lon="7.36819363"><ele>496</ele><time>2007-05-30T13:06:12Z</time></trkpt>
<trkpt lat="46.22790527" lon="7.36796331"><ele>497</ele><time>2007-05-30T13:06:15Z</time></trkpt>
<trkpt lat="46.22774887" lon="7.36747599"><ele>496</ele><time>2007-05-30T13:06:20Z</time></trkpt>
<trkpt lat="46.22753525" lon="7.36620951"><ele>496</ele><time>2007-05-30T13:06:32Z</time></trkpt>
<trkpt lat="46.22738647" lon="7.36527681"><ele>497</ele><time>2007-05-30T13:06:41Z</time></trkpt>
<trkpt lat="46.22725296" lon="7.36449671"><ele>496</ele><time>2007-05-30T13:06:49Z</time></trkpt>
<trkpt lat="46.22708511" lon="7.36348629"><ele>495</ele><time>2007-05-30T13:06:59Z</time></trkpt>
<trkpt lat="46.22694016" lon="7.36262560"><ele>495</ele><time>2007-05-30T13:07:07Z</time></trkpt>
<trkpt lat="46.22681808" lon="7.36186838"><ele>495</ele><time>2007-05-30T13:07:14Z</time></trkpt>
<trkpt lat="46.22682571" lon="7.36154366"><ele>494</ele><time>2007-05-30T13:07:18Z</time></trkpt>
</trkseg></trk></gpx>